Darstellungsparameter: Aktuell verwendete Einstellungen:
Skalierung der Graphiken ... ?
xyx+y,   Skalierungsfaktor:      Skalierung: Modus: x, Faktor: 1
Darstellungszeitraum ... ?
Vom - - bis: - -   Zeitraum: 29.12.2011 - 28.06.2012
Min/Max/Avg-Anzeige ... ?
Zeige MMA aktuell
Zeige MMA Monat
Zeige MMA alles
Zeige --A aktuell
Zeige --A Monat
Zeige --A alles
Keine MMA-Anzeige
MMA:
Average (ber die Originaldaten)
MMA-Basis: 29.12.2011 - 28.06.2012
Quicknavigation für Darstellung... ?
Tage:      1T, 2T, 3T, 5T -1T -2T -3T -5T +1T +2T +3T +5T
Wochen: 1W, 2W, 3W -1W -2W -3W +1W +2W +3W
Monate: 1M, 3M, 6M -1M -3M -6M +1M +3M +6M
Jahre:    1J, 3J, 5J, 10J -1J -3J -5J -10J +1J +3J +5J +10J
Nutze für die Darstellung ... ?
Originaldaten oder Mittelwerte auf ...
Stundenbasis Tagesbasis Wochenbasis
Monatsbasis Jahresbasis      Datenbasis: Original-Daten
Darstellen als:
Statistik (Auto) Statistik J:M      Darstellung:
Zur Graphik,    zurück zur Übersicht aller Sensoren.
 
Tabellarische Datenbersicht: ?
 
Sensor: Nr:Datum:Temp:Abs-Feuchte:Windchill:Wind:
Aussen-T/F 1 29-12-2011 00:00:00 4.8 C 5.83 g/m*3 2.49 C 9.7 km/h
2 29-12-2011 00:05:00 4.9 C 5.87 g/m*3 1.46 C 16.1 km/h
3 29-12-2011 00:10:00 4.9 C 5.87 g/m*3 1.7 C 14.5 km/h
4 29-12-2011 00:15:00 5 C 5.91 g/m*3 1.58 C 16.1 km/h
5 29-12-2011 00:20:00 5.1 C 5.95 g/m*3 1.95 C 14.5 km/h
6 29-12-2011 00:25:00 5.2 C 5.92 g/m*3 2.34 C 12.9 km/h
7 29-12-2011 00:30:00 5.2 C 5.92 g/m*3 2.07 C 14.5 km/h
8 29-12-2011 00:35:00 5.2 C 5.92 g/m*3 2.96 C 9.7 km/h
9 29-12-2011 00:40:00 5.2 C 5.92 g/m*3 2.34 C 12.9 km/h
10 29-12-2011 00:45:00 5.2 C 5.92 g/m*3 2.34 C 12.9 km/h
11 29-12-2011 00:50:00 5.2 C 5.99 g/m*3 3.34 C 8.1 km/h
12 29-12-2011 00:55:00 5.2 C 5.92 g/m*3 2.96 C 9.7 km/h
13 29-12-2011 01:00:00 5.2 C 5.99 g/m*3 3.34 C 8.1 km/h
14 29-12-2011 01:05:00 5.2 C 5.99 g/m*3 3.34 C 8.1 km/h
15 29-12-2011 01:10:00 5.2 C 5.99 g/m*3 3.82 C 6.4 km/h
16 29-12-2011 01:15:00 5.2 C 5.99 g/m*3 2.34 C 12.9 km/h
17 29-12-2011 01:20:00 5.2 C 5.99 g/m*3 3.82 C 6.4 km/h
18 29-12-2011 01:25:00 5.2 C 5.99 g/m*3 5.2 C 4.8 km/h
19 29-12-2011 01:30:00 5.1 C 5.95 g/m*3 5.1 C 4.8 km/h
20 29-12-2011 01:35:00 5.1 C 5.95 g/m*3 2.51 C 11.3 km/h
21 29-12-2011 01:40:00 5.1 C 5.95 g/m*3 5.1 C 4.8 km/h
22 29-12-2011 01:45:00 5.1 C 5.95 g/m*3 3.71 C 6.4 km/h
23 29-12-2011 01:50:00 4.9 C 5.87 g/m*3 4.9 C 4.8 km/h
24 29-12-2011 01:55:00 4.7 C 5.86 g/m*3 4.7 C 4.8 km/h
25 29-12-2011 02:00:00 4.6 C 5.82 g/m*3 4.6 C 4.8 km/h
Sensor: Nr:Datum:Temp:Abs-Feuchte:Windchill:Wind:
Aussen-T/F 26 29-12-2011 02:05:00 4.4 C 5.81 g/m*3 2.9 C 6.4 km/h
27 29-12-2011 02:10:00 4.2 C 5.73 g/m*3 2.67 C 6.4 km/h
28 29-12-2011 02:15:00 4.1 C 5.7 g/m*3 4.1 C 4.8 km/h
29 29-12-2011 02:20:00 4 C 5.72 g/m*3 2.44 C 6.4 km/h
30 29-12-2011 02:25:00 3.9 C 5.75 g/m*3 1.41 C 9.7 km/h
31 29-12-2011 02:30:00 4.1 C 5.76 g/m*3 4.1 C 4.8 km/h
32 29-12-2011 02:35:00 4.1 C 5.76 g/m*3 4.1 C 4.8 km/h
33 29-12-2011 02:40:00 3.9 C 5.68 g/m*3 3.9 C 4.8 km/h
34 29-12-2011 02:45:00 3.9 C 5.68 g/m*3 3.9 C 4.8 km/h
35 29-12-2011 02:50:00 3.8 C 5.65 g/m*3 3.8 C 3.2 km/h
36 29-12-2011 02:55:00 3.7 C 5.61 g/m*3 3.7 C 3.2 km/h
37 29-12-2011 03:00:00 3.5 C 5.6 g/m*3 3.5 C 4.8 km/h
38 29-12-2011 03:05:00 3.4 C 5.62 g/m*3 3.4 C 4.8 km/h
39 29-12-2011 03:10:00 3.6 C 5.69 g/m*3 1.46 C 8.1 km/h
40 29-12-2011 03:15:00 3.8 C 5.71 g/m*3 1.29 C 9.7 km/h
41 29-12-2011 03:20:00 3.9 C 5.68 g/m*3 2.32 C 6.4 km/h
42 29-12-2011 03:25:00 4.1 C 5.7 g/m*3 2.55 C 6.4 km/h
43 29-12-2011 03:30:00 4.2 C 5.67 g/m*3 4.2 C 4.8 km/h
44 29-12-2011 03:35:00 4 C 5.59 g/m*3 4 C 4.8 km/h
45 29-12-2011 03:40:00 3.9 C 5.56 g/m*3 1.06 C 11.3 km/h
46 29-12-2011 03:45:00 4.3 C 5.58 g/m*3 1.55 C 11.3 km/h
47 29-12-2011 03:50:00 4.6 C 5.56 g/m*3 2.25 C 9.7 km/h
48 29-12-2011 03:55:00 4.8 C 5.57 g/m*3 1.85 C 12.9 km/h
49 29-12-2011 04:00:00 4.8 C 5.57 g/m*3 2.49 C 9.7 km/h
50 29-12-2011 04:05:00 4.8 C 5.63 g/m*3 2.87 C 8.1 km/h
Sensor: Nr:Datum:Temp:Abs-Feuchte:Windchill:Wind:
Aussen-T/F 51 29-12-2011 04:10:00 4.8 C 5.63 g/m*3 2.87 C 8.1 km/h
52 29-12-2011 04:15:00 4.8 C 5.57 g/m*3 1.34 C 16.1 km/h
53 29-12-2011 04:20:00 5.1 C 5.61 g/m*3 1.95 C 14.5 km/h
54 29-12-2011 04:25:00 5.3 C 5.61 g/m*3 3.08 C 9.7 km/h
55 29-12-2011 04:30:00 5.4 C 5.65 g/m*3 3.58 C 8.1 km/h
56 29-12-2011 04:35:00 5.4 C 5.65 g/m*3 2.87 C 11.3 km/h
57 29-12-2011 04:40:00 5.3 C 5.61 g/m*3 3.46 C 8.1 km/h
58 29-12-2011 04:45:00 5.2 C 5.58 g/m*3 2.96 C 9.7 km/h
59 29-12-2011 04:50:00 5.3 C 5.61 g/m*3 2.46 C 12.9 km/h
60 29-12-2011 04:55:00 5.2 C 5.58 g/m*3 3.34 C 8.1 km/h
61 29-12-2011 05:00:00 5.2 C 5.58 g/m*3 2.34 C 12.9 km/h
62 29-12-2011 05:05:00 5.1 C 5.54 g/m*3 2.51 C 11.3 km/h
63 29-12-2011 05:10:00 5.1 C 5.54 g/m*3 2.84 C 9.7 km/h
64 29-12-2011 05:15:00 4.9 C 5.54 g/m*3 2.61 C 9.7 km/h
65 29-12-2011 05:20:00 4.9 C 5.54 g/m*3 2.99 C 8.1 km/h
66 29-12-2011 05:25:00 4.8 C 5.57 g/m*3 3.36 C 6.4 km/h
67 29-12-2011 05:30:00 5 C 5.57 g/m*3 2.39 C 11.3 km/h
68 29-12-2011 05:35:00 5.2 C 5.58 g/m*3 3.34 C 8.1 km/h
69 29-12-2011 05:40:00 5.2 C 5.58 g/m*3 5.2 C 4.8 km/h
70 29-12-2011 05:45:00 5.2 C 5.58 g/m*3 3.82 C 6.4 km/h
71 29-12-2011 05:50:00 5.2 C 5.58 g/m*3 3.82 C 6.4 km/h
72 29-12-2011 05:55:00 5.2 C 5.65 g/m*3 3.82 C 6.4 km/h
73 29-12-2011 06:00:00 5.2 C 5.65 g/m*3 2.34 C 12.9 km/h
74 29-12-2011 06:05:00 5.2 C 5.58 g/m*3 3.34 C 8.1 km/h
75 29-12-2011 06:10:00 5.2 C 5.58 g/m*3 3.82 C 6.4 km/h
Sensor: Nr:Datum:Temp:Abs-Feuchte:Windchill:Wind:
Aussen-T/F 76 29-12-2011 06:15:00 5.2 C 5.58 g/m*3 2.96 C 9.7 km/h
77 29-12-2011 06:20:00 5.3 C 5.61 g/m*3 3.94 C 6.4 km/h
78 29-12-2011 06:25:00 5.3 C 5.54 g/m*3 3.08 C 9.7 km/h
79 29-12-2011 06:30:00 5.4 C 5.58 g/m*3 3.58 C 8.1 km/h
80 29-12-2011 06:35:00 5.4 C 5.58 g/m*3 4.06 C 6.4 km/h
81 29-12-2011 06:40:00 5.4 C 5.58 g/m*3 3.58 C 8.1 km/h
82 29-12-2011 06:45:00 5.4 C 5.58 g/m*3 5.4 C 4.8 km/h
83 29-12-2011 06:50:00 5.4 C 5.58 g/m*3 3.58 C 8.1 km/h
84 29-12-2011 06:55:00 5.3 C 5.61 g/m*3 5.3 C 4.8 km/h
85 29-12-2011 07:00:00 5.3 C 5.54 g/m*3 3.94 C 6.4 km/h
86 29-12-2011 07:05:00 5.3 C 5.61 g/m*3 3.94 C 6.4 km/h
87 29-12-2011 07:10:00 5.3 C 5.54 g/m*3 3.46 C 8.1 km/h
88 29-12-2011 07:15:00 5.4 C 5.51 g/m*3 4.06 C 6.4 km/h
89 29-12-2011 07:20:00 5.4 C 5.58 g/m*3 4.06 C 6.4 km/h
90 29-12-2011 07:25:00 5.4 C 5.58 g/m*3 2.87 C 11.3 km/h
91 29-12-2011 07:30:00 5.4 C 5.51 g/m*3 3.2 C 9.7 km/h
92 29-12-2011 07:35:00 5.5 C 5.48 g/m*3 2.99 C 11.3 km/h
93 29-12-2011 07:40:00 5.6 C 5.51 g/m*3 3.11 C 11.3 km/h
94 29-12-2011 07:45:00 5.6 C 5.51 g/m*3 3.11 C 11.3 km/h
95 29-12-2011 07:50:00 5.6 C 5.44 g/m*3 2.83 C 12.9 km/h
96 29-12-2011 07:55:00 5.5 C 5.41 g/m*3 3.32 C 9.7 km/h
97 29-12-2011 08:00:00 5.4 C 5.37 g/m*3 2.58 C 12.9 km/h
98 29-12-2011 08:05:00 5.4 C 5.44 g/m*3 3.2 C 9.7 km/h
99 29-12-2011 08:10:00 5.4 C 5.37 g/m*3 0.96 C 25.7 km/h
100 29-12-2011 08:15:00 5.5 C 5.41 g/m*3 2.99 C 11.3 km/h
Sensor: Nr:Datum:Temp:Abs-Feuchte:Windchill:Wind:
Aussen-T/F 101 29-12-2011 08:20:00 5.6 C 5.44 g/m*3 3.81 C 8.1 km/h
102 29-12-2011 08:25:00 5.6 C 5.44 g/m*3 2.57 C 14.5 km/h
103 29-12-2011 08:30:00 5.6 C 5.44 g/m*3 3.44 C 9.7 km/h
104 29-12-2011 08:35:00 5.6 C 5.44 g/m*3 2.83 C 12.9 km/h
105 29-12-2011 08:40:00 5.6 C 5.44 g/m*3 3.81 C 8.1 km/h
106 29-12-2011 08:45:00 5.6 C 5.44 g/m*3 3.81 C 8.1 km/h
107 29-12-2011 08:50:00 5.6 C 5.37 g/m*3 3.11 C 11.3 km/h
108 29-12-2011 08:55:00 5.7 C 5.41 g/m*3 3.93 C 8.1 km/h
109 29-12-2011 09:00:00 5.6 C 5.37 g/m*3 5.6 C 4.8 km/h
110 29-12-2011 09:05:00 5.6 C 5.44 g/m*3 4.29 C 6.4 km/h
111 29-12-2011 09:10:00 5.6 C 5.44 g/m*3 5.6 C 4.8 km/h
112 29-12-2011 09:15:00 5.5 C 5.48 g/m*3 4.17 C 6.4 km/h
113 29-12-2011 09:20:00 5.5 C 5.48 g/m*3 4.17 C 6.4 km/h
114 29-12-2011 09:25:00 5.5 C 5.48 g/m*3 4.17 C 6.4 km/h
115 29-12-2011 09:30:00 5.6 C 5.44 g/m*3 3.81 C 8.1 km/h
116 29-12-2011 09:35:00 5.6 C 5.44 g/m*3 3.81 C 8.1 km/h
117 29-12-2011 09:40:00 5.7 C 5.48 g/m*3 4.4 C 6.4 km/h
118 29-12-2011 09:45:00 5.7 C 5.55 g/m*3 3.23 C 11.3 km/h
119 29-12-2011 09:50:00 5.7 C 5.48 g/m*3 3.93 C 8.1 km/h
120 29-12-2011 09:55:00 5.7 C 5.48 g/m*3 3.56 C 9.7 km/h
121 29-12-2011 10:00:00 5.8 C 5.52 g/m*3 3.68 C 9.7 km/h
122 29-12-2011 10:05:00 5.8 C 5.44 g/m*3 3.36 C 11.3 km/h
123 29-12-2011 10:10:00 5.8 C 5.44 g/m*3 3.68 C 9.7 km/h
124 29-12-2011 10:15:00 5.8 C 5.52 g/m*3 4.05 C 8.1 km/h
125 29-12-2011 10:20:00 5.8 C 5.52 g/m*3 4.52 C 6.4 km/h
Sensor: Nr:Datum:Temp:Abs-Feuchte:Windchill:Wind:
Aussen-T/F 126 29-12-2011 10:25:00 5.8 C 5.52 g/m*3 3.07 C 12.9 km/h
127 29-12-2011 10:30:00 5.8 C 5.44 g/m*3 4.05 C 8.1 km/h
128 29-12-2011 10:35:00 5.9 C 5.48 g/m*3 3.48 C 11.3 km/h
129 29-12-2011 10:40:00 5.9 C 5.48 g/m*3 3.19 C 12.9 km/h
130 29-12-2011 10:45:00 5.9 C 5.48 g/m*3 3.48 C 11.3 km/h
131 29-12-2011 10:50:00 5.9 C 5.48 g/m*3 3.8 C 9.7 km/h
132 29-12-2011 10:55:00 5.9 C 5.41 g/m*3 2.93 C 14.5 km/h
133 29-12-2011 11:00:00 5.9 C 5.48 g/m*3 3.8 C 9.7 km/h
134 29-12-2011 11:05:00 5.9 C 5.48 g/m*3 3.48 C 11.3 km/h
135 29-12-2011 11:10:00 6 C 5.52 g/m*3 3.06 C 14.5 km/h
136 29-12-2011 11:15:00 6 C 5.52 g/m*3 3.06 C 14.5 km/h
137 29-12-2011 11:20:00 5.9 C 5.55 g/m*3 4.17 C 8.1 km/h
138 29-12-2011 11:25:00 5.9 C 5.55 g/m*3 3.8 C 9.7 km/h
139 29-12-2011 11:30:00 5.9 C 5.48 g/m*3 2.93 C 14.5 km/h
140 29-12-2011 11:35:00 6 C 5.52 g/m*3 3.06 C 14.5 km/h
141 29-12-2011 11:40:00 6.1 C 5.55 g/m*3 4.04 C 9.7 km/h
142 29-12-2011 11:45:00 6.1 C 5.48 g/m*3 3.18 C 14.5 km/h
143 29-12-2011 11:50:00 6.1 C 5.55 g/m*3 3.72 C 11.3 km/h
144 29-12-2011 11:55:00 6.2 C 5.59 g/m*3 3.3 C 14.5 km/h
145 29-12-2011 12:00:00 6.2 C 5.52 g/m*3 3.56 C 12.9 km/h
146 29-12-2011 12:05:00 6.2 C 5.52 g/m*3 3.3 C 14.5 km/h
147 29-12-2011 12:10:00 6.2 C 5.44 g/m*3 4.52 C 8.1 km/h
148 29-12-2011 12:15:00 6.3 C 5.48 g/m*3 4.27 C 9.7 km/h
149 29-12-2011 12:20:00 6.3 C 5.48 g/m*3 4.27 C 9.7 km/h
150 29-12-2011 12:25:00 6.3 C 5.4 g/m*3 3.68 C 12.9 km/h
Sensor: Nr:Datum:Temp:Abs-Feuchte:Windchill:Wind:
Aussen-T/F 151 29-12-2011 12:30:00 6.3 C 5.4 g/m*3 3.43 C 14.5 km/h
152 29-12-2011 12:35:00 6.3 C 5.33 g/m*3 3.2 C 16.1 km/h
153 29-12-2011 12:40:00 6.3 C 5.33 g/m*3 3.43 C 14.5 km/h
154 29-12-2011 12:45:00 6.3 C 5.26 g/m*3 3.43 C 14.5 km/h
155 29-12-2011 12:50:00 6.3 C 5.18 g/m*3 3.68 C 12.9 km/h
156 29-12-2011 12:55:00 6.3 C 5.03 g/m*3 3.68 C 12.9 km/h
157 29-12-2011 13:00:00 6.3 C 5.18 g/m*3 3.43 C 14.5 km/h
158 29-12-2011 13:05:00 6.3 C 5.26 g/m*3 3.96 C 11.3 km/h
159 29-12-2011 13:10:00 6.3 C 5.26 g/m*3 3.68 C 12.9 km/h
160 29-12-2011 13:15:00 6.3 C 5.18 g/m*3 3.96 C 11.3 km/h
161 29-12-2011 13:20:00 6.3 C 5.26 g/m*3 4.64 C 8.1 km/h
162 29-12-2011 13:25:00 6.4 C 5.14 g/m*3 3.8 C 12.9 km/h
163 29-12-2011 13:30:00 6.3 C 5.11 g/m*3 3.68 C 12.9 km/h
164 29-12-2011 13:35:00 6.3 C 5.11 g/m*3 3.68 C 12.9 km/h
165 29-12-2011 13:40:00 6.2 C 5.07 g/m*3 2.66 C 19.3 km/h
166 29-12-2011 13:45:00 6.3 C 5.11 g/m*3 3.2 C 16.1 km/h
167 29-12-2011 13:50:00 6.3 C 5.03 g/m*3 2.98 C 17.7 km/h
168 29-12-2011 13:55:00 6.3 C 5.11 g/m*3 3.43 C 14.5 km/h
169 29-12-2011 14:00:00 6.3 C 5.11 g/m*3 2.79 C 19.3 km/h
170 29-12-2011 14:05:00 6.2 C 5.07 g/m*3 3.3 C 14.5 km/h
171 29-12-2011 14:10:00 6.2 C 5.07 g/m*3 2.86 C 17.7 km/h
172 29-12-2011 14:15:00 6.2 C 5.07 g/m*3 3.07 C 16.1 km/h
173 29-12-2011 14:20:00 6.3 C 5.11 g/m*3 2.27 C 24.1 km/h
174 29-12-2011 14:25:00 6.3 C 5.11 g/m*3 3.96 C 11.3 km/h
175 29-12-2011 14:30:00 6.3 C 5.11 g/m*3 3.96 C 11.3 km/h
Sensor: Nr:Datum:Temp:Abs-Feuchte:Windchill:Wind:
Aussen-T/F 176 29-12-2011 14:35:00 6.3 C 5.03 g/m*3 2.98 C 17.7 km/h
177 29-12-2011 14:40:00 6.3 C 5.03 g/m*3 2.27 C 24.1 km/h
178 29-12-2011 14:45:00 6.3 C 5.03 g/m*3 3.96 C 11.3 km/h
179 29-12-2011 14:50:00 6.3 C 5.03 g/m*3 3.43 C 14.5 km/h
180 29-12-2011 14:55:00 6.3 C 5.03 g/m*3 3.96 C 11.3 km/h
181 29-12-2011 15:00:00 6.4 C 5.14 g/m*3 3.55 C 14.5 km/h
182 29-12-2011 15:05:00 6.4 C 5.14 g/m*3 3.8 C 12.9 km/h
183 29-12-2011 15:10:00 6.3 C 5.11 g/m*3 3.2 C 16.1 km/h
184 29-12-2011 15:15:00 6.3 C 5.18 g/m*3 3.43 C 14.5 km/h
185 29-12-2011 15:20:00 6.2 C 5.29 g/m*3 2.86 C 17.7 km/h
186 29-12-2011 15:25:00 5.9 C 5.26 g/m*3 2.93 C 14.5 km/h
187 29-12-2011 15:30:00 5.9 C 5.34 g/m*3 3.19 C 12.9 km/h
188 29-12-2011 15:35:00 5.8 C 5.3 g/m*3 2.36 C 17.7 km/h
189 29-12-2011 15:40:00 5.7 C 5.34 g/m*3 2.24 C 17.7 km/h
190 29-12-2011 15:45:00 5.7 C 5.34 g/m*3 2.45 C 16.1 km/h
191 29-12-2011 15:50:00 5.6 C 5.37 g/m*3 3.11 C 11.3 km/h
192 29-12-2011 15:55:00 5.6 C 5.44 g/m*3 2.33 C 16.1 km/h
193 29-12-2011 16:00:00 5.5 C 5.41 g/m*3 2.44 C 14.5 km/h
194 29-12-2011 16:05:00 5.4 C 5.44 g/m*3 2.32 C 14.5 km/h
195 29-12-2011 16:10:00 5.4 C 5.51 g/m*3 2.08 C 16.1 km/h
196 29-12-2011 16:15:00 5.3 C 5.48 g/m*3 2.46 C 12.9 km/h
197 29-12-2011 16:20:00 5.3 C 5.54 g/m*3 2.2 C 14.5 km/h
198 29-12-2011 16:25:00 5.3 C 5.54 g/m*3 2.2 C 14.5 km/h
199 29-12-2011 16:30:00 5.3 C 5.61 g/m*3 2.75 C 11.3 km/h
200 29-12-2011 16:35:00 5.2 C 5.65 g/m*3 2.07 C 14.5 km/h
Sensor: Nr:Datum:Temp:Abs-Feuchte:Windchill:Wind:
Aussen-T/F 201 29-12-2011 16:40:00 5.1 C 5.68 g/m*3 1.28 C 19.3 km/h
202 29-12-2011 16:45:00 5 C 5.71 g/m*3 2.09 C 12.9 km/h
203 29-12-2011 16:50:00 5 C 5.71 g/m*3 2.09 C 12.9 km/h
204 29-12-2011 16:55:00 5.1 C 5.75 g/m*3 1.71 C 16.1 km/h
205 29-12-2011 17:00:00 5.1 C 5.75 g/m*3 2.22 C 12.9 km/h
206 29-12-2011 17:05:00 5.1 C 5.68 g/m*3 1.95 C 14.5 km/h
207 29-12-2011 17:10:00 5.1 C 5.75 g/m*3 1.71 C 16.1 km/h
208 29-12-2011 17:15:00 5.1 C 5.68 g/m*3 1.71 C 16.1 km/h
209 29-12-2011 17:20:00 5.1 C 5.75 g/m*3 1.71 C 16.1 km/h
210 29-12-2011 17:25:00 5.1 C 5.75 g/m*3 2.51 C 11.3 km/h
211 29-12-2011 17:30:00 5.1 C 5.75 g/m*3 1.49 C 17.7 km/h
212 29-12-2011 17:35:00 5.1 C 5.75 g/m*3 2.84 C 9.7 km/h
213 29-12-2011 17:40:00 5.1 C 5.75 g/m*3 2.51 C 11.3 km/h
214 29-12-2011 17:45:00 5 C 5.71 g/m*3 0.96 C 20.9 km/h
215 29-12-2011 17:50:00 5 C 5.71 g/m*3 1.58 C 16.1 km/h
216 29-12-2011 17:55:00 5.1 C 5.75 g/m*3 2.51 C 11.3 km/h
217 29-12-2011 18:00:00 5.1 C 5.75 g/m*3 1.95 C 14.5 km/h
218 29-12-2011 18:05:00 5.1 C 5.81 g/m*3 1.95 C 14.5 km/h
219 29-12-2011 18:10:00 5.1 C 5.81 g/m*3 2.51 C 11.3 km/h
220 29-12-2011 18:15:00 5.1 C 5.81 g/m*3 2.22 C 12.9 km/h
221 29-12-2011 18:20:00 5.1 C 5.81 g/m*3 1.95 C 14.5 km/h
222 29-12-2011 18:25:00 5.1 C 5.81 g/m*3 2.51 C 11.3 km/h
223 29-12-2011 18:30:00 5.1 C 5.81 g/m*3 2.22 C 12.9 km/h
224 29-12-2011 18:35:00 5.1 C 5.81 g/m*3 1.28 C 19.3 km/h
225 29-12-2011 18:40:00 5.1 C 5.81 g/m*3 2.51 C 11.3 km/h
Sensor: Nr:Datum:Temp:Abs-Feuchte:Windchill:Wind:
Aussen-T/F 226 29-12-2011 18:45:00 5.2 C 5.85 g/m*3 2.34 C 12.9 km/h
227 29-12-2011 18:50:00 5.3 C 5.89 g/m*3 1.74 C 17.7 km/h
228 29-12-2011 18:55:00 5.3 C 5.89 g/m*3 1.96 C 16.1 km/h
229 29-12-2011 19:00:00 5.3 C 5.89 g/m*3 3.08 C 9.7 km/h
230 29-12-2011 19:05:00 5.4 C 6 g/m*3 1.86 C 17.7 km/h
231 29-12-2011 19:10:00 5.4 C 6 g/m*3 1.66 C 19.3 km/h
232 29-12-2011 19:15:00 5.4 C 5.93 g/m*3 1.86 C 17.7 km/h
233 29-12-2011 19:20:00 5.4 C 6 g/m*3 2.58 C 12.9 km/h
234 29-12-2011 19:25:00 5.5 C 5.97 g/m*3 2.7 C 12.9 km/h
235 29-12-2011 19:30:00 5.6 C 6.01 g/m*3 2.33 C 16.1 km/h
236 29-12-2011 19:35:00 5.7 C 6.05 g/m*3 2.69 C 14.5 km/h
237 29-12-2011 19:40:00 5.7 C 6.05 g/m*3 3.23 C 11.3 km/h
238 29-12-2011 19:45:00 5.6 C 6.01 g/m*3 3.11 C 11.3 km/h
239 29-12-2011 19:50:00 5.6 C 6.01 g/m*3 3.44 C 9.7 km/h
240 29-12-2011 19:55:00 5.7 C 5.98 g/m*3 2.69 C 14.5 km/h
241 29-12-2011 20:00:00 5.8 C 6.02 g/m*3 2.36 C 17.7 km/h
242 29-12-2011 20:05:00 5.8 C 6.02 g/m*3 2.58 C 16.1 km/h
243 29-12-2011 20:10:00 5.9 C 6.06 g/m*3 2.7 C 16.1 km/h
244 29-12-2011 20:15:00 6 C 6.02 g/m*3 2.82 C 16.1 km/h
245 29-12-2011 20:20:00 6 C 6.1 g/m*3 3.92 C 9.7 km/h
246 29-12-2011 20:25:00 6 C 6.1 g/m*3 3.31 C 12.9 km/h
247 29-12-2011 20:30:00 6.1 C 6.14 g/m*3 2.35 C 20.9 km/h
248 29-12-2011 20:35:00 6 C 6.1 g/m*3 2.61 C 17.7 km/h
249 29-12-2011 20:40:00 6 C 6.1 g/m*3 2.82 C 16.1 km/h
250 29-12-2011 20:45:00 6 C 6.02 g/m*3 2.61 C 17.7 km/h
Sensor: Nr:Datum:Temp:Abs-Feuchte:Windchill:Wind:
Aussen-T/F 251 29-12-2011 20:50:00 6 C 6.1 g/m*3 2.82 C 16.1 km/h
252 29-12-2011 20:55:00 6 C 6.02 g/m*3 2.41 C 19.3 km/h
253 29-12-2011 21:00:00 6.1 C 6.06 g/m*3 2.35 C 20.9 km/h
254 29-12-2011 21:05:00 6.1 C 6.06 g/m*3 2.73 C 17.7 km/h
255 29-12-2011 21:10:00 6 C 6.1 g/m*3 2.82 C 16.1 km/h
256 29-12-2011 21:15:00 5.9 C 6.06 g/m*3 2.7 C 16.1 km/h
257 29-12-2011 21:20:00 6 C 6.1 g/m*3 2.61 C 17.7 km/h
258 29-12-2011 21:25:00 6 C 6.02 g/m*3 3.31 C 12.9 km/h
259 29-12-2011 21:30:00 6 C 6.1 g/m*3 2.61 C 17.7 km/h
260 29-12-2011 21:35:00 6 C 6.1 g/m*3 2.61 C 17.7 km/h
261 29-12-2011 21:40:00 6 C 6.1 g/m*3 2.41 C 19.3 km/h
262 29-12-2011 21:45:00 6.1 C 6.06 g/m*3 2.95 C 16.1 km/h
263 29-12-2011 21:50:00 6.1 C 6.06 g/m*3 2.95 C 16.1 km/h
264 29-12-2011 21:55:00 6.1 C 6.06 g/m*3 2.35 C 20.9 km/h
265 29-12-2011 22:00:00 6.1 C 5.99 g/m*3 2.54 C 19.3 km/h
266 29-12-2011 22:05:00 6.1 C 5.99 g/m*3 2.35 C 20.9 km/h
267 29-12-2011 22:10:00 6.1 C 6.06 g/m*3 2.73 C 17.7 km/h
268 29-12-2011 22:15:00 6.1 C 6.06 g/m*3 2.73 C 17.7 km/h
269 29-12-2011 22:20:00 6.1 C 6.06 g/m*3 2.73 C 17.7 km/h
270 29-12-2011 22:25:00 6.1 C 6.06 g/m*3 3.18 C 14.5 km/h
271 29-12-2011 22:30:00 6.1 C 6.06 g/m*3 2.95 C 16.1 km/h
272 29-12-2011 22:35:00 6.1 C 6.06 g/m*3 2.95 C 16.1 km/h
273 29-12-2011 22:40:00 6.1 C 6.06 g/m*3 3.18 C 14.5 km/h
274 29-12-2011 22:45:00 6.1 C 6.06 g/m*3 3.72 C 11.3 km/h
275 29-12-2011 22:50:00 6.1 C 6.06 g/m*3 3.72 C 11.3 km/h
Sensor: Nr:Datum:Temp:Abs-Feuchte:Windchill:Wind:
Aussen-T/F 276 29-12-2011 22:55:00 6.1 C 6.06 g/m*3 3.43 C 12.9 km/h
277 29-12-2011 23:00:00 6.1 C 6.06 g/m*3 3.18 C 14.5 km/h
278 29-12-2011 23:05:00 6.2 C 6.03 g/m*3 3.07 C 16.1 km/h
279 29-12-2011 23:10:00 6.2 C 6.03 g/m*3 3.56 C 12.9 km/h
280 29-12-2011 23:15:00 6.2 C 6.03 g/m*3 2.86 C 17.7 km/h
281 29-12-2011 23:20:00 6.2 C 6.03 g/m*3 2.86 C 17.7 km/h
282 29-12-2011 23:25:00 6.2 C 6.03 g/m*3 3.07 C 16.1 km/h
283 29-12-2011 23:30:00 6.3 C 6.07 g/m*3 2.43 C 22.5 km/h
284 29-12-2011 23:35:00 6.3 C 6.07 g/m*3 2.98 C 17.7 km/h
285 29-12-2011 23:40:00 6.3 C 6.07 g/m*3 3.2 C 16.1 km/h
286 29-12-2011 23:45:00 6.3 C 6.07 g/m*3 2.43 C 22.5 km/h
287 29-12-2011 23:50:00 6.4 C 6.04 g/m*3 2.4 C 24.1 km/h
288 29-12-2011 23:55:00 6.5 C 6 g/m*3 2.53 C 24.1 km/h
289 30-12-2011 00:00:00 6.6 C 6.04 g/m*3 2.82 C 22.5 km/h
290 30-12-2011 00:05:00 6.7 C 6.08 g/m*3 3.69 C 16.1 km/h
291 30-12-2011 00:10:00 6.1 C 5.92 g/m*3 2.02 C 24.1 km/h
292 30-12-2011 00:15:00 5.1 C 5.81 g/m*3 1.71 C 16.1 km/h
293 30-12-2011 00:20:00 4.8 C 5.9 g/m*3 2.49 C 9.7 km/h
294 30-12-2011 00:25:00 4.7 C 5.93 g/m*3 1.46 C 14.5 km/h
295 30-12-2011 00:30:00 4.8 C 5.97 g/m*3 2.15 C 11.3 km/h
296 30-12-2011 00:35:00 4.9 C 5.94 g/m*3 1.97 C 12.9 km/h
297 30-12-2011 00:40:00 4.9 C 5.94 g/m*3 2.27 C 11.3 km/h
298 30-12-2011 00:45:00 5 C 6.05 g/m*3 2.72 C 9.7 km/h
299 30-12-2011 00:50:00 4.9 C 6.01 g/m*3 1.7 C 14.5 km/h
300 30-12-2011 00:55:00 5 C 5.98 g/m*3 1.36 C 17.7 km/h
Sensor: Nr:Datum:Temp:Abs-Feuchte:Windchill:Wind:
Aussen-T/F 301 30-12-2011 01:00:00 5 C 5.91 g/m*3 0.96 C 20.9 km/h
302 30-12-2011 01:05:00 4.9 C 5.94 g/m*3 2.61 C 9.7 km/h
303 30-12-2011 01:10:00 4.9 C 5.94 g/m*3 1.7 C 14.5 km/h
304 30-12-2011 01:15:00 4.9 C 5.94 g/m*3 2.61 C 9.7 km/h
305 30-12-2011 01:20:00 4.8 C 5.97 g/m*3 2.87 C 8.1 km/h
306 30-12-2011 01:25:00 4.8 C 5.9 g/m*3 1.34 C 16.1 km/h
307 30-12-2011 01:30:00 4.9 C 5.81 g/m*3 1.97 C 12.9 km/h
308 30-12-2011 01:35:00 4.9 C 5.87 g/m*3 1.97 C 12.9 km/h
309 30-12-2011 01:40:00 5 C 5.91 g/m*3 2.39 C 11.3 km/h
310 30-12-2011 01:45:00 4.9 C 5.81 g/m*3 2.99 C 8.1 km/h
311 30-12-2011 01:50:00 4.9 C 5.81 g/m*3 1.97 C 12.9 km/h
312 30-12-2011 01:55:00 4.9 C 5.81 g/m*3 2.27 C 11.3 km/h
313 30-12-2011 02:00:00 4.9 C 5.81 g/m*3 2.27 C 11.3 km/h
314 30-12-2011 02:05:00 5 C 5.78 g/m*3 2.09 C 12.9 km/h
315 30-12-2011 02:10:00 5.1 C 5.75 g/m*3 2.22 C 12.9 km/h
316 30-12-2011 02:15:00 5.2 C 5.85 g/m*3 2.34 C 12.9 km/h
317 30-12-2011 02:20:00 5.2 C 5.78 g/m*3 2.63 C 11.3 km/h
318 30-12-2011 02:25:00 5 C 5.78 g/m*3 2.72 C 9.7 km/h
319 30-12-2011 02:30:00 4.8 C 5.7 g/m*3 2.87 C 8.1 km/h
320 30-12-2011 02:35:00 4.8 C 5.7 g/m*3 2.87 C 8.1 km/h
321 30-12-2011 02:40:00 4.8 C 5.7 g/m*3 2.87 C 8.1 km/h
322 30-12-2011 02:45:00 4.9 C 5.74 g/m*3 1.46 C 16.1 km/h
323 30-12-2011 02:50:00 4.8 C 5.77 g/m*3 2.87 C 8.1 km/h
324 30-12-2011 02:55:00 4.9 C 5.74 g/m*3 2.27 C 11.3 km/h
325 30-12-2011 03:00:00 4.8 C 5.63 g/m*3 1.58 C 14.5 km/h
Sensor: Nr:Datum:Temp:Abs-Feuchte:Windchill:Wind:
Aussen-T/F 326 30-12-2011 03:05:00 4.8 C 5.7 g/m*3 2.49 C 9.7 km/h
327 30-12-2011 03:10:00 4.8 C 5.63 g/m*3 2.49 C 9.7 km/h
328 30-12-2011 03:15:00 4.9 C 5.67 g/m*3 2.99 C 8.1 km/h
329 30-12-2011 03:20:00 4.9 C 5.74 g/m*3 2.99 C 8.1 km/h
330 30-12-2011 03:25:00 4.8 C 5.77 g/m*3 3.36 C 6.4 km/h
331 30-12-2011 03:30:00 4.8 C 5.57 g/m*3 2.15 C 11.3 km/h
332 30-12-2011 03:35:00 4.9 C 5.47 g/m*3 2.27 C 11.3 km/h
333 30-12-2011 03:40:00 5.1 C 5.54 g/m*3 3.23 C 8.1 km/h
334 30-12-2011 03:45:00 5.1 C 5.61 g/m*3 5.1 C 3.2 km/h
335 30-12-2011 03:50:00 5.1 C 5.75 g/m*3 2.84 C 9.7 km/h
336 30-12-2011 03:55:00 5.1 C 5.54 g/m*3 1.49 C 17.7 km/h
337 30-12-2011 04:00:00 5.2 C 5.51 g/m*3 2.07 C 14.5 km/h
338 30-12-2011 04:05:00 5.3 C 5.48 g/m*3 2.2 C 14.5 km/h
339 30-12-2011 04:10:00 5.4 C 5.44 g/m*3 1.66 C 19.3 km/h
340 30-12-2011 04:15:00 5.4 C 5.37 g/m*3 2.58 C 12.9 km/h
341 30-12-2011 04:20:00 5.4 C 5.3 g/m*3 2.87 C 11.3 km/h
342 30-12-2011 04:25:00 5.4 C 5.37 g/m*3 2.58 C 12.9 km/h
343 30-12-2011 04:30:00 5.4 C 5.37 g/m*3 2.58 C 12.9 km/h
344 30-12-2011 04:35:00 5.4 C 5.37 g/m*3 1.66 C 19.3 km/h
345 30-12-2011 04:40:00 5.3 C 5.27 g/m*3 1.74 C 17.7 km/h
346 30-12-2011 04:45:00 5.1 C 5.13 g/m*3 0.58 C 25.7 km/h
347 30-12-2011 04:50:00 4.8 C 5.23 g/m*3 0.52 C 22.5 km/h
348 30-12-2011 04:55:00 4.2 C 5.22 g/m*3 1.12 C 12.9 km/h
349 30-12-2011 05:00:00 4.1 C 5.25 g/m*3 0.47 C 16.1 km/h
350 30-12-2011 05:05:00 4 C 5.34 g/m*3 1.18 C 11.3 km/h
Sensor: Nr:Datum:Temp:Abs-Feuchte:Windchill:Wind:
Aussen-T/F 351 30-12-2011 05:10:00 4.1 C 5.12 g/m*3 0.72 C 14.5 km/h
352 30-12-2011 05:15:00 4.2 C 5.03 g/m*3 0.36 C 17.7 km/h
353 30-12-2011 05:20:00 4.3 C 4.93 g/m*3 -0.46 C 25.7 km/h
354 30-12-2011 05:25:00 4.4 C 4.96 g/m*3 1.09 C 14.5 km/h
355 30-12-2011 05:30:00 4.3 C 5.06 g/m*3 1.55 C 11.3 km/h
356 30-12-2011 05:35:00 4.5 C 5.06 g/m*3 0.74 C 17.7 km/h
357 30-12-2011 05:40:00 4.7 C 5.06 g/m*3 1.46 C 14.5 km/h
358 30-12-2011 05:45:00 4.7 C 5.06 g/m*3 0.78 C 19.3 km/h
359 30-12-2011 05:50:00 4.5 C 5.06 g/m*3 -0.92 C 33.8 km/h
360 30-12-2011 05:55:00 4.2 C 5.15 g/m*3 0.15 C 19.3 km/h
361 30-12-2011 06:00:00 3.9 C 5.18 g/m*3 1.41 C 9.7 km/h
362 30-12-2011 06:05:00 3.6 C 5.26 g/m*3 0.39 C 12.9 km/h
363 30-12-2011 06:10:00 3 C 5.11 g/m*3 -0.9 C 16.1 km/h
364 30-12-2011 06:15:00 2.7 C 5.13 g/m*3 0.4 C 8.1 km/h
365 30-12-2011 06:20:00 2.5 C 5.12 g/m*3 -0.26 C 9.7 km/h
366 30-12-2011 06:25:00 2.4 C 5.14 g/m*3 0.05 C 8.1 km/h
367 30-12-2011 06:30:00 2.4 C 5.14 g/m*3 2.4 C 3.2 km/h
368 30-12-2011 06:35:00 2.4 C 5.2 g/m*3 0.59 C 6.4 km/h
369 30-12-2011 06:40:00 2.3 C 5.16 g/m*3 2.3 C 4.8 km/h
370 30-12-2011 06:45:00 2.3 C 5.1 g/m*3 -0.07 C 8.1 km/h
371 30-12-2011 06:50:00 2.2 C 5.13 g/m*3 0.36 C 6.4 km/h
372 30-12-2011 06:55:00 2.2 C 5.13 g/m*3 -0.99 C 11.3 km/h
373 30-12-2011 07:00:00 2.3 C 5.16 g/m*3 -0.49 C 9.7 km/h
374 30-12-2011 07:05:00 2.4 C 5.2 g/m*3 0.05 C 8.1 km/h
375 30-12-2011 07:10:00 2.6 C 5.21 g/m*3 -0.83 C 12.9 km/h
Sensor: Nr:Datum:Temp:Abs-Feuchte:Windchill:Wind:
Aussen-T/F 376 30-12-2011 07:15:00 2.7 C 5.13 g/m*3 -0.38 C 11.3 km/h
377 30-12-2011 07:20:00 3 C 5.17 g/m*3 -0.34 C 12.9 km/h
378 30-12-2011 07:25:00 3.1 C 5.15 g/m*3 0.87 C 8.1 km/h
379 30-12-2011 07:30:00 3.1 C 5.15 g/m*3 0.87 C 8.1 km/h
380 30-12-2011 07:35:00 3.2 C 5.18 g/m*3 1.51 C 6.4 km/h
381 30-12-2011 07:40:00 3.2 C 5.12 g/m*3 3.2 C 4.8 km/h
382 30-12-2011 07:45:00 3.3 C 5.16 g/m*3 1.63 C 6.4 km/h
383 30-12-2011 07:50:00 3.4 C 5.13 g/m*3 1.75 C 6.4 km/h
384 30-12-2011 07:55:00 3.6 C 5.14 g/m*3 1.06 C 9.7 km/h
385 30-12-2011 08:00:00 3.7 C 5.23 g/m*3 -0.03 C 16.1 km/h
386 30-12-2011 08:05:00 3.7 C 5.3 g/m*3 2.09 C 6.4 km/h
387 30-12-2011 08:10:00 3.6 C 5.26 g/m*3 1.98 C 6.4 km/h
388 30-12-2011 08:15:00 3.6 C 5.26 g/m*3 1.46 C 8.1 km/h
389 30-12-2011 08:20:00 3.6 C 5.32 g/m*3 1.98 C 6.4 km/h
390 30-12-2011 08:25:00 3.5 C 5.23 g/m*3 0.58 C 11.3 km/h
391 30-12-2011 08:30:00 3.5 C 5.29 g/m*3 1.34 C 8.1 km/h
392 30-12-2011 08:35:00 3.4 C 5.25 g/m*3 0.82 C 9.7 km/h
393 30-12-2011 08:40:00 3.3 C 5.16 g/m*3 -1.19 C 20.9 km/h
394 30-12-2011 08:45:00 3.4 C 5.19 g/m*3 -0.64 C 17.7 km/h
395 30-12-2011 08:50:00 3.6 C 5.26 g/m*3 0.11 C 14.5 km/h
396 30-12-2011 08:55:00 3.7 C 5.23 g/m*3 -0.03 C 16.1 km/h
397 30-12-2011 09:00:00 3.7 C 5.17 g/m*3 0.51 C 12.9 km/h
398 30-12-2011 09:05:00 3.8 C 5.21 g/m*3 1.29 C 9.7 km/h
399 30-12-2011 09:10:00 3.9 C 5.31 g/m*3 0.47 C 14.5 km/h
400 30-12-2011 09:15:00 4 C 5.28 g/m*3 0.88 C 12.9 km/h
Sensor: Nr:Datum:Temp:Abs-Feuchte:Windchill:Wind:
Aussen-T/F 401 30-12-2011 09:20:00 4.2 C 5.28 g/m*3 1.12 C 12.9 km/h
402 30-12-2011 09:25:00 4.3 C 5.25 g/m*3 0.72 C 16.1 km/h
403 30-12-2011 09:30:00 4.3 C 5.25 g/m*3 0.72 C 16.1 km/h
404 30-12-2011 09:35:00 4.3 C 5.25 g/m*3 1.89 C 9.7 km/h
405 30-12-2011 09:40:00 4.3 C 5.25 g/m*3 0.49 C 17.7 km/h
406 30-12-2011 09:45:00 4.3 C 5.25 g/m*3 1.55 C 11.3 km/h
407 30-12-2011 09:50:00 4.4 C 5.29 g/m*3 1.36 C 12.9 km/h
408 30-12-2011 09:55:00 4.5 C 5.32 g/m*3 1.21 C 14.5 km/h
409 30-12-2011 10:00:00 4.6 C 5.29 g/m*3 2.25 C 9.7 km/h
410 30-12-2011 10:05:00 4.6 C 5.36 g/m*3 1.61 C 12.9 km/h
411 30-12-2011 10:10:00 4.6 C 5.36 g/m*3 1.61 C 12.9 km/h
412 30-12-2011 10:15:00 4.5 C 5.32 g/m*3 1.48 C 12.9 km/h
413 30-12-2011 10:20:00 4.5 C 5.32 g/m*3 1.79 C 11.3 km/h
414 30-12-2011 10:25:00 4.6 C 5.36 g/m*3 0.86 C 17.7 km/h
415 30-12-2011 10:30:00 4.7 C 5.33 g/m*3 1.73 C 12.9 km/h
416 30-12-2011 10:35:00 4.8 C 5.3 g/m*3 1.85 C 12.9 km/h
417 30-12-2011 10:40:00 4.9 C 5.33 g/m*3 1.97 C 12.9 km/h
418 30-12-2011 10:45:00 4.9 C 5.27 g/m*3 2.61 C 9.7 km/h
419 30-12-2011 10:50:00 4.9 C 5.33 g/m*3 1.97 C 12.9 km/h
420 30-12-2011 10:55:00 4.9 C 5.33 g/m*3 2.61 C 9.7 km/h
421 30-12-2011 11:00:00 4.9 C 5.4 g/m*3 1.97 C 12.9 km/h
422 30-12-2011 11:05:00 4.9 C 5.33 g/m*3 2.27 C 11.3 km/h
423 30-12-2011 11:10:00 4.9 C 5.4 g/m*3 1.46 C 16.1 km/h
424 30-12-2011 11:15:00 4.9 C 5.47 g/m*3 2.27 C 11.3 km/h
425 30-12-2011 11:20:00 4.7 C 5.53 g/m*3 0.58 C 20.9 km/h
Sensor: Nr:Datum:Temp:Abs-Feuchte:Windchill:Wind:
Aussen-T/F 426 30-12-2011 11:25:00 4.6 C 5.62 g/m*3 1.91 C 11.3 km/h
427 30-12-2011 11:30:00 4.4 C 5.62 g/m*3 2.01 C 9.7 km/h
428 30-12-2011 11:35:00 4.2 C 5.54 g/m*3 1.12 C 12.9 km/h
429 30-12-2011 11:40:00 3.9 C 5.49 g/m*3 1.06 C 11.3 km/h
430 30-12-2011 11:45:00 3.7 C 5.48 g/m*3 1.18 C 9.7 km/h
431 30-12-2011 11:50:00 3.7 C 5.55 g/m*3 0.23 C 14.5 km/h
432 30-12-2011 11:55:00 3.7 C 5.48 g/m*3 0.51 C 12.9 km/h
433 30-12-2011 12:00:00 3.8 C 5.58 g/m*3 0.1 C 16.1 km/h
434 30-12-2011 12:05:00 3.8 C 5.52 g/m*3 0.94 C 11.3 km/h
435 30-12-2011 12:10:00 3.8 C 5.52 g/m*3 1.29 C 9.7 km/h
436 30-12-2011 12:15:00 3.8 C 5.58 g/m*3 1.29 C 9.7 km/h
437 30-12-2011 12:20:00 3.8 C 5.58 g/m*3 2.21 C 6.4 km/h
438 30-12-2011 12:25:00 3.9 C 5.62 g/m*3 3.9 C 4.8 km/h
439 30-12-2011 12:30:00 4 C 5.66 g/m*3 2.44 C 6.4 km/h
440 30-12-2011 12:35:00 4 C 5.66 g/m*3 4 C 3.2 km/h
441 30-12-2011 12:40:00 4.1 C 5.7 g/m*3 2.05 C 8.1 km/h
442 30-12-2011 12:45:00 4.2 C 5.67 g/m*3 4.2 C 3.2 km/h
443 30-12-2011 12:50:00 4.3 C 5.71 g/m*3 2.78 C 6.4 km/h
444 30-12-2011 12:55:00 4.4 C 5.75 g/m*3 4.4 C 4.8 km/h
445 30-12-2011 13:00:00 4.5 C 5.65 g/m*3 2.52 C 8.1 km/h
446 30-12-2011 13:05:00 4.6 C 5.62 g/m*3 2.25 C 9.7 km/h
447 30-12-2011 13:10:00 4.7 C 5.66 g/m*3 2.03 C 11.3 km/h
448 30-12-2011 13:15:00 4.8 C 5.7 g/m*3 2.87 C 8.1 km/h
449 30-12-2011 13:20:00 4.8 C 5.63 g/m*3 2.49 C 9.7 km/h
450 30-12-2011 13:25:00 4.8 C 5.57 g/m*3 2.49 C 9.7 km/h
Sensor: Nr:Datum:Temp:Abs-Feuchte:Windchill:Wind:
Aussen-T/F 451 30-12-2011 13:30:00 4.8 C 5.63 g/m*3 2.49 C 9.7 km/h
452 30-12-2011 13:35:00 4.9 C 5.67 g/m*3 2.99 C 8.1 km/h
453 30-12-2011 13:40:00 5 C 5.71 g/m*3 2.72 C 9.7 km/h
454 30-12-2011 13:45:00 5.1 C 5.68 g/m*3 3.71 C 6.4 km/h
455 30-12-2011 13:50:00 5.1 C 5.68 g/m*3 2.84 C 9.7 km/h
456 30-12-2011 13:55:00 5.2 C 5.65 g/m*3 3.82 C 6.4 km/h
457 30-12-2011 14:00:00 5.1 C 5.54 g/m*3 2.84 C 9.7 km/h
458 30-12-2011 14:05:00 5 C 5.5 g/m*3 1.83 C 14.5 km/h
459 30-12-2011 14:10:00 4.9 C 5.54 g/m*3 2.27 C 11.3 km/h
460 30-12-2011 14:15:00 4.9 C 5.54 g/m*3 2.61 C 9.7 km/h
461 30-12-2011 14:20:00 4.8 C 5.43 g/m*3 2.87 C 8.1 km/h
462 30-12-2011 14:25:00 4.9 C 5.47 g/m*3 2.27 C 11.3 km/h
463 30-12-2011 14:30:00 4.9 C 5.47 g/m*3 2.61 C 9.7 km/h
464 30-12-2011 14:35:00 5 C 5.44 g/m*3 2.39 C 11.3 km/h
465 30-12-2011 14:40:00 5.1 C 5.4 g/m*3 1.95 C 14.5 km/h
466 30-12-2011 14:45:00 5.2 C 5.44 g/m*3 1.83 C 16.1 km/h
467 30-12-2011 14:50:00 5.3 C 5.48 g/m*3 2.46 C 12.9 km/h
468 30-12-2011 14:55:00 5.2 C 5.37 g/m*3 2.63 C 11.3 km/h
469 30-12-2011 15:00:00 5.3 C 5.41 g/m*3 2.75 C 11.3 km/h
470 30-12-2011 15:05:00 5.3 C 5.41 g/m*3 3.08 C 9.7 km/h
471 30-12-2011 15:10:00 5.4 C 5.44 g/m*3 4.06 C 6.4 km/h
472 30-12-2011 15:15:00 5.4 C 5.51 g/m*3 4.06 C 6.4 km/h
473 30-12-2011 15:20:00 5.5 C 5.55 g/m*3 3.7 C 8.1 km/h
474 30-12-2011 15:25:00 5.5 C 5.48 g/m*3 3.7 C 8.1 km/h
475 30-12-2011 15:30:00 5.5 C 5.41 g/m*3 2.99 C 11.3 km/h
Sensor: Nr:Datum:Temp:Abs-Feuchte:Windchill:Wind:
Aussen-T/F 476 30-12-2011 15:35:00 5.5 C 5.48 g/m*3 3.32 C 9.7 km/h
477 30-12-2011 15:40:00 5.4 C 5.44 g/m*3 3.2 C 9.7 km/h
478 30-12-2011 15:45:00 5.3 C 5.48 g/m*3 5.3 C 4.8 km/h
479 30-12-2011 15:50:00 5.2 C 5.44 g/m*3 3.82 C 6.4 km/h
480 30-12-2011 15:55:00 5.2 C 5.51 g/m*3 2.63 C 11.3 km/h
481 30-12-2011 16:00:00 5.1 C 5.4 g/m*3 2.84 C 9.7 km/h
482 30-12-2011 16:05:00 5.1 C 5.54 g/m*3 3.23 C 8.1 km/h
483 30-12-2011 16:10:00 4.9 C 5.47 g/m*3 3.48 C 6.4 km/h
484 30-12-2011 16:15:00 4.8 C 5.7 g/m*3 4.8 C 4.8 km/h
485 30-12-2011 16:20:00 4.6 C 5.69 g/m*3 4.6 C 4.8 km/h
486 30-12-2011 16:25:00 4.5 C 5.59 g/m*3 4.5 C 4.8 km/h
487 30-12-2011 16:30:00 4.4 C 5.48 g/m*3 2.4 C 8.1 km/h
488 30-12-2011 16:35:00 4.6 C 5.56 g/m*3 2.64 C 8.1 km/h
489 30-12-2011 16:40:00 4.6 C 5.62 g/m*3 2.64 C 8.1 km/h
490 30-12-2011 16:45:00 4.5 C 5.52 g/m*3 2.52 C 8.1 km/h
491 30-12-2011 16:50:00 4.6 C 5.43 g/m*3 1.91 C 11.3 km/h
492 30-12-2011 16:55:00 4.7 C 5.4 g/m*3 2.03 C 11.3 km/h
493 30-12-2011 17:00:00 4.8 C 5.43 g/m*3 2.49 C 9.7 km/h
494 30-12-2011 17:05:00 4.8 C 5.36 g/m*3 1.58 C 14.5 km/h
495 30-12-2011 17:10:00 4.8 C 5.3 g/m*3 2.49 C 9.7 km/h
496 30-12-2011 17:15:00 4.8 C 5.3 g/m*3 2.87 C 8.1 km/h
497 30-12-2011 17:20:00 4.8 C 5.3 g/m*3 2.87 C 8.1 km/h
498 30-12-2011 17:25:00 4.7 C 5.33 g/m*3 4.7 C 4.8 km/h
499 30-12-2011 17:30:00 4.7 C 5.33 g/m*3 3.25 C 6.4 km/h
500 30-12-2011 17:35:00 4.7 C 5.33 g/m*3 3.25 C 6.4 km/h
Sensor: Nr:Datum:Temp:Abs-Feuchte:Windchill:Wind:
Aussen-T/F 501 30-12-2011 17:40:00 4.6 C 5.29 g/m*3 2.64 C 8.1 km/h
502 30-12-2011 17:45:00 4.5 C 5.26 g/m*3 3.02 C 6.4 km/h
503 30-12-2011 17:50:00 4.4 C 5.29 g/m*3 1.67 C 11.3 km/h
504 30-12-2011 17:55:00 4.3 C 5.25 g/m*3 4.3 C 4.8 km/h
505 30-12-2011 18:00:00 4.2 C 5.28 g/m*3 4.2 C 4.8 km/h
506 30-12-2011 18:05:00 3.9 C 5.24 g/m*3 3.9 C 4.8 km/h
507 30-12-2011 18:10:00 3.8 C 5.21 g/m*3 3.8 C 4.8 km/h
508 30-12-2011 18:15:00 3.7 C 5.23 g/m*3 3.7 C 4.8 km/h
509 30-12-2011 18:20:00 3.6 C 5.2 g/m*3 1.98 C 6.4 km/h
510 30-12-2011 18:25:00 3.4 C 5.19 g/m*3 1.75 C 6.4 km/h
511 30-12-2011 18:30:00 3.2 C 5.18 g/m*3 1.51 C 6.4 km/h
512 30-12-2011 18:35:00 3.2 C 5.24 g/m*3 3.2 C 4.8 km/h
513 30-12-2011 18:40:00 3.1 C 5.21 g/m*3 3.1 C 4.8 km/h
514 30-12-2011 18:45:00 3.2 C 5.24 g/m*3 3.2 C 4.8 km/h
515 30-12-2011 18:50:00 3.2 C 5.24 g/m*3 3.2 C 3.2 km/h
516 30-12-2011 18:55:00 3.1 C 5.21 g/m*3 3.1 C 4.8 km/h
517 30-12-2011 19:00:00 3.3 C 5.28 g/m*3 3.3 C 4.8 km/h
518 30-12-2011 19:05:00 3.4 C 5.31 g/m*3 1.75 C 6.4 km/h
519 30-12-2011 19:10:00 3.7 C 5.36 g/m*3 1.58 C 8.1 km/h
520 30-12-2011 19:15:00 3.8 C 5.46 g/m*3 2.21 C 6.4 km/h
521 30-12-2011 19:20:00 3.7 C 5.42 g/m*3 3.7 C 3.2 km/h
522 30-12-2011 19:25:00 3.8 C 5.46 g/m*3 3.8 C 3.2 km/h
523 30-12-2011 19:30:00 3.8 C 5.46 g/m*3 3.8 C 4.8 km/h
524 30-12-2011 19:35:00 3.8 C 5.4 g/m*3 3.8 C 3.2 km/h
525 30-12-2011 19:40:00 3.8 C 5.46 g/m*3 3.8 C 4.8 km/h
Sensor: Nr:Datum:Temp:Abs-Feuchte:Windchill:Wind:
Aussen-T/F 526 30-12-2011 19:45:00 3.9 C 5.31 g/m*3 1.82 C 8.1 km/h
527 30-12-2011 19:50:00 4.1 C 5.31 g/m*3 2.55 C 6.4 km/h
528 30-12-2011 19:55:00 4.2 C 5.28 g/m*3 1.77 C 9.7 km/h
529 30-12-2011 20:00:00 4.3 C 5.32 g/m*3 2.29 C 8.1 km/h
530 30-12-2011 20:05:00 4.3 C 5.32 g/m*3 2.29 C 8.1 km/h
531 30-12-2011 20:10:00 4.3 C 5.38 g/m*3 2.29 C 8.1 km/h
532 30-12-2011 20:15:00 4.3 C 5.32 g/m*3 2.29 C 8.1 km/h
533 30-12-2011 20:20:00 4.2 C 5.28 g/m*3 4.2 C 4.8 km/h
534 30-12-2011 20:25:00 4.3 C 5.25 g/m*3 4.3 C 4.8 km/h
535 30-12-2011 20:30:00 4.3 C 5.32 g/m*3 2.29 C 8.1 km/h
536 30-12-2011 20:35:00 4.3 C 5.25 g/m*3 2.78 C 6.4 km/h
537 30-12-2011 20:40:00 4.3 C 5.25 g/m*3 2.78 C 6.4 km/h
538 30-12-2011 20:45:00 4.3 C 5.38 g/m*3 4.3 C 3.2 km/h
539 30-12-2011 20:50:00 4.2 C 5.22 g/m*3 2.17 C 8.1 km/h
540 30-12-2011 20:55:00 4.3 C 5.32 g/m*3 2.78 C 6.4 km/h
541 30-12-2011 21:00:00 4.2 C 5.35 g/m*3 2.67 C 6.4 km/h
542 30-12-2011 21:05:00 4.2 C 5.28 g/m*3 2.17 C 8.1 km/h
543 30-12-2011 21:10:00 4.2 C 5.22 g/m*3 2.67 C 6.4 km/h
544 30-12-2011 21:15:00 4.2 C 5.22 g/m*3 1.77 C 9.7 km/h
545 30-12-2011 21:20:00 4.2 C 5.22 g/m*3 1.43 C 11.3 km/h
546 30-12-2011 21:25:00 4.2 C 5.15 g/m*3 1.12 C 12.9 km/h
547 30-12-2011 21:30:00 4.2 C 5.09 g/m*3 1.43 C 11.3 km/h
548 30-12-2011 21:35:00 4.2 C 5.15 g/m*3 1.43 C 11.3 km/h
549 30-12-2011 21:40:00 4 C 5.09 g/m*3 1.93 C 8.1 km/h
550 30-12-2011 21:45:00 3.8 C 5.02 g/m*3 1.29 C 9.7 km/h
Sensor: Nr:Datum:Temp:Abs-Feuchte:Windchill:Wind:
Aussen-T/F 551 30-12-2011 21:50:00 3.7 C 5.05 g/m*3 2.09 C 6.4 km/h
552 30-12-2011 21:55:00 3.6 C 5.01 g/m*3 1.98 C 6.4 km/h
553 30-12-2011 22:00:00 3.4 C 5.01 g/m*3 1.23 C 8.1 km/h
554 30-12-2011 22:05:00 3.2 C 4.94 g/m*3 0.99 C 8.1 km/h
555 30-12-2011 22:10:00 3 C 4.93 g/m*3 -0.02 C 11.3 km/h
556 30-12-2011 22:15:00 2.9 C 4.96 g/m*3 1.17 C 6.4 km/h
557 30-12-2011 22:20:00 2.8 C 4.87 g/m*3 1.05 C 6.4 km/h
558 30-12-2011 22:25:00 2.9 C 5.02 g/m*3 0.22 C 9.7 km/h
559 30-12-2011 22:30:00 2.9 C 4.96 g/m*3 2.9 C 4.8 km/h
560 30-12-2011 22:35:00 2.8 C 4.93 g/m*3 0.52 C 8.1 km/h
561 30-12-2011 22:40:00 2.8 C 4.87 g/m*3 0.1 C 9.7 km/h
562 30-12-2011 22:45:00 2.9 C 4.9 g/m*3 0.64 C 8.1 km/h
563 30-12-2011 22:50:00 3 C 4.88 g/m*3 1.28 C 6.4 km/h
564 30-12-2011 22:55:00 3 C 4.93 g/m*3 0.76 C 8.1 km/h
565 30-12-2011 23:00:00 2.9 C 4.9 g/m*3 0.22 C 9.7 km/h
566 30-12-2011 23:05:00 2.9 C 4.9 g/m*3 1.17 C 6.4 km/h
567 30-12-2011 23:10:00 2.8 C 4.87 g/m*3 2.8 C 4.8 km/h
568 30-12-2011 23:15:00 2.8 C 4.87 g/m*3 -0.26 C 11.3 km/h
569 30-12-2011 23:20:00 2.9 C 4.84 g/m*3 0.64 C 8.1 km/h
570 30-12-2011 23:25:00 2.9 C 4.9 g/m*3 2.9 C 4.8 km/h
571 30-12-2011 23:30:00 2.9 C 4.9 g/m*3 1.17 C 6.4 km/h
572 30-12-2011 23:35:00 2.8 C 4.99 g/m*3 2.8 C 1.6 km/h
573 30-12-2011 23:40:00 2.7 C 5.07 g/m*3 2.7 C 3.2 km/h
574 30-12-2011 23:45:00 2.6 C 4.98 g/m*3 2.6 C 1.6 km/h
575 30-12-2011 23:50:00 2.5 C 4.89 g/m*3 2.5 C 3.2 km/h
Sensor: Nr:Datum:Temp:Abs-Feuchte:Windchill:Wind:
Aussen-T/F 576 30-12-2011 23:55:00 2.5 C 4.94 g/m*3 2.5 C 1.6 km/h
577 31-12-2011 00:00:00 2.4 C 4.97 g/m*3 2.4 C 3.2 km/h
578 31-12-2011 00:05:00 2.4 C 4.97 g/m*3 2.4 C 0 km/h
579 31-12-2011 00:10:00 2.4 C 4.97 g/m*3 2.4 C 1.6 km/h
580 31-12-2011 00:15:00 2.3 C 4.99 g/m*3 2.3 C 1.6 km/h
581 31-12-2011 00:20:00 2.3 C 4.99 g/m*3 2.3 C 3.2 km/h
582 31-12-2011 00:25:00 2.2 C 4.96 g/m*3 2.2 C 3.2 km/h
583 31-12-2011 00:30:00 2.1 C 4.98 g/m*3 2.1 C 1.6 km/h
584 31-12-2011 00:35:00 2.1 C 4.98 g/m*3 2.1 C 0 km/h
585 31-12-2011 00:40:00 2.1 C 4.98 g/m*3 2.1 C 1.6 km/h
586 31-12-2011 00:45:00 2.2 C 5.07 g/m*3 2.2 C 3.2 km/h
587 31-12-2011 00:50:00 2.2 C 5.07 g/m*3 2.2 C 1.6 km/h
588 31-12-2011 00:55:00 2.2 C 5.01 g/m*3 2.2 C 3.2 km/h
589 31-12-2011 01:00:00 2.3 C 5.05 g/m*3 2.3 C 3.2 km/h
590 31-12-2011 01:05:00 2.4 C 5.08 g/m*3 2.4 C 1.6 km/h
591 31-12-2011 01:10:00 2.4 C 5.02 g/m*3 2.4 C 0 km/h
592 31-12-2011 01:15:00 2.4 C 5.08 g/m*3 2.4 C 0 km/h
593 31-12-2011 01:20:00 2.4 C 5.08 g/m*3 2.4 C 0 km/h
594 31-12-2011 01:25:00 2.4 C 5.08 g/m*3 2.4 C 1.6 km/h
595 31-12-2011 01:30:00 2.4 C 5.02 g/m*3 2.4 C 3.2 km/h
596 31-12-2011 01:35:00 2.4 C 5.08 g/m*3 2.4 C 1.6 km/h
597 31-12-2011 01:40:00 2.4 C 5.02 g/m*3 2.4 C 3.2 km/h
598 31-12-2011 01:45:00 2.4 C 5.02 g/m*3 2.4 C 3.2 km/h
599 31-12-2011 01:50:00 2.4 C 5.02 g/m*3 0.05 C 8.1 km/h
600 31-12-2011 01:55:00 2.7 C 5.07 g/m*3 2.7 C 4.8 km/h
Sensor: Nr:Datum:Temp:Abs-Feuchte:Windchill:Wind:
Aussen-T/F 601 31-12-2011 02:00:00 2.7 C 5.07 g/m*3 2.7 C 1.6 km/h
602 31-12-2011 02:05:00 2.8 C 5.04 g/m*3 2.8 C 3.2 km/h
603 31-12-2011 02:10:00 2.9 C 5.14 g/m*3 2.9 C 3.2 km/h
604 31-12-2011 02:15:00 2.9 C 5.14 g/m*3 2.9 C 3.2 km/h
605 31-12-2011 02:20:00 2.9 C 5.14 g/m*3 0.64 C 8.1 km/h
606 31-12-2011 02:25:00 3.1 C 5.09 g/m*3 3.1 C 4.8 km/h
607 31-12-2011 02:30:00 3.3 C 5.16 g/m*3 1.11 C 8.1 km/h
608 31-12-2011 02:35:00 3.4 C 5.13 g/m*3 0.46 C 11.3 km/h
609 31-12-2011 02:40:00 3.5 C 5.16 g/m*3 0.94 C 9.7 km/h
610 31-12-2011 02:45:00 3.6 C 5.2 g/m*3 1.46 C 8.1 km/h
611 31-12-2011 02:50:00 3.6 C 5.2 g/m*3 1.46 C 8.1 km/h
612 31-12-2011 02:55:00 3.6 C 5.14 g/m*3 3.6 C 4.8 km/h
613 31-12-2011 03:00:00 3.7 C 5.23 g/m*3 2.09 C 6.4 km/h
614 31-12-2011 03:05:00 3.6 C 5.26 g/m*3 3.6 C 4.8 km/h
615 31-12-2011 03:10:00 3.6 C 5.2 g/m*3 1.98 C 6.4 km/h
616 31-12-2011 03:15:00 3.6 C 5.26 g/m*3 1.98 C 6.4 km/h
617 31-12-2011 03:20:00 3.6 C 5.26 g/m*3 1.46 C 8.1 km/h
618 31-12-2011 03:25:00 3.5 C 5.35 g/m*3 3.5 C 3.2 km/h
619 31-12-2011 03:30:00 3.4 C 5.37 g/m*3 3.4 C 3.2 km/h
620 31-12-2011 03:35:00 3.3 C 5.4 g/m*3 3.3 C 3.2 km/h
621 31-12-2011 03:40:00 3.2 C 5.3 g/m*3 3.2 C 4.8 km/h
622 31-12-2011 03:45:00 3.2 C 5.42 g/m*3 3.2 C 1.6 km/h
623 31-12-2011 03:50:00 3.2 C 5.42 g/m*3 3.2 C 1.6 km/h
624 31-12-2011 03:55:00 3.1 C 5.39 g/m*3 3.1 C 1.6 km/h
625 31-12-2011 04:00:00 3 C 5.41 g/m*3 3 C 1.6 km/h
Sensor: Nr:Datum:Temp:Abs-Feuchte:Windchill:Wind:
Aussen-T/F 626 31-12-2011 04:05:00 2.9 C 5.43 g/m*3 2.9 C 1.6 km/h
627 31-12-2011 04:10:00 2.8 C 5.4 g/m*3 2.8 C 0 km/h
628 31-12-2011 04:15:00 2.8 C 5.46 g/m*3 2.8 C 1.6 km/h
629 31-12-2011 04:20:00 2.7 C 5.42 g/m*3 2.7 C 1.6 km/h
630 31-12-2011 04:25:00 2.7 C 5.42 g/m*3 2.7 C 1.6 km/h
631 31-12-2011 04:30:00 2.7 C 5.48 g/m*3 2.7 C 0 km/h
632 31-12-2011 04:35:00 2.6 C 5.44 g/m*3 2.6 C 0 km/h
633 31-12-2011 04:40:00 2.6 C 5.44 g/m*3 2.6 C 0 km/h
634 31-12-2011 04:45:00 2.6 C 5.44 g/m*3 2.6 C 0 km/h
635 31-12-2011 04:50:00 2.6 C 5.44 g/m*3 2.6 C 1.6 km/h
636 31-12-2011 04:55:00 2.6 C 5.44 g/m*3 2.6 C 1.6 km/h
637 31-12-2011 05:00:00 2.6 C 5.44 g/m*3 2.6 C 0 km/h
638 31-12-2011 05:05:00 2.6 C 5.44 g/m*3 2.6 C 3.2 km/h
639 31-12-2011 05:10:00 2.6 C 5.44 g/m*3 2.6 C 0 km/h
640 31-12-2011 05:15:00 2.6 C 5.44 g/m*3 2.6 C 0 km/h
641 31-12-2011 05:20:00 2.6 C 5.44 g/m*3 2.6 C 1.6 km/h
642 31-12-2011 05:25:00 2.6 C 5.44 g/m*3 2.6 C 4.8 km/h
643 31-12-2011 05:30:00 2.5 C 5.4 g/m*3 2.5 C 1.6 km/h
644 31-12-2011 05:35:00 2.6 C 5.44 g/m*3 2.6 C 1.6 km/h
645 31-12-2011 05:40:00 2.5 C 5.4 g/m*3 2.5 C 1.6 km/h
646 31-12-2011 05:45:00 2.5 C 5.4 g/m*3 2.5 C 1.6 km/h
647 31-12-2011 05:50:00 2.5 C 5.4 g/m*3 2.5 C 1.6 km/h
648 31-12-2011 05:55:00 2.5 C 5.4 g/m*3 2.5 C 3.2 km/h
649 31-12-2011 06:00:00 2.5 C 5.46 g/m*3 2.5 C 1.6 km/h
650 31-12-2011 06:05:00 2.5 C 5.46 g/m*3 2.5 C 0 km/h
Sensor: Nr:Datum:Temp:Abs-Feuchte:Windchill:Wind:
Aussen-T/F 651 31-12-2011 06:10:00 2.5 C 5.46 g/m*3 2.5 C 3.2 km/h
652 31-12-2011 06:15:00 2.6 C 5.5 g/m*3 2.6 C 1.6 km/h
653 31-12-2011 06:20:00 2.6 C 5.44 g/m*3 2.6 C 3.2 km/h
654 31-12-2011 06:25:00 2.6 C 5.38 g/m*3 2.6 C 3.2 km/h
655 31-12-2011 06:30:00 2.6 C 5.38 g/m*3 2.6 C 1.6 km/h
656 31-12-2011 06:35:00 2.6 C 5.44 g/m*3 2.6 C 0 km/h
657 31-12-2011 06:40:00 2.6 C 5.44 g/m*3 2.6 C 1.6 km/h
658 31-12-2011 06:45:00 2.6 C 5.44 g/m*3 2.6 C 1.6 km/h
659 31-12-2011 06:50:00 2.6 C 5.44 g/m*3 2.6 C 1.6 km/h
660 31-12-2011 06:55:00 2.6 C 5.5 g/m*3 2.6 C 1.6 km/h
661 31-12-2011 07:00:00 2.5 C 5.4 g/m*3 2.5 C 0 km/h
662 31-12-2011 07:05:00 2.5 C 5.46 g/m*3 2.5 C 0 km/h
663 31-12-2011 07:10:00 2.5 C 5.46 g/m*3 2.5 C 1.6 km/h
664 31-12-2011 07:15:00 2.5 C 5.46 g/m*3 2.5 C 1.6 km/h
665 31-12-2011 07:20:00 2.5 C 5.46 g/m*3 2.5 C 1.6 km/h
666 31-12-2011 07:25:00 2.5 C 5.46 g/m*3 2.5 C 3.2 km/h
667 31-12-2011 07:30:00 2.5 C 5.46 g/m*3 2.5 C 0 km/h
668 31-12-2011 07:35:00 2.5 C 5.46 g/m*3 2.5 C 1.6 km/h
669 31-12-2011 07:40:00 2.5 C 5.46 g/m*3 2.5 C 1.6 km/h
670 31-12-2011 07:45:00 2.5 C 5.46 g/m*3 2.5 C 0 km/h
671 31-12-2011 07:50:00 2.5 C 5.46 g/m*3 2.5 C 0 km/h
672 31-12-2011 07:55:00 2.5 C 5.46 g/m*3 2.5 C 0 km/h
673 31-12-2011 08:00:00 2.5 C 5.46 g/m*3 2.5 C 0 km/h
674 31-12-2011 08:05:00 2.5 C 5.46 g/m*3 2.5 C 0 km/h
675 31-12-2011 08:10:00 2.5 C 5.46 g/m*3 2.5 C 0 km/h
Sensor: Nr:Datum:Temp:Abs-Feuchte:Windchill:Wind:
Aussen-T/F 676 31-12-2011 08:15:00 2.5 C 5.52 g/m*3 2.5 C 0 km/h
677 31-12-2011 08:20:00 2.6 C 5.56 g/m*3 2.6 C 0 km/h
678 31-12-2011 08:25:00 2.6 C 5.56 g/m*3 2.6 C 0 km/h
679 31-12-2011 08:30:00 2.6 C 5.56 g/m*3 2.6 C 0 km/h
680 31-12-2011 08:35:00 2.6 C 5.56 g/m*3 2.6 C 0 km/h
681 31-12-2011 08:40:00 2.6 C 5.56 g/m*3 2.6 C 0 km/h
682 31-12-2011 08:45:00 2.6 C 5.56 g/m*3 2.6 C 0 km/h
683 31-12-2011 08:50:00 2.7 C 5.59 g/m*3 2.7 C 0 km/h
684 31-12-2011 08:55:00 2.7 C 5.59 g/m*3 2.7 C 0 km/h
685 31-12-2011 09:00:00 2.7 C 5.59 g/m*3 2.7 C 0 km/h
686 31-12-2011 09:05:00 2.7 C 5.59 g/m*3 2.7 C 0 km/h
687 31-12-2011 09:10:00 2.7 C 5.59 g/m*3 2.7 C 0 km/h
688 31-12-2011 09:15:00 2.8 C 5.63 g/m*3 2.8 C 0 km/h
689 31-12-2011 09:20:00 2.8 C 5.63 g/m*3 2.8 C 0 km/h
690 31-12-2011 09:25:00 2.8 C 5.63 g/m*3 2.8 C 0 km/h
691 31-12-2011 09:30:00 2.8 C 5.63 g/m*3 2.8 C 0 km/h
692 31-12-2011 09:35:00 2.8 C 5.63 g/m*3 2.8 C 0 km/h
693 31-12-2011 09:40:00 2.9 C 5.67 g/m*3 2.9 C 0 km/h
694 31-12-2011 09:45:00 2.9 C 5.67 g/m*3 2.9 C 0 km/h
695 31-12-2011 09:50:00 3 C 5.71 g/m*3 3 C 1.6 km/h
696 31-12-2011 09:55:00 3 C 5.71 g/m*3 3 C 0 km/h
697 31-12-2011 10:00:00 3 C 5.71 g/m*3 3 C 0 km/h
698 31-12-2011 10:05:00 3.1 C 5.75 g/m*3 3.1 C 0 km/h
699 31-12-2011 10:10:00 3.1 C 5.75 g/m*3 3.1 C 0 km/h
700 31-12-2011 10:15:00 3.1 C 5.75 g/m*3 3.1 C 0 km/h
Sensor: Nr:Datum:Temp:Abs-Feuchte:Windchill:Wind:
Aussen-T/F 701 31-12-2011 10:20:00 3.2 C 5.79 g/m*3 3.2 C 0 km/h
702 31-12-2011 10:25:00 3.3 C 5.82 g/m*3 3.3 C 0 km/h
703 31-12-2011 10:30:00 3.3 C 5.82 g/m*3 3.3 C 1.6 km/h
704 31-12-2011 10:35:00 3.4 C 5.86 g/m*3 3.4 C 1.6 km/h
705 31-12-2011 10:40:00 3.4 C 5.86 g/m*3 3.4 C 0 km/h
706 31-12-2011 10:45:00 3.5 C 5.9 g/m*3 3.5 C 1.6 km/h
707 31-12-2011 10:50:00 3.6 C 5.94 g/m*3 3.6 C 0 km/h
708 31-12-2011 10:55:00 3.7 C 5.98 g/m*3 3.7 C 0 km/h
709 31-12-2011 11:00:00 3.7 C 5.98 g/m*3 3.7 C 3.2 km/h
710 31-12-2011 11:05:00 3.7 C 5.98 g/m*3 3.7 C 1.6 km/h
711 31-12-2011 11:10:00 3.8 C 6.02 g/m*3 3.8 C 1.6 km/h
712 31-12-2011 11:15:00 3.8 C 6.02 g/m*3 3.8 C 0 km/h
713 31-12-2011 11:20:00 3.8 C 6.02 g/m*3 3.8 C 0 km/h
714 31-12-2011 11:25:00 3.9 C 6.13 g/m*3 3.9 C 0 km/h
715 31-12-2011 11:30:00 4 C 6.1 g/m*3 4 C 0 km/h
716 31-12-2011 11:35:00 4 C 6.1 g/m*3 4 C 0 km/h
717 31-12-2011 11:40:00 4.1 C 6.14 g/m*3 4.1 C 0 km/h
718 31-12-2011 11:45:00 4.1 C 6.21 g/m*3 4.1 C 0 km/h
719 31-12-2011 11:50:00 4.1 C 6.14 g/m*3 4.1 C 0 km/h
720 31-12-2011 11:55:00 4.1 C 6.14 g/m*3 4.1 C 1.6 km/h
721 31-12-2011 12:00:00 4.2 C 6.19 g/m*3 4.2 C 1.6 km/h
722 31-12-2011 12:05:00 4.3 C 6.23 g/m*3 4.3 C 3.2 km/h
723 31-12-2011 12:10:00 4.3 C 6.23 g/m*3 4.3 C 1.6 km/h
724 31-12-2011 12:15:00 4.4 C 6.27 g/m*3 4.4 C 1.6 km/h
725 31-12-2011 12:20:00 4.4 C 6.27 g/m*3 4.4 C 1.6 km/h
Sensor: Nr:Datum:Temp:Abs-Feuchte:Windchill:Wind:
Aussen-T/F 726 31-12-2011 12:25:00 4.6 C 6.35 g/m*3 4.6 C 3.2 km/h
727 31-12-2011 12:30:00 4.6 C 6.35 g/m*3 4.6 C 3.2 km/h
728 31-12-2011 12:35:00 4.7 C 6.39 g/m*3 4.7 C 3.2 km/h
729 31-12-2011 12:40:00 4.8 C 6.44 g/m*3 4.8 C 3.2 km/h
730 31-12-2011 12:45:00 4.9 C 6.48 g/m*3 4.9 C 3.2 km/h
731 31-12-2011 12:50:00 5.1 C 6.5 g/m*3 5.1 C 1.6 km/h
732 31-12-2011 12:55:00 5.2 C 6.54 g/m*3 5.2 C 1.6 km/h
733 31-12-2011 13:00:00 5.3 C 6.58 g/m*3 5.3 C 1.6 km/h
734 31-12-2011 13:05:00 5.4 C 6.63 g/m*3 5.4 C 3.2 km/h
735 31-12-2011 13:10:00 5.4 C 6.56 g/m*3 5.4 C 3.2 km/h
736 31-12-2011 13:15:00 5.6 C 6.57 g/m*3 4.29 C 6.4 km/h
737 31-12-2011 13:20:00 5.7 C 6.69 g/m*3 5.7 C 3.2 km/h
738 31-12-2011 13:25:00 5.8 C 6.73 g/m*3 5.8 C 3.2 km/h
739 31-12-2011 13:30:00 5.9 C 6.71 g/m*3 5.9 C 4.8 km/h
740 31-12-2011 13:35:00 5.9 C 6.71 g/m*3 5.9 C 4.8 km/h
741 31-12-2011 13:40:00 6.1 C 6.79 g/m*3 6.1 C 4.8 km/h
742 31-12-2011 13:45:00 6.1 C 6.79 g/m*3 4.86 C 6.4 km/h
743 31-12-2011 13:50:00 6.2 C 6.84 g/m*3 6.2 C 4.8 km/h
744 31-12-2011 13:55:00 6.3 C 6.81 g/m*3 6.3 C 4.8 km/h
745 31-12-2011 14:00:00 6.4 C 6.93 g/m*3 5.21 C 6.4 km/h
746 31-12-2011 14:05:00 6.6 C 7.02 g/m*3 6.6 C 3.2 km/h
747 31-12-2011 14:10:00 6.6 C 7.02 g/m*3 6.6 C 3.2 km/h
748 31-12-2011 14:15:00 6.5 C 6.97 g/m*3 6.5 C 3.2 km/h
749 31-12-2011 14:20:00 6.6 C 7.02 g/m*3 6.6 C 1.6 km/h
750 31-12-2011 14:25:00 6.6 C 7.1 g/m*3 6.6 C 1.6 km/h
Sensor: Nr:Datum:Temp:Abs-Feuchte:Windchill:Wind:
Aussen-T/F 751 31-12-2011 14:30:00 6.6 C 7.1 g/m*3 6.6 C 3.2 km/h
752 31-12-2011 14:35:00 6.6 C 7.1 g/m*3 6.6 C 3.2 km/h
753 31-12-2011 14:40:00 6.6 C 7.1 g/m*3 6.6 C 4.8 km/h
754 31-12-2011 14:45:00 6.6 C 7.1 g/m*3 6.6 C 4.8 km/h
755 31-12-2011 14:50:00 6.6 C 7.02 g/m*3 5.44 C 6.4 km/h
756 31-12-2011 14:55:00 6.7 C 7.14 g/m*3 6.7 C 3.2 km/h
757 31-12-2011 15:00:00 6.7 C 7.14 g/m*3 6.7 C 3.2 km/h
758 31-12-2011 15:05:00 6.7 C 7.14 g/m*3 6.7 C 4.8 km/h
759 31-12-2011 15:10:00 6.8 C 7.19 g/m*3 6.8 C 3.2 km/h
760 31-12-2011 15:15:00 6.8 C 7.19 g/m*3 6.8 C 4.8 km/h
761 31-12-2011 15:20:00 6.8 C 7.19 g/m*3 6.8 C 4.8 km/h
762 31-12-2011 15:25:00 6.8 C 7.19 g/m*3 6.8 C 3.2 km/h
763 31-12-2011 15:30:00 6.9 C 7.24 g/m*3 6.9 C 3.2 km/h
764 31-12-2011 15:35:00 6.9 C 7.24 g/m*3 6.9 C 4.8 km/h
765 31-12-2011 15:40:00 6.9 C 7.24 g/m*3 6.9 C 3.2 km/h
766 31-12-2011 15:45:00 7 C 7.28 g/m*3 7 C 3.2 km/h
767 31-12-2011 15:50:00 7.1 C 7.33 g/m*3 7.1 C 3.2 km/h
768 31-12-2011 15:55:00 7.1 C 7.33 g/m*3 7.1 C 4.8 km/h
769 31-12-2011 16:00:00 7.1 C 7.33 g/m*3 7.1 C 3.2 km/h
770 31-12-2011 16:05:00 7.1 C 7.33 g/m*3 7.1 C 4.8 km/h
771 31-12-2011 16:10:00 7.2 C 7.38 g/m*3 7.2 C 4.8 km/h
772 31-12-2011 16:15:00 7.2 C 7.3 g/m*3 7.2 C 4.8 km/h
773 31-12-2011 16:20:00 7.2 C 7.3 g/m*3 6.13 C 6.4 km/h
774 31-12-2011 16:25:00 7.2 C 7.3 g/m*3 6.13 C 6.4 km/h
775 31-12-2011 16:30:00 7.1 C 7.33 g/m*3 7.1 C 3.2 km/h
Sensor: Nr:Datum:Temp:Abs-Feuchte:Windchill:Wind:
Aussen-T/F 776 31-12-2011 16:35:00 7.1 C 7.33 g/m*3 7.1 C 1.6 km/h
777 31-12-2011 16:40:00 7 C 7.28 g/m*3 7 C 1.6 km/h
778 31-12-2011 16:45:00 6.9 C 7.31 g/m*3 6.9 C 3.2 km/h
779 31-12-2011 16:50:00 6.9 C 7.31 g/m*3 6.9 C 3.2 km/h
780 31-12-2011 16:55:00 6.9 C 7.31 g/m*3 5.79 C 6.4 km/h
781 31-12-2011 17:00:00 7.1 C 7.41 g/m*3 6.02 C 6.4 km/h
782 31-12-2011 17:05:00 7.2 C 7.38 g/m*3 7.2 C 4.8 km/h
783 31-12-2011 17:10:00 7.3 C 7.43 g/m*3 6.25 C 6.4 km/h
784 31-12-2011 17:15:00 7.3 C 7.43 g/m*3 7.3 C 4.8 km/h
785 31-12-2011 17:20:00 7.3 C 7.43 g/m*3 7.3 C 3.2 km/h
786 31-12-2011 17:25:00 7.3 C 7.43 g/m*3 6.25 C 6.4 km/h
787 31-12-2011 17:30:00 7.3 C 7.43 g/m*3 6.25 C 6.4 km/h
788 31-12-2011 17:35:00 7.4 C 7.48 g/m*3 7.4 C 4.8 km/h
789 31-12-2011 17:40:00 7.4 C 7.48 g/m*3 7.4 C 4.8 km/h
790 31-12-2011 17:45:00 7.4 C 7.48 g/m*3 7.4 C 4.8 km/h
791 31-12-2011 17:50:00 7.4 C 7.48 g/m*3 7.4 C 4.8 km/h
792 31-12-2011 17:55:00 7.3 C 7.51 g/m*3 7.3 C 3.2 km/h
793 31-12-2011 18:00:00 7.3 C 7.51 g/m*3 7.3 C 3.2 km/h
794 31-12-2011 18:05:00 7.2 C 7.46 g/m*3 7.2 C 1.6 km/h
795 31-12-2011 18:10:00 7.2 C 7.46 g/m*3 7.2 C 1.6 km/h
796 31-12-2011 18:15:00 7.2 C 7.54 g/m*3 7.2 C 3.2 km/h
797 31-12-2011 18:20:00 7.2 C 7.54 g/m*3 7.2 C 3.2 km/h
798 31-12-2011 18:25:00 7.3 C 7.58 g/m*3 7.3 C 4.8 km/h
799 31-12-2011 18:30:00 7.3 C 7.58 g/m*3 7.3 C 1.6 km/h
800 31-12-2011 18:35:00 7.3 C 7.58 g/m*3 7.3 C 1.6 km/h
Sensor: Nr:Datum:Temp:Abs-Feuchte:Windchill:Wind:
Aussen-T/F 801 31-12-2011 18:40:00 7.4 C 7.63 g/m*3 7.4 C 3.2 km/h
802 31-12-2011 18:45:00 7.4 C 7.63 g/m*3 7.4 C 3.2 km/h
803 31-12-2011 18:50:00 7.4 C 7.63 g/m*3 7.4 C 3.2 km/h
804 31-12-2011 18:55:00 7.5 C 7.68 g/m*3 7.5 C 3.2 km/h
805 31-12-2011 19:00:00 7.6 C 7.73 g/m*3 6.16 C 8.1 km/h
806 31-12-2011 19:05:00 7.7 C 7.78 g/m*3 7.7 C 4.8 km/h
807 31-12-2011 19:10:00 7.8 C 7.83 g/m*3 6.83 C 6.4 km/h
808 31-12-2011 19:15:00 7.8 C 7.83 g/m*3 7.8 C 3.2 km/h
809 31-12-2011 19:20:00 7.9 C 7.89 g/m*3 7.9 C 4.8 km/h
810 31-12-2011 19:25:00 7.9 C 7.89 g/m*3 7.9 C 3.2 km/h
811 31-12-2011 19:30:00 7.9 C 7.89 g/m*3 7.9 C 4.8 km/h
812 31-12-2011 19:35:00 7.9 C 7.89 g/m*3 7.9 C 4.8 km/h
813 31-12-2011 19:40:00 8.1 C 7.99 g/m*3 8.1 C 4.8 km/h
814 31-12-2011 19:45:00 8.2 C 8.04 g/m*3 7.29 C 6.4 km/h
815 31-12-2011 19:50:00 8.4 C 8.06 g/m*3 7.52 C 6.4 km/h
816 31-12-2011 19:55:00 8.5 C 8.11 g/m*3 7.64 C 6.4 km/h
817 31-12-2011 20:00:00 8.7 C 8.22 g/m*3 7.87 C 6.4 km/h
818 31-12-2011 20:05:00 8.7 C 8.22 g/m*3 8.7 C 4.8 km/h
819 31-12-2011 20:10:00 8.8 C 8.18 g/m*3 8.8 C 4.8 km/h
820 31-12-2011 20:15:00 8.7 C 8.13 g/m*3 8.7 C 3.2 km/h
821 31-12-2011 20:20:00 8.6 C 8.16 g/m*3 8.6 C 4.8 km/h
822 31-12-2011 20:25:00 8.6 C 8.16 g/m*3 8.6 C 4.8 km/h
823 31-12-2011 20:30:00 8.6 C 8.16 g/m*3 8.6 C 4.8 km/h
824 31-12-2011 20:35:00 8.6 C 8.16 g/m*3 8.6 C 3.2 km/h
825 31-12-2011 20:40:00 8.4 C 8.06 g/m*3 8.4 C 3.2 km/h
Sensor: Nr:Datum:Temp:Abs-Feuchte:Windchill:Wind:
Aussen-T/F 826 31-12-2011 20:45:00 8.4 C 8.06 g/m*3 8.4 C 3.2 km/h
827 31-12-2011 20:50:00 8.3 C 8.01 g/m*3 8.3 C 1.6 km/h
828 31-12-2011 20:55:00 8.3 C 8.09 g/m*3 8.3 C 4.8 km/h
829 31-12-2011 21:00:00 8.3 C 8.09 g/m*3 8.3 C 1.6 km/h
830 31-12-2011 21:05:00 8.4 C 8.14 g/m*3 8.4 C 3.2 km/h
831 31-12-2011 21:10:00 8.4 C 8.14 g/m*3 8.4 C 4.8 km/h
832 31-12-2011 21:15:00 8.4 C 8.14 g/m*3 8.4 C 3.2 km/h
833 31-12-2011 21:20:00 8.5 C 8.2 g/m*3 8.5 C 3.2 km/h
834 31-12-2011 21:25:00 8.5 C 8.2 g/m*3 8.5 C 3.2 km/h
835 31-12-2011 21:30:00 8.6 C 8.25 g/m*3 8.6 C 3.2 km/h
836 31-12-2011 21:35:00 8.7 C 8.3 g/m*3 8.7 C 4.8 km/h
837 31-12-2011 21:40:00 8.8 C 8.36 g/m*3 8.8 C 4.8 km/h
838 31-12-2011 21:45:00 8.8 C 8.36 g/m*3 8.8 C 1.6 km/h
839 31-12-2011 21:50:00 8.8 C 8.36 g/m*3 8.8 C 1.6 km/h
840 31-12-2011 21:55:00 8.8 C 8.36 g/m*3 8.8 C 3.2 km/h
841 31-12-2011 22:00:00 8.8 C 8.36 g/m*3 8.8 C 3.2 km/h
842 31-12-2011 22:05:00 8.8 C 8.36 g/m*3 8.8 C 4.8 km/h
843 31-12-2011 22:10:00 8.8 C 8.36 g/m*3 8.8 C 3.2 km/h
844 31-12-2011 22:15:00 8.8 C 8.36 g/m*3 8.8 C 3.2 km/h
845 31-12-2011 22:20:00 8.8 C 8.36 g/m*3 8.8 C 3.2 km/h
846 31-12-2011 22:25:00 8.7 C 8.3 g/m*3 8.7 C 3.2 km/h
847 31-12-2011 22:30:00 8.7 C 8.3 g/m*3 8.7 C 3.2 km/h
848 31-12-2011 22:35:00 8.6 C 8.25 g/m*3 8.6 C 3.2 km/h
849 31-12-2011 22:40:00 8.7 C 8.3 g/m*3 8.7 C 3.2 km/h
850 31-12-2011 22:45:00 8.7 C 8.3 g/m*3 8.7 C 4.8 km/h
Sensor: Nr:Datum:Temp:Abs-Feuchte:Windchill:Wind:
Aussen-T/F 851 31-12-2011 22:50:00 8.8 C 8.36 g/m*3 8.8 C 3.2 km/h
852 31-12-2011 22:55:00 8.9 C 8.41 g/m*3 8.9 C 4.8 km/h
853 31-12-2011 23:00:00 9.2 C 8.66 g/m*3 8.45 C 6.4 km/h
854 31-12-2011 23:05:00 9.4 C 8.68 g/m*3 9.4 C 1.6 km/h
855 31-12-2011 23:10:00 9.7 C 8.76 g/m*3 9.02 C 6.4 km/h
856 31-12-2011 23:15:00 9.9 C 8.78 g/m*3 8.3 C 11.3 km/h
857 31-12-2011 23:20:00 10.1 C 8.79 g/m*3 10.1 C 3.2 km/h
858 31-12-2011 23:25:00 10.1 C 8.79 g/m*3 9.1 C 8.1 km/h
859 31-12-2011 23:30:00 10.1 C 8.79 g/m*3 7.91 C 16.1 km/h
860 31-12-2011 23:35:00 10.3 C 8.91 g/m*3 9.04 C 9.7 km/h
861 31-12-2011 23:40:00 10.4 C 8.87 g/m*3 8.9 C 11.3 km/h
862 31-12-2011 23:45:00 10.6 C 8.98 g/m*3 10.6 C 4.8 km/h
863 31-12-2011 23:50:00 10.5 C 8.92 g/m*3 10.5 C 3.2 km/h
864 31-12-2011 23:55:00 10.4 C 8.87 g/m*3 8.11 C 17.7 km/h
865 01-01-2012 00:00:00 10.5 C 8.92 g/m*3 8.23 C 17.7 km/h
866 01-01-2012 00:05:00 10.5 C 8.92 g/m*3 9.57 C 8.1 km/h
867 01-01-2012 00:10:00 10.6 C 8.88 g/m*3 9.69 C 8.1 km/h
868 01-01-2012 00:15:00 10.4 C 8.77 g/m*3 9.83 C 6.4 km/h
869 01-01-2012 00:20:00 10.3 C 8.81 g/m*3 9.72 C 6.4 km/h
870 01-01-2012 00:25:00 10.3 C 8.81 g/m*3 10.3 C 3.2 km/h
871 01-01-2012 00:30:00 10.2 C 8.76 g/m*3 10.2 C 4.8 km/h
872 01-01-2012 00:35:00 10.2 C 8.76 g/m*3 9.6 C 6.4 km/h
873 01-01-2012 00:40:00 10.3 C 8.81 g/m*3 9.34 C 8.1 km/h
874 01-01-2012 00:45:00 10.3 C 8.81 g/m*3 9.04 C 9.7 km/h
875 01-01-2012 00:50:00 10.5 C 8.92 g/m*3 9.02 C 11.3 km/h
Sensor: Nr:Datum:Temp:Abs-Feuchte:Windchill:Wind:
Aussen-T/F 876 01-01-2012 00:55:00 10.5 C 8.92 g/m*3 10.5 C 4.8 km/h
877 01-01-2012 01:00:00 10.4 C 8.77 g/m*3 10.4 C 3.2 km/h
878 01-01-2012 01:05:00 10.5 C 8.83 g/m*3 10.5 C 4.8 km/h
879 01-01-2012 01:10:00 10.4 C 8.87 g/m*3 10.4 C 3.2 km/h
880 01-01-2012 01:15:00 10.4 C 8.87 g/m*3 9.16 C 9.7 km/h
881 01-01-2012 01:20:00 10.4 C 8.87 g/m*3 9.83 C 6.4 km/h
882 01-01-2012 01:25:00 10.5 C 8.92 g/m*3 9.95 C 6.4 km/h
883 01-01-2012 01:30:00 10.6 C 8.98 g/m*3 9.69 C 8.1 km/h
884 01-01-2012 01:35:00 10.6 C 8.98 g/m*3 10.06 C 6.4 km/h
885 01-01-2012 01:40:00 10.6 C 9.08 g/m*3 10.6 C 4.8 km/h
886 01-01-2012 01:45:00 10.4 C 8.96 g/m*3 10.4 C 4.8 km/h
887 01-01-2012 01:50:00 10.4 C 9.06 g/m*3 9.83 C 6.4 km/h
888 01-01-2012 01:55:00 10.3 C 9 g/m*3 10.3 C 4.8 km/h
889 01-01-2012 02:00:00 10.2 C 8.95 g/m*3 10.2 C 4.8 km/h
890 01-01-2012 02:05:00 10.1 C 8.79 g/m*3 10.1 C 1.6 km/h
891 01-01-2012 02:10:00 9.8 C 8.72 g/m*3 9.8 C 3.2 km/h
892 01-01-2012 02:15:00 9.8 C 8.81 g/m*3 9.14 C 6.4 km/h
893 01-01-2012 02:20:00 9.8 C 8.81 g/m*3 9.14 C 6.4 km/h
894 01-01-2012 02:25:00 9.8 C 8.81 g/m*3 9.14 C 6.4 km/h
895 01-01-2012 02:30:00 9.8 C 8.81 g/m*3 9.8 C 3.2 km/h
896 01-01-2012 02:35:00 9.7 C 8.76 g/m*3 9.7 C 3.2 km/h
897 01-01-2012 02:40:00 9.6 C 8.7 g/m*3 9.6 C 3.2 km/h
898 01-01-2012 02:45:00 9.5 C 8.65 g/m*3 9.5 C 3.2 km/h
899 01-01-2012 02:50:00 9.6 C 8.79 g/m*3 9.6 C 3.2 km/h
900 01-01-2012 02:55:00 9.6 C 8.79 g/m*3 9.6 C 3.2 km/h
Sensor: Nr:Datum:Temp:Abs-Feuchte:Windchill:Wind:
Aussen-T/F 901 01-01-2012 03:00:00 9.6 C 8.79 g/m*3 9.6 C 3.2 km/h
902 01-01-2012 03:05:00 9.6 C 8.79 g/m*3 9.6 C 3.2 km/h
903 01-01-2012 03:10:00 9.6 C 8.79 g/m*3 9.6 C 4.8 km/h
904 01-01-2012 03:15:00 9.6 C 8.79 g/m*3 9.6 C 3.2 km/h
905 01-01-2012 03:20:00 9.6 C 8.79 g/m*3 9.6 C 1.6 km/h
906 01-01-2012 03:25:00 9.6 C 8.79 g/m*3 9.6 C 3.2 km/h
907 01-01-2012 03:30:00 9.6 C 8.79 g/m*3 9.6 C 3.2 km/h
908 01-01-2012 03:35:00 9.5 C 8.74 g/m*3 9.5 C 3.2 km/h
909 01-01-2012 03:40:00 9.5 C 8.74 g/m*3 9.5 C 3.2 km/h
910 01-01-2012 03:45:00 9.5 C 8.74 g/m*3 9.5 C 3.2 km/h
911 01-01-2012 03:50:00 9.6 C 8.79 g/m*3 9.6 C 3.2 km/h
912 01-01-2012 03:55:00 9.6 C 8.79 g/m*3 9.6 C 3.2 km/h
913 01-01-2012 04:00:00 9.6 C 8.79 g/m*3 9.6 C 3.2 km/h
914 01-01-2012 04:05:00 9.6 C 8.79 g/m*3 9.6 C 3.2 km/h
915 01-01-2012 04:10:00 9.6 C 8.79 g/m*3 9.6 C 1.6 km/h
916 01-01-2012 04:15:00 9.6 C 8.79 g/m*3 9.6 C 3.2 km/h
917 01-01-2012 04:20:00 9.6 C 8.79 g/m*3 9.6 C 3.2 km/h
918 01-01-2012 04:25:00 9.6 C 8.79 g/m*3 9.6 C 3.2 km/h
919 01-01-2012 04:30:00 9.6 C 8.79 g/m*3 9.6 C 3.2 km/h
920 01-01-2012 04:35:00 9.6 C 8.79 g/m*3 9.6 C 3.2 km/h
921 01-01-2012 04:40:00 9.6 C 8.79 g/m*3 9.6 C 3.2 km/h
922 01-01-2012 04:45:00 9.6 C 8.79 g/m*3 9.6 C 1.6 km/h
923 01-01-2012 04:50:00 9.7 C 8.85 g/m*3 9.7 C 1.6 km/h
924 01-01-2012 04:55:00 9.7 C 8.94 g/m*3 9.7 C 3.2 km/h
925 01-01-2012 05:00:00 9.7 C 8.94 g/m*3 9.7 C 1.6 km/h
Sensor: Nr:Datum:Temp:Abs-Feuchte:Windchill:Wind:
Aussen-T/F 926 01-01-2012 05:05:00 9.8 C 9 g/m*3 9.8 C 1.6 km/h
927 01-01-2012 05:10:00 9.8 C 9 g/m*3 9.8 C 0 km/h
928 01-01-2012 05:15:00 9.8 C 8.91 g/m*3 9.8 C 1.6 km/h
929 01-01-2012 05:20:00 9.7 C 8.85 g/m*3 9.7 C 1.6 km/h
930 01-01-2012 05:25:00 9.8 C 8.91 g/m*3 9.8 C 3.2 km/h
931 01-01-2012 05:30:00 9.8 C 8.91 g/m*3 9.8 C 3.2 km/h
932 01-01-2012 05:35:00 9.8 C 8.91 g/m*3 9.8 C 1.6 km/h
933 01-01-2012 05:40:00 9.9 C 8.96 g/m*3 8.87 C 8.1 km/h
934 01-01-2012 05:45:00 10.1 C 9.08 g/m*3 9.48 C 6.4 km/h
935 01-01-2012 05:50:00 10.2 C 9.14 g/m*3 10.2 C 1.6 km/h
936 01-01-2012 05:55:00 10.2 C 9.04 g/m*3 10.2 C 4.8 km/h
937 01-01-2012 06:00:00 10.2 C 9.04 g/m*3 10.2 C 3.2 km/h
938 01-01-2012 06:05:00 10.2 C 9.04 g/m*3 9.6 C 6.4 km/h
939 01-01-2012 06:10:00 10.3 C 9.1 g/m*3 9.72 C 6.4 km/h
940 01-01-2012 06:15:00 10.5 C 9.21 g/m*3 10.5 C 4.8 km/h
941 01-01-2012 06:20:00 10.7 C 9.23 g/m*3 10.7 C 4.8 km/h
942 01-01-2012 06:25:00 10.9 C 9.25 g/m*3 8.9 C 16.1 km/h
943 01-01-2012 06:30:00 11.4 C 9.34 g/m*3 11.4 C 12.9 km/h
944 01-01-2012 06:35:00 11.5 C 9.4 g/m*3 11.5 C 9.7 km/h
945 01-01-2012 06:40:00 11.5 C 9.4 g/m*3 11.5 C 12.9 km/h
946 01-01-2012 06:45:00 11.6 C 9.35 g/m*3 11.6 C 14.5 km/h
947 01-01-2012 06:50:00 11.7 C 9.41 g/m*3 11.7 C 12.9 km/h
948 01-01-2012 06:55:00 11.6 C 9.35 g/m*3 11.6 C 17.7 km/h
949 01-01-2012 07:00:00 11.7 C 9.41 g/m*3 11.7 C 12.9 km/h
950 01-01-2012 07:05:00 11.7 C 9.41 g/m*3 11.7 C 20.9 km/h
Sensor: Nr:Datum:Temp:Abs-Feuchte:Windchill:Wind:
Aussen-T/F 951 01-01-2012 07:10:00 11.7 C 9.41 g/m*3 11.7 C 9.7 km/h
952 01-01-2012 07:15:00 11.7 C 9.41 g/m*3 11.7 C 11.3 km/h
953 01-01-2012 07:20:00 11.8 C 9.47 g/m*3 11.8 C 9.7 km/h
954 01-01-2012 07:25:00 11.7 C 9.41 g/m*3 11.7 C 9.7 km/h
955 01-01-2012 07:30:00 11.7 C 9.41 g/m*3 11.7 C 9.7 km/h
956 01-01-2012 07:35:00 11.7 C 9.41 g/m*3 11.7 C 9.7 km/h
957 01-01-2012 07:40:00 11.7 C 9.41 g/m*3 11.7 C 9.7 km/h
958 01-01-2012 07:45:00 11.7 C 9.41 g/m*3 11.7 C 8.1 km/h
959 01-01-2012 07:50:00 11.8 C 9.37 g/m*3 11.8 C 19.3 km/h
960 01-01-2012 07:55:00 11.9 C 9.43 g/m*3 11.9 C 12.9 km/h
961 01-01-2012 08:00:00 11.9 C 9.43 g/m*3 11.9 C 11.3 km/h
962 01-01-2012 08:05:00 12 C 9.48 g/m*3 12 C 11.3 km/h
963 01-01-2012 08:10:00 12 C 9.38 g/m*3 12 C 9.7 km/h
964 01-01-2012 08:15:00 12.1 C 9.44 g/m*3 12.1 C 12.9 km/h
965 01-01-2012 08:35:00 12 C 9.38 g/m*3 12 C 11.3 km/h
966 01-01-2012 08:40:00 12 C 9.48 g/m*3 12 C 11.3 km/h
967 01-01-2012 08:45:00 12 C 9.38 g/m*3 12 C 14.5 km/h
968 01-01-2012 08:50:00 12 C 9.48 g/m*3 12 C 8.1 km/h
969 01-01-2012 08:55:00 11.9 C 9.43 g/m*3 11.9 C 11.3 km/h
970 01-01-2012 09:00:00 12 C 9.38 g/m*3 12 C 8.1 km/h
971 01-01-2012 09:05:00 12 C 9.38 g/m*3 12 C 11.3 km/h
972 01-01-2012 09:10:00 12 C 9.48 g/m*3 12 C 8.1 km/h
973 01-01-2012 09:15:00 12.1 C 9.44 g/m*3 12.1 C 9.7 km/h
974 01-01-2012 09:20:00 12.1 C 9.44 g/m*3 12.1 C 8.1 km/h
975 01-01-2012 09:25:00 12.1 C 9.44 g/m*3 12.1 C 9.7 km/h
Sensor: Nr:Datum:Temp:Abs-Feuchte:Windchill:Wind:
Aussen-T/F 976 01-01-2012 09:30:00 12.2 C 9.5 g/m*3 12.2 C 12.9 km/h
977 01-01-2012 09:35:00 12.2 C 9.5 g/m*3 12.2 C 9.7 km/h
978 01-01-2012 09:40:00 12.2 C 9.5 g/m*3 12.2 C 14.5 km/h
979 01-01-2012 09:45:00 12.3 C 9.56 g/m*3 12.3 C 11.3 km/h
980 01-01-2012 09:50:00 12.3 C 9.56 g/m*3 12.3 C 11.3 km/h
981 01-01-2012 09:55:00 12.3 C 9.56 g/m*3 12.3 C 8.1 km/h
982 01-01-2012 10:00:00 12.3 C 9.56 g/m*3 12.3 C 11.3 km/h
983 01-01-2012 10:05:00 12.3 C 9.56 g/m*3 12.3 C 11.3 km/h
984 01-01-2012 10:10:00 12.3 C 9.56 g/m*3 12.3 C 9.7 km/h
985 01-01-2012 10:15:00 12.4 C 9.62 g/m*3 12.4 C 17.7 km/h
986 01-01-2012 10:20:00 12.4 C 9.62 g/m*3 12.4 C 11.3 km/h
987 01-01-2012 10:25:00 12.4 C 9.62 g/m*3 12.4 C 14.5 km/h
988 01-01-2012 10:30:00 12.5 C 9.57 g/m*3 12.5 C 17.7 km/h
989 01-01-2012 10:35:00 12.5 C 9.68 g/m*3 12.5 C 16.1 km/h
990 01-01-2012 10:40:00 12.5 C 9.68 g/m*3 12.5 C 11.3 km/h
991 01-01-2012 10:45:00 12.4 C 9.62 g/m*3 12.4 C 11.3 km/h
992 01-01-2012 10:50:00 12.5 C 9.68 g/m*3 12.5 C 19.3 km/h
993 01-01-2012 10:55:00 12.6 C 9.74 g/m*3 12.6 C 12.9 km/h
994 01-01-2012 11:00:00 12.6 C 9.62 g/m*3 12.6 C 12.9 km/h
995 01-01-2012 11:05:00 12.6 C 9.62 g/m*3 12.6 C 16.1 km/h
996 01-01-2012 11:10:00 12.6 C 9.62 g/m*3 12.6 C 14.5 km/h
997 01-01-2012 11:15:00 12.7 C 9.68 g/m*3 12.7 C 12.9 km/h
998 01-01-2012 11:20:00 12.7 C 9.68 g/m*3 12.7 C 9.7 km/h
999 01-01-2012 11:25:00 12.7 C 9.68 g/m*3 12.7 C 12.9 km/h
1000 01-01-2012 11:30:00 12.7 C 9.68 g/m*3 12.7 C 11.3 km/h
Sensor: Nr:Datum:Temp:Abs-Feuchte:Windchill:Wind:
Aussen-T/F 1001 01-01-2012 11:35:00 12.7 C 9.68 g/m*3 12.7 C 11.3 km/h
1002 01-01-2012 11:40:00 12.7 C 9.68 g/m*3 12.7 C 11.3 km/h
1003 01-01-2012 11:45:00 12.8 C 9.63 g/m*3 12.8 C 14.5 km/h
1004 01-01-2012 11:50:00 12.8 C 9.63 g/m*3 12.8 C 16.1 km/h
1005 01-01-2012 11:55:00 12.8 C 9.63 g/m*3 12.8 C 9.7 km/h
1006 01-01-2012 12:00:00 12.9 C 9.69 g/m*3 12.9 C 24.1 km/h
1007 01-01-2012 12:05:00 13.1 C 9.7 g/m*3 13.1 C 12.9 km/h
1008 01-01-2012 12:10:00 13.1 C 9.7 g/m*3 13.1 C 11.3 km/h
1009 01-01-2012 12:15:00 13.2 C 9.64 g/m*3 13.2 C 12.9 km/h
1010 01-01-2012 12:20:00 13.2 C 9.76 g/m*3 13.2 C 14.5 km/h
1011 01-01-2012 12:25:00 13.2 C 9.64 g/m*3 13.2 C 14.5 km/h
1012 01-01-2012 12:30:00 13.2 C 9.76 g/m*3 13.2 C 16.1 km/h
1013 01-01-2012 12:35:00 13.2 C 9.64 g/m*3 13.2 C 16.1 km/h
1014 01-01-2012 12:40:00 13.2 C 9.64 g/m*3 13.2 C 17.7 km/h
1015 01-01-2012 12:45:00 13.2 C 9.76 g/m*3 13.2 C 9.7 km/h
1016 01-01-2012 12:50:00 13.2 C 9.76 g/m*3 13.2 C 11.3 km/h
1017 01-01-2012 12:55:00 13.2 C 9.76 g/m*3 13.2 C 12.9 km/h
1018 01-01-2012 13:00:00 13.1 C 9.7 g/m*3 13.1 C 16.1 km/h
1019 01-01-2012 13:05:00 13.1 C 9.7 g/m*3 13.1 C 9.7 km/h
1020 01-01-2012 13:10:00 13.1 C 9.7 g/m*3 13.1 C 16.1 km/h
1021 01-01-2012 13:15:00 13.1 C 9.7 g/m*3 13.1 C 11.3 km/h
1022 01-01-2012 13:20:00 13.2 C 9.76 g/m*3 13.2 C 11.3 km/h
1023 01-01-2012 13:25:00 13.2 C 9.76 g/m*3 13.2 C 9.7 km/h
1024 01-01-2012 13:30:00 13.2 C 9.76 g/m*3 13.2 C 11.3 km/h
1025 01-01-2012 13:35:00 13.2 C 9.76 g/m*3 13.2 C 12.9 km/h
Sensor: Nr:Datum:Temp:Abs-Feuchte:Windchill:Wind:
Aussen-T/F 1026 01-01-2012 13:40:00 13.3 C 9.82 g/m*3 13.3 C 14.5 km/h
1027 01-01-2012 13:45:00 13.3 C 9.82 g/m*3 13.3 C 16.1 km/h
1028 01-01-2012 13:50:00 13.3 C 9.7 g/m*3 13.3 C 16.1 km/h
1029 01-01-2012 13:55:00 13.4 C 9.76 g/m*3 13.4 C 11.3 km/h
1030 01-01-2012 14:00:00 13.4 C 9.76 g/m*3 13.4 C 16.1 km/h
1031 01-01-2012 14:05:00 13.4 C 9.76 g/m*3 13.4 C 14.5 km/h
1032 01-01-2012 14:10:00 13.4 C 9.76 g/m*3 13.4 C 11.3 km/h
1033 01-01-2012 14:15:00 13.4 C 9.76 g/m*3 13.4 C 11.3 km/h
1034 01-01-2012 14:20:00 13.4 C 9.76 g/m*3 13.4 C 11.3 km/h
1035 01-01-2012 14:25:00 13.3 C 9.7 g/m*3 13.3 C 12.9 km/h
1036 01-01-2012 14:30:00 13.3 C 9.82 g/m*3 13.3 C 14.5 km/h
1037 01-01-2012 14:35:00 13.2 C 9.76 g/m*3 13.2 C 11.3 km/h
1038 01-01-2012 14:40:00 13.2 C 9.76 g/m*3 13.2 C 16.1 km/h
1039 01-01-2012 14:45:00 13.1 C 9.7 g/m*3 13.1 C 12.9 km/h
1040 01-01-2012 14:50:00 13.1 C 9.7 g/m*3 13.1 C 17.7 km/h
1041 01-01-2012 14:55:00 13.1 C 9.7 g/m*3 13.1 C 11.3 km/h
1042 01-01-2012 15:00:00 13.1 C 9.7 g/m*3 13.1 C 14.5 km/h
1043 01-01-2012 15:05:00 13.1 C 9.7 g/m*3 13.1 C 8.1 km/h
1044 01-01-2012 15:10:00 13.2 C 9.76 g/m*3 13.2 C 9.7 km/h
1045 01-01-2012 15:15:00 13.2 C 9.76 g/m*3 13.2 C 8.1 km/h
1046 01-01-2012 15:20:00 13.2 C 9.76 g/m*3 13.2 C 9.7 km/h
1047 01-01-2012 15:25:00 13.2 C 9.76 g/m*3 13.2 C 8.1 km/h
1048 01-01-2012 15:30:00 13.2 C 9.76 g/m*3 13.2 C 4.8 km/h
1049 01-01-2012 15:35:00 13.1 C 9.7 g/m*3 13.1 C 6.4 km/h
1050 01-01-2012 15:40:00 13.2 C 9.76 g/m*3 13.2 C 12.9 km/h
Sensor: Nr:Datum:Temp:Abs-Feuchte:Windchill:Wind:
Aussen-T/F 1051 01-01-2012 15:45:00 13.2 C 9.76 g/m*3 13.2 C 9.7 km/h
1052 01-01-2012 15:50:00 13.1 C 9.7 g/m*3 13.1 C 8.1 km/h
1053 01-01-2012 15:55:00 13.1 C 9.7 g/m*3 13.1 C 8.1 km/h
1054 01-01-2012 16:00:00 13.1 C 9.81 g/m*3 13.1 C 11.3 km/h
1055 01-01-2012 16:05:00 13 C 9.75 g/m*3 13 C 9.7 km/h
1056 01-01-2012 16:10:00 12.9 C 9.81 g/m*3 12.9 C 6.4 km/h
1057 01-01-2012 16:15:00 12.8 C 9.74 g/m*3 12.8 C 4.8 km/h
1058 01-01-2012 16:20:00 12.7 C 9.68 g/m*3 12.7 C 6.4 km/h
1059 01-01-2012 16:25:00 12.7 C 9.68 g/m*3 12.7 C 4.8 km/h
1060 01-01-2012 16:30:00 12.6 C 9.62 g/m*3 12.6 C 9.7 km/h
1061 01-01-2012 16:35:00 12.6 C 9.62 g/m*3 12.6 C 8.1 km/h
1062 01-01-2012 16:40:00 12.5 C 9.57 g/m*3 12.5 C 8.1 km/h
1063 01-01-2012 16:45:00 12.6 C 9.62 g/m*3 12.6 C 4.8 km/h
1064 01-01-2012 16:50:00 12.6 C 9.62 g/m*3 12.6 C 8.1 km/h
1065 01-01-2012 16:55:00 12.6 C 9.62 g/m*3 12.6 C 4.8 km/h
1066 01-01-2012 17:00:00 12.6 C 9.62 g/m*3 12.6 C 4.8 km/h
1067 01-01-2012 17:05:00 12.6 C 9.62 g/m*3 12.6 C 4.8 km/h
1068 01-01-2012 17:10:00 12.7 C 9.68 g/m*3 12.7 C 9.7 km/h
1069 01-01-2012 17:15:00 12.7 C 9.68 g/m*3 12.7 C 11.3 km/h
1070 01-01-2012 17:20:00 12.6 C 9.62 g/m*3 12.6 C 6.4 km/h
1071 01-01-2012 17:25:00 12.6 C 9.62 g/m*3 12.6 C 4.8 km/h
1072 01-01-2012 17:30:00 12.4 C 9.51 g/m*3 12.4 C 6.4 km/h
1073 01-01-2012 17:35:00 12.4 C 9.62 g/m*3 12.4 C 8.1 km/h
1074 01-01-2012 17:40:00 12.4 C 9.62 g/m*3 12.4 C 9.7 km/h
1075 01-01-2012 17:45:00 12.4 C 9.62 g/m*3 12.4 C 6.4 km/h
Sensor: Nr:Datum:Temp:Abs-Feuchte:Windchill:Wind:
Aussen-T/F 1076 01-01-2012 17:50:00 12.4 C 9.62 g/m*3 12.4 C 6.4 km/h
1077 01-01-2012 17:55:00 12.4 C 9.62 g/m*3 12.4 C 11.3 km/h
1078 01-01-2012 18:00:00 12.5 C 9.68 g/m*3 12.5 C 11.3 km/h
1079 01-01-2012 18:05:00 12.6 C 9.62 g/m*3 12.6 C 8.1 km/h
1080 01-01-2012 18:10:00 12.6 C 9.62 g/m*3 12.6 C 8.1 km/h
1081 01-01-2012 18:15:00 12.6 C 9.62 g/m*3 12.6 C 6.4 km/h
1082 01-01-2012 18:20:00 12.7 C 9.68 g/m*3 12.7 C 8.1 km/h
1083 01-01-2012 18:25:00 12.7 C 9.68 g/m*3 12.7 C 6.4 km/h
1084 01-01-2012 18:30:00 12.7 C 9.68 g/m*3 12.7 C 4.8 km/h
1085 01-01-2012 18:35:00 12.8 C 9.74 g/m*3 12.8 C 4.8 km/h
1086 01-01-2012 18:40:00 12.7 C 9.68 g/m*3 12.7 C 3.2 km/h
1087 01-01-2012 18:45:00 12.7 C 9.68 g/m*3 12.7 C 6.4 km/h
1088 01-01-2012 18:50:00 12.7 C 9.68 g/m*3 12.7 C 6.4 km/h
1089 01-01-2012 18:55:00 12.7 C 9.68 g/m*3 12.7 C 3.2 km/h
1090 01-01-2012 19:00:00 12.7 C 9.68 g/m*3 12.7 C 11.3 km/h
1091 01-01-2012 19:05:00 12.8 C 9.74 g/m*3 12.8 C 8.1 km/h
1092 01-01-2012 19:10:00 12.7 C 9.68 g/m*3 12.7 C 6.4 km/h
1093 01-01-2012 19:15:00 12.7 C 9.8 g/m*3 12.7 C 4.8 km/h
1094 01-01-2012 19:20:00 12.7 C 9.8 g/m*3 12.7 C 4.8 km/h
1095 01-01-2012 19:25:00 12.7 C 9.8 g/m*3 12.7 C 3.2 km/h
1096 01-01-2012 19:30:00 12.7 C 9.91 g/m*3 12.7 C 6.4 km/h
1097 01-01-2012 19:35:00 12.7 C 9.91 g/m*3 12.7 C 6.4 km/h
1098 01-01-2012 19:40:00 12.6 C 9.85 g/m*3 12.6 C 6.4 km/h
1099 01-01-2012 19:45:00 12.6 C 9.85 g/m*3 12.6 C 4.8 km/h
1100 01-01-2012 19:50:00 12.6 C 9.85 g/m*3 12.6 C 6.4 km/h
Sensor: Nr:Datum:Temp:Abs-Feuchte:Windchill:Wind:
Aussen-T/F 1101 01-01-2012 19:55:00 12.7 C 9.8 g/m*3 12.7 C 9.7 km/h
1102 01-01-2012 20:00:00 12.9 C 9.81 g/m*3 12.9 C 9.7 km/h
1103 01-01-2012 20:05:00 13 C 9.75 g/m*3 13 C 6.4 km/h
1104 01-01-2012 20:10:00 13.2 C 9.64 g/m*3 13.2 C 16.1 km/h
1105 01-01-2012 20:15:00 13.4 C 9.65 g/m*3 13.4 C 12.9 km/h
1106 01-01-2012 20:20:00 13.5 C 9.59 g/m*3 13.5 C 14.5 km/h
1107 01-01-2012 20:25:00 13.6 C 9.65 g/m*3 13.6 C 11.3 km/h
1108 01-01-2012 20:30:00 13.6 C 9.65 g/m*3 13.6 C 8.1 km/h
1109 01-01-2012 20:35:00 13.7 C 9.71 g/m*3 13.7 C 8.1 km/h
1110 01-01-2012 20:40:00 13.6 C 9.65 g/m*3 13.6 C 6.4 km/h
1111 01-01-2012 20:45:00 13.5 C 9.71 g/m*3 13.5 C 6.4 km/h
1112 01-01-2012 20:50:00 13.4 C 9.65 g/m*3 13.4 C 11.3 km/h
1113 01-01-2012 20:55:00 13.3 C 9.7 g/m*3 13.3 C 8.1 km/h
1114 01-01-2012 21:00:00 13.3 C 9.7 g/m*3 13.3 C 8.1 km/h
1115 01-01-2012 21:05:00 13.3 C 9.7 g/m*3 13.3 C 8.1 km/h
1116 01-01-2012 21:10:00 13.3 C 9.59 g/m*3 13.3 C 8.1 km/h
1117 01-01-2012 21:15:00 13.3 C 9.59 g/m*3 13.3 C 6.4 km/h
1118 01-01-2012 21:20:00 13.3 C 9.59 g/m*3 13.3 C 9.7 km/h
1119 01-01-2012 21:25:00 13.4 C 9.65 g/m*3 13.4 C 9.7 km/h
1120 01-01-2012 21:30:00 13.4 C 9.65 g/m*3 13.4 C 4.8 km/h
1121 01-01-2012 21:35:00 13.4 C 9.65 g/m*3 13.4 C 6.4 km/h
1122 01-01-2012 21:40:00 13.4 C 9.65 g/m*3 13.4 C 4.8 km/h
1123 01-01-2012 21:45:00 13.4 C 9.65 g/m*3 13.4 C 3.2 km/h
1124 01-01-2012 21:50:00 13.3 C 9.59 g/m*3 13.3 C 4.8 km/h
1125 01-01-2012 21:55:00 13.4 C 9.53 g/m*3 13.4 C 11.3 km/h
Sensor: Nr:Datum:Temp:Abs-Feuchte:Windchill:Wind:
Aussen-T/F 1126 01-01-2012 22:00:00 13.5 C 9.59 g/m*3 13.5 C 11.3 km/h
1127 01-01-2012 22:05:00 13.6 C 9.65 g/m*3 13.6 C 9.7 km/h
1128 01-01-2012 22:10:00 13.6 C 9.77 g/m*3 13.6 C 22.5 km/h
1129 01-01-2012 22:15:00 13.4 C 9.65 g/m*3 13.4 C 17.7 km/h
1130 01-01-2012 22:20:00 13.3 C 9.59 g/m*3 13.3 C 11.3 km/h
1131 01-01-2012 22:25:00 13.3 C 9.59 g/m*3 13.3 C 6.4 km/h
1132 01-01-2012 22:30:00 13.3 C 9.59 g/m*3 13.3 C 14.5 km/h
1133 01-01-2012 22:35:00 13.4 C 9.53 g/m*3 13.4 C 9.7 km/h
1134 01-01-2012 22:40:00 13.4 C 9.53 g/m*3 13.4 C 6.4 km/h
1135 01-01-2012 22:45:00 13.4 C 9.53 g/m*3 13.4 C 9.7 km/h
1136 01-01-2012 22:50:00 13.4 C 9.53 g/m*3 13.4 C 6.4 km/h
1137 01-01-2012 22:55:00 13.5 C 9.59 g/m*3 13.5 C 8.1 km/h
1138 01-01-2012 23:00:00 13.5 C 9.59 g/m*3 13.5 C 11.3 km/h
1139 01-01-2012 23:05:00 13.5 C 9.59 g/m*3 13.5 C 9.7 km/h
1140 01-01-2012 23:10:00 13.5 C 9.59 g/m*3 13.5 C 4.8 km/h
1141 01-01-2012 23:15:00 13.4 C 9.65 g/m*3 13.4 C 11.3 km/h
1142 01-01-2012 23:20:00 13.4 C 9.65 g/m*3 13.4 C 11.3 km/h
1143 01-01-2012 23:25:00 13.4 C 9.65 g/m*3 13.4 C 8.1 km/h
1144 01-01-2012 23:30:00 13.3 C 9.59 g/m*3 13.3 C 9.7 km/h
1145 01-01-2012 23:35:00 13.4 C 9.65 g/m*3 13.4 C 9.7 km/h
1146 01-01-2012 23:40:00 13.4 C 9.65 g/m*3 13.4 C 6.4 km/h
1147 01-01-2012 23:45:00 13.3 C 9.59 g/m*3 13.3 C 9.7 km/h
1148 01-01-2012 23:50:00 13.4 C 9.65 g/m*3 13.4 C 4.8 km/h
1149 01-01-2012 23:55:00 13.4 C 9.65 g/m*3 13.4 C 8.1 km/h
1150 02-01-2012 00:00:00 13.5 C 9.59 g/m*3 13.5 C 19.3 km/h
Sensor: Nr:Datum:Temp:Abs-Feuchte:Windchill:Wind:
Aussen-T/F 1151 02-01-2012 00:05:00 13.5 C 9.59 g/m*3 13.5 C 12.9 km/h
1152 02-01-2012 00:10:00 13.5 C 9.59 g/m*3 13.5 C 11.3 km/h
1153 02-01-2012 00:15:00 13.4 C 9.53 g/m*3 13.4 C 16.1 km/h
1154 02-01-2012 00:20:00 13.4 C 9.53 g/m*3 13.4 C 4.8 km/h
1155 02-01-2012 00:25:00 13.4 C 9.53 g/m*3 13.4 C 6.4 km/h
1156 02-01-2012 00:30:00 13.5 C 9.59 g/m*3 13.5 C 9.7 km/h
1157 02-01-2012 00:35:00 13.6 C 9.65 g/m*3 13.6 C 8.1 km/h
1158 02-01-2012 00:40:00 13.6 C 9.53 g/m*3 13.6 C 8.1 km/h
1159 02-01-2012 00:45:00 13.7 C 9.59 g/m*3 13.7 C 16.1 km/h
1160 02-01-2012 00:50:00 13.7 C 9.59 g/m*3 13.7 C 8.1 km/h
1161 02-01-2012 00:55:00 13.7 C 9.47 g/m*3 13.7 C 9.7 km/h
1162 02-01-2012 01:00:00 13.7 C 9.59 g/m*3 13.7 C 9.7 km/h
1163 02-01-2012 01:05:00 13.6 C 9.53 g/m*3 13.6 C 17.7 km/h
1164 02-01-2012 01:10:00 13.7 C 9.47 g/m*3 13.7 C 9.7 km/h
1165 02-01-2012 01:15:00 13.8 C 9.41 g/m*3 13.8 C 14.5 km/h
1166 02-01-2012 01:20:00 13.8 C 9.29 g/m*3 13.8 C 11.3 km/h
1167 02-01-2012 01:25:00 13.9 C 9.35 g/m*3 13.9 C 11.3 km/h
1168 02-01-2012 01:30:00 13.8 C 9.29 g/m*3 13.8 C 11.3 km/h
1169 02-01-2012 01:35:00 13.9 C 9.23 g/m*3 13.9 C 22.5 km/h
1170 02-01-2012 01:40:00 13.9 C 9.23 g/m*3 13.9 C 12.9 km/h
1171 02-01-2012 01:45:00 14 C 9.17 g/m*3 14 C 17.7 km/h
1172 02-01-2012 01:50:00 14 C 9.29 g/m*3 14 C 12.9 km/h
1173 02-01-2012 01:55:00 13.9 C 9.35 g/m*3 13.9 C 14.5 km/h
1174 02-01-2012 02:00:00 13.8 C 9.29 g/m*3 13.8 C 11.3 km/h
1175 02-01-2012 02:05:00 13.8 C 9.29 g/m*3 13.8 C 11.3 km/h
Sensor: Nr:Datum:Temp:Abs-Feuchte:Windchill:Wind:
Aussen-T/F 1176 02-01-2012 02:10:00 13.7 C 9.24 g/m*3 13.7 C 8.1 km/h
1177 02-01-2012 02:15:00 13.7 C 9.24 g/m*3 13.7 C 11.3 km/h
1178 02-01-2012 02:20:00 13.7 C 9.24 g/m*3 13.7 C 11.3 km/h
1179 02-01-2012 02:25:00 13.7 C 9.24 g/m*3 13.7 C 12.9 km/h
1180 02-01-2012 02:30:00 13.7 C 9.24 g/m*3 13.7 C 12.9 km/h
1181 02-01-2012 02:35:00 13.7 C 9.24 g/m*3 13.7 C 9.7 km/h
1182 02-01-2012 02:40:00 13.7 C 9.24 g/m*3 13.7 C 16.1 km/h
1183 02-01-2012 02:45:00 13.7 C 9.24 g/m*3 13.7 C 11.3 km/h
1184 02-01-2012 02:50:00 13.6 C 9.18 g/m*3 13.6 C 12.9 km/h
1185 02-01-2012 02:55:00 13.6 C 9.18 g/m*3 13.6 C 14.5 km/h
1186 02-01-2012 03:00:00 13.6 C 9.18 g/m*3 13.6 C 17.7 km/h
1187 02-01-2012 03:05:00 13.6 C 9.3 g/m*3 13.6 C 20.9 km/h
1188 02-01-2012 03:10:00 13.6 C 9.3 g/m*3 13.6 C 14.5 km/h
1189 02-01-2012 03:15:00 13.4 C 9.18 g/m*3 13.4 C 14.5 km/h
1190 02-01-2012 03:20:00 13.3 C 9.24 g/m*3 13.3 C 16.1 km/h
1191 02-01-2012 03:25:00 13.3 C 9.36 g/m*3 13.3 C 12.9 km/h
1192 02-01-2012 03:30:00 13.2 C 9.3 g/m*3 13.2 C 11.3 km/h
1193 02-01-2012 03:35:00 13.2 C 9.3 g/m*3 13.2 C 16.1 km/h
1194 02-01-2012 03:40:00 13.1 C 9.24 g/m*3 13.1 C 12.9 km/h
1195 02-01-2012 03:45:00 13.1 C 9.24 g/m*3 13.1 C 14.5 km/h
1196 02-01-2012 03:50:00 13.1 C 9.24 g/m*3 13.1 C 14.5 km/h
1197 02-01-2012 03:55:00 13 C 9.3 g/m*3 13 C 8.1 km/h
1198 02-01-2012 04:00:00 12.9 C 9.24 g/m*3 12.9 C 8.1 km/h
1199 02-01-2012 04:05:00 12.8 C 9.18 g/m*3 12.8 C 8.1 km/h
1200 02-01-2012 04:10:00 12.8 C 9.3 g/m*3 12.8 C 12.9 km/h
Sensor: Nr:Datum:Temp:Abs-Feuchte:Windchill:Wind:
Aussen-T/F 1201 02-01-2012 04:15:00 12.8 C 9.3 g/m*3 12.8 C 12.9 km/h
1202 02-01-2012 04:20:00 12.7 C 9.24 g/m*3 12.7 C 11.3 km/h
1203 02-01-2012 04:25:00 12.7 C 9.13 g/m*3 12.7 C 16.1 km/h
1204 02-01-2012 04:30:00 12.6 C 9.18 g/m*3 12.6 C 12.9 km/h
1205 02-01-2012 04:35:00 12.6 C 9.18 g/m*3 12.6 C 11.3 km/h
1206 02-01-2012 04:40:00 12.5 C 9.13 g/m*3 12.5 C 8.1 km/h
1207 02-01-2012 04:45:00 12.4 C 9.18 g/m*3 12.4 C 8.1 km/h
1208 02-01-2012 04:50:00 12.3 C 9.23 g/m*3 12.3 C 11.3 km/h
1209 02-01-2012 04:55:00 12.2 C 9.17 g/m*3 12.2 C 19.3 km/h
1210 02-01-2012 05:00:00 12.2 C 9.17 g/m*3 12.2 C 9.7 km/h
1211 02-01-2012 05:05:00 12.1 C 9.22 g/m*3 12.1 C 6.4 km/h
1212 02-01-2012 05:10:00 11.9 C 9.32 g/m*3 11.9 C 4.8 km/h
1213 02-01-2012 05:15:00 11.7 C 9.31 g/m*3 11.7 C 4.8 km/h
1214 02-01-2012 05:20:00 11.5 C 9.3 g/m*3 11.5 C 6.4 km/h
1215 02-01-2012 05:25:00 11.4 C 9.34 g/m*3 11.4 C 1.6 km/h
1216 02-01-2012 05:30:00 11.2 C 8.92 g/m*3 11.2 C 8.1 km/h
1217 02-01-2012 05:35:00 11.1 C 8.76 g/m*3 11.1 C 4.8 km/h
1218 02-01-2012 05:40:00 10.9 C 8.75 g/m*3 10.9 C 3.2 km/h
1219 02-01-2012 05:45:00 10.8 C 8.8 g/m*3 10.8 C 3.2 km/h
1220 02-01-2012 05:50:00 10.6 C 8.88 g/m*3 10.6 C 3.2 km/h
1221 02-01-2012 05:55:00 10.4 C 8.87 g/m*3 10.4 C 3.2 km/h
1222 02-01-2012 06:00:00 10.2 C 8.76 g/m*3 10.2 C 3.2 km/h
1223 02-01-2012 06:05:00 10.1 C 8.79 g/m*3 10.1 C 4.8 km/h
1224 02-01-2012 06:10:00 10 C 8.74 g/m*3 10 C 1.6 km/h
1225 02-01-2012 06:15:00 9.9 C 8.68 g/m*3 9.9 C 1.6 km/h
Sensor: Nr:Datum:Temp:Abs-Feuchte:Windchill:Wind:
Aussen-T/F 1226 02-01-2012 06:20:00 9.8 C 8.72 g/m*3 9.8 C 1.6 km/h
1227 02-01-2012 06:25:00 9.7 C 8.67 g/m*3 9.7 C 0 km/h
1228 02-01-2012 06:30:00 9.7 C 8.67 g/m*3 9.7 C 1.6 km/h
1229 02-01-2012 06:35:00 9.6 C 8.61 g/m*3 9.6 C 0 km/h
1230 02-01-2012 06:40:00 9.6 C 8.61 g/m*3 9.6 C 0 km/h
1231 02-01-2012 06:45:00 9.6 C 8.61 g/m*3 9.6 C 1.6 km/h
1232 02-01-2012 06:50:00 9.5 C 8.65 g/m*3 9.5 C 0 km/h
1233 02-01-2012 06:55:00 9.5 C 8.65 g/m*3 9.5 C 0 km/h
1234 02-01-2012 07:00:00 9.4 C 8.59 g/m*3 9.4 C 0 km/h
1235 02-01-2012 07:05:00 9.4 C 8.59 g/m*3 9.4 C 0 km/h
1236 02-01-2012 07:10:00 9.4 C 8.59 g/m*3 9.4 C 0 km/h
1237 02-01-2012 07:15:00 9.3 C 8.54 g/m*3 9.3 C 0 km/h
1238 02-01-2012 07:20:00 9.3 C 8.54 g/m*3 9.3 C 0 km/h
1239 02-01-2012 07:25:00 9.3 C 8.54 g/m*3 9.3 C 0 km/h
1240 02-01-2012 07:30:00 9.2 C 8.57 g/m*3 9.2 C 0 km/h
1241 02-01-2012 07:35:00 9.2 C 8.57 g/m*3 9.2 C 0 km/h
1242 02-01-2012 07:40:00 9.2 C 8.57 g/m*3 9.2 C 0 km/h
1243 02-01-2012 07:45:00 9.2 C 8.57 g/m*3 9.2 C 0 km/h
1244 02-01-2012 07:50:00 9.1 C 8.52 g/m*3 9.1 C 0 km/h
1245 02-01-2012 07:55:00 9.1 C 8.52 g/m*3 9.1 C 0 km/h
1246 02-01-2012 08:00:00 9.1 C 8.52 g/m*3 9.1 C 0 km/h
1247 02-01-2012 08:05:00 9.1 C 8.52 g/m*3 9.1 C 0 km/h
1248 02-01-2012 08:10:00 9.1 C 8.52 g/m*3 9.1 C 0 km/h
1249 02-01-2012 08:15:00 9.1 C 8.52 g/m*3 9.1 C 0 km/h
1250 02-01-2012 08:20:00 9 C 8.46 g/m*3 9 C 0 km/h
Sensor: Nr:Datum:Temp:Abs-Feuchte:Windchill:Wind:
Aussen-T/F 1251 02-01-2012 08:25:00 9 C 8.46 g/m*3 9 C 0 km/h
1252 02-01-2012 08:30:00 8.9 C 8.41 g/m*3 8.9 C 0 km/h
1253 02-01-2012 08:35:00 8.9 C 8.41 g/m*3 8.9 C 0 km/h
1254 02-01-2012 08:40:00 8.9 C 8.41 g/m*3 8.9 C 0 km/h
1255 02-01-2012 08:45:00 8.9 C 8.41 g/m*3 8.9 C 0 km/h
1256 02-01-2012 08:50:00 8.9 C 8.41 g/m*3 8.9 C 0 km/h
1257 02-01-2012 08:55:00 8.9 C 8.41 g/m*3 8.9 C 0 km/h
1258 02-01-2012 09:00:00 8.9 C 8.41 g/m*3 8.9 C 0 km/h
1259 02-01-2012 09:05:00 8.9 C 8.41 g/m*3 8.9 C 0 km/h
1260 02-01-2012 09:10:00 8.9 C 8.41 g/m*3 8.9 C 0 km/h
1261 02-01-2012 09:15:00 8.9 C 8.41 g/m*3 8.9 C 0 km/h
1262 02-01-2012 09:20:00 8.9 C 8.41 g/m*3 8.9 C 0 km/h
1263 02-01-2012 09:25:00 8.9 C 8.41 g/m*3 8.9 C 3.2 km/h
1264 02-01-2012 09:30:00 8.9 C 8.41 g/m*3 8.9 C 3.2 km/h
1265 02-01-2012 09:35:00 8.9 C 8.41 g/m*3 8.9 C 3.2 km/h
1266 02-01-2012 09:40:00 9 C 8.46 g/m*3 9 C 3.2 km/h
1267 02-01-2012 09:45:00 9.1 C 8.52 g/m*3 9.1 C 3.2 km/h
1268 02-01-2012 09:50:00 9.1 C 8.43 g/m*3 8.33 C 6.4 km/h
1269 02-01-2012 09:55:00 9.1 C 8.25 g/m*3 7.61 C 9.7 km/h
1270 02-01-2012 10:00:00 9.2 C 7.95 g/m*3 7.73 C 9.7 km/h
1271 02-01-2012 10:05:00 9.2 C 7.95 g/m*3 8.05 C 8.1 km/h
1272 02-01-2012 10:10:00 9.1 C 7.99 g/m*3 7.61 C 9.7 km/h
1273 02-01-2012 10:15:00 8.9 C 7.71 g/m*3 7.69 C 8.1 km/h
1274 02-01-2012 10:20:00 8.8 C 7.75 g/m*3 7.25 C 9.7 km/h
1275 02-01-2012 10:25:00 8.7 C 7.78 g/m*3 7.87 C 6.4 km/h
Sensor: Nr:Datum:Temp:Abs-Feuchte:Windchill:Wind:
Aussen-T/F 1276 02-01-2012 10:30:00 8.6 C 7.73 g/m*3 8.6 C 4.8 km/h
1277 02-01-2012 10:35:00 8.4 C 7.63 g/m*3 7.52 C 6.4 km/h
1278 02-01-2012 10:40:00 8.4 C 7.63 g/m*3 6.78 C 9.7 km/h
1279 02-01-2012 10:45:00 8.3 C 7.59 g/m*3 8.3 C 3.2 km/h
1280 02-01-2012 10:50:00 8.3 C 7.67 g/m*3 8.3 C 3.2 km/h
1281 02-01-2012 10:55:00 8.2 C 7.7 g/m*3 8.2 C 3.2 km/h
1282 02-01-2012 11:00:00 8.1 C 7.49 g/m*3 6.75 C 8.1 km/h
1283 02-01-2012 11:05:00 8.1 C 7.41 g/m*3 6.42 C 9.7 km/h
1284 02-01-2012 11:10:00 8 C 7.44 g/m*3 8 C 4.8 km/h
1285 02-01-2012 11:15:00 7.9 C 7.39 g/m*3 6.18 C 9.7 km/h
1286 02-01-2012 11:20:00 7.9 C 7.31 g/m*3 6.18 C 9.7 km/h
1287 02-01-2012 11:25:00 7.8 C 7.43 g/m*3 7.8 C 4.8 km/h
1288 02-01-2012 11:30:00 7.8 C 7.35 g/m*3 7.8 C 4.8 km/h
1289 02-01-2012 11:35:00 7.7 C 7.3 g/m*3 6.71 C 6.4 km/h
1290 02-01-2012 11:40:00 7.7 C 7.3 g/m*3 7.7 C 3.2 km/h
1291 02-01-2012 11:45:00 7.7 C 7.46 g/m*3 7.7 C 3.2 km/h
1292 02-01-2012 11:50:00 7.7 C 7.46 g/m*3 7.7 C 1.6 km/h
1293 02-01-2012 11:55:00 7.6 C 7.49 g/m*3 7.6 C 3.2 km/h
1294 02-01-2012 12:00:00 7.6 C 7.57 g/m*3 7.6 C 3.2 km/h
1295 02-01-2012 12:05:00 7.6 C 7.41 g/m*3 7.6 C 4.8 km/h
1296 02-01-2012 12:10:00 7.6 C 7.49 g/m*3 7.6 C 4.8 km/h
1297 02-01-2012 12:15:00 7.6 C 7.49 g/m*3 7.6 C 0 km/h
1298 02-01-2012 12:20:00 7.6 C 7.49 g/m*3 7.6 C 3.2 km/h
1299 02-01-2012 12:25:00 7.6 C 7.41 g/m*3 7.6 C 3.2 km/h
1300 02-01-2012 12:30:00 7.6 C 7.41 g/m*3 7.6 C 3.2 km/h
Sensor: Nr:Datum:Temp:Abs-Feuchte:Windchill:Wind:
Aussen-T/F 1301 02-01-2012 12:35:00 7.6 C 7.41 g/m*3 7.6 C 3.2 km/h
1302 02-01-2012 12:40:00 7.5 C 7.44 g/m*3 7.5 C 1.6 km/h
1303 02-01-2012 12:45:00 7.5 C 7.52 g/m*3 7.5 C 3.2 km/h
1304 02-01-2012 12:50:00 7.4 C 7.48 g/m*3 7.4 C 3.2 km/h
1305 02-01-2012 12:55:00 7.4 C 7.48 g/m*3 7.4 C 1.6 km/h
1306 02-01-2012 13:00:00 7.4 C 7.48 g/m*3 7.4 C 1.6 km/h
1307 02-01-2012 13:05:00 7.4 C 7.55 g/m*3 7.4 C 1.6 km/h
1308 02-01-2012 13:10:00 7.4 C 7.55 g/m*3 7.4 C 3.2 km/h
1309 02-01-2012 13:15:00 7.4 C 7.55 g/m*3 7.4 C 1.6 km/h
1310 02-01-2012 13:20:00 7.4 C 7.55 g/m*3 7.4 C 1.6 km/h
1311 02-01-2012 13:25:00 7.5 C 7.52 g/m*3 7.5 C 3.2 km/h
1312 02-01-2012 13:30:00 7.6 C 7.65 g/m*3 7.6 C 1.6 km/h
1313 02-01-2012 13:35:00 7.7 C 7.7 g/m*3 7.7 C 3.2 km/h
1314 02-01-2012 13:40:00 7.7 C 7.62 g/m*3 7.7 C 4.8 km/h
1315 02-01-2012 13:45:00 7.8 C 7.67 g/m*3 7.8 C 3.2 km/h
1316 02-01-2012 13:50:00 7.8 C 7.59 g/m*3 7.8 C 4.8 km/h
1317 02-01-2012 13:55:00 7.9 C 7.64 g/m*3 7.9 C 4.8 km/h
1318 02-01-2012 14:00:00 8 C 7.77 g/m*3 8 C 3.2 km/h
1319 02-01-2012 14:05:00 8 C 7.69 g/m*3 8 C 4.8 km/h
1320 02-01-2012 14:10:00 8.1 C 7.74 g/m*3 7.17 C 6.4 km/h
1321 02-01-2012 14:15:00 8.1 C 7.49 g/m*3 8.1 C 4.8 km/h
1322 02-01-2012 14:20:00 8.2 C 7.45 g/m*3 8.2 C 4.8 km/h
1323 02-01-2012 14:25:00 8.2 C 7.45 g/m*3 8.2 C 4.8 km/h
1324 02-01-2012 14:30:00 8.2 C 7.37 g/m*3 7.29 C 6.4 km/h
1325 02-01-2012 14:35:00 8.3 C 7.5 g/m*3 8.3 C 4.8 km/h
Sensor: Nr:Datum:Temp:Abs-Feuchte:Windchill:Wind:
Aussen-T/F 1326 02-01-2012 14:40:00 8.3 C 7.42 g/m*3 8.3 C 4.8 km/h
1327 02-01-2012 14:45:00 8.3 C 7.59 g/m*3 7.41 C 6.4 km/h
1328 02-01-2012 14:50:00 8.2 C 7.37 g/m*3 6.87 C 8.1 km/h
1329 02-01-2012 14:55:00 8.2 C 7.29 g/m*3 6.87 C 8.1 km/h
1330 02-01-2012 15:00:00 8.2 C 7.45 g/m*3 7.29 C 6.4 km/h
1331 02-01-2012 15:05:00 8.2 C 7.62 g/m*3 8.2 C 3.2 km/h
1332 02-01-2012 15:10:00 8 C 7.61 g/m*3 8 C 4.8 km/h
1333 02-01-2012 15:15:00 7.9 C 7.47 g/m*3 7.9 C 4.8 km/h
1334 02-01-2012 15:20:00 7.8 C 7.51 g/m*3 7.8 C 4.8 km/h
1335 02-01-2012 15:25:00 7.8 C 7.51 g/m*3 7.8 C 3.2 km/h
1336 02-01-2012 15:30:00 7.8 C 7.51 g/m*3 7.8 C 3.2 km/h
1337 02-01-2012 15:35:00 7.7 C 7.46 g/m*3 7.7 C 3.2 km/h
1338 02-01-2012 15:40:00 7.7 C 7.46 g/m*3 7.7 C 3.2 km/h
1339 02-01-2012 15:45:00 7.7 C 7.46 g/m*3 7.7 C 3.2 km/h
1340 02-01-2012 15:50:00 7.7 C 7.38 g/m*3 7.7 C 4.8 km/h
1341 02-01-2012 15:55:00 7.8 C 7.43 g/m*3 7.8 C 4.8 km/h
1342 02-01-2012 16:00:00 7.8 C 7.51 g/m*3 7.8 C 4.8 km/h
1343 02-01-2012 16:05:00 7.8 C 7.35 g/m*3 6.83 C 6.4 km/h
1344 02-01-2012 16:10:00 7.9 C 7.39 g/m*3 7.9 C 4.8 km/h
1345 02-01-2012 16:15:00 7.9 C 7.39 g/m*3 7.9 C 4.8 km/h
1346 02-01-2012 16:20:00 7.9 C 7.39 g/m*3 7.9 C 4.8 km/h
1347 02-01-2012 16:25:00 7.8 C 7.26 g/m*3 6.83 C 6.4 km/h
1348 02-01-2012 16:30:00 7.8 C 7.26 g/m*3 7.8 C 3.2 km/h
1349 02-01-2012 16:35:00 7.8 C 7.26 g/m*3 6.4 C 8.1 km/h
1350 02-01-2012 16:40:00 7.7 C 7.14 g/m*3 6.71 C 6.4 km/h
Sensor: Nr:Datum:Temp:Abs-Feuchte:Windchill:Wind:
Aussen-T/F 1351 02-01-2012 16:45:00 7.8 C 7.18 g/m*3 6.06 C 9.7 km/h
1352 02-01-2012 16:50:00 7.9 C 7.23 g/m*3 5.63 C 12.9 km/h
1353 02-01-2012 16:55:00 7.9 C 7.06 g/m*3 6.52 C 8.1 km/h
1354 02-01-2012 17:00:00 7.9 C 7.06 g/m*3 7.9 C 4.8 km/h
1355 02-01-2012 17:05:00 7.8 C 7.18 g/m*3 6.4 C 8.1 km/h
1356 02-01-2012 17:10:00 7.7 C 6.97 g/m*3 6.28 C 8.1 km/h
1357 02-01-2012 17:15:00 7.7 C 7.14 g/m*3 6.71 C 6.4 km/h
1358 02-01-2012 17:20:00 7.7 C 6.89 g/m*3 5.65 C 11.3 km/h
1359 02-01-2012 17:25:00 7.8 C 7.1 g/m*3 6.06 C 9.7 km/h
1360 02-01-2012 17:30:00 7.8 C 6.94 g/m*3 6.06 C 9.7 km/h
1361 02-01-2012 17:35:00 7.8 C 7.02 g/m*3 7.8 C 4.8 km/h
1362 02-01-2012 17:40:00 7.6 C 6.93 g/m*3 5.26 C 12.9 km/h
1363 02-01-2012 17:45:00 7.6 C 6.93 g/m*3 6.16 C 8.1 km/h
1364 02-01-2012 17:50:00 7.4 C 6.84 g/m*3 5.93 C 8.1 km/h
1365 02-01-2012 17:55:00 7.4 C 6.68 g/m*3 4.78 C 14.5 km/h
1366 02-01-2012 18:00:00 7.6 C 6.69 g/m*3 5.26 C 12.9 km/h
1367 02-01-2012 18:05:00 7.5 C 6.8 g/m*3 6.05 C 8.1 km/h
1368 02-01-2012 18:10:00 7.4 C 6.68 g/m*3 5.28 C 11.3 km/h
1369 02-01-2012 18:15:00 7.4 C 6.68 g/m*3 5.28 C 11.3 km/h
1370 02-01-2012 18:20:00 7.4 C 6.68 g/m*3 4.56 C 16.1 km/h
1371 02-01-2012 18:25:00 7.3 C 6.64 g/m*3 5.16 C 11.3 km/h
1372 02-01-2012 18:30:00 7.2 C 6.59 g/m*3 5.04 C 11.3 km/h
1373 02-01-2012 18:35:00 7.1 C 6.55 g/m*3 5.58 C 8.1 km/h
1374 02-01-2012 18:40:00 7.2 C 6.59 g/m*3 4.31 C 16.1 km/h
1375 02-01-2012 18:45:00 7.1 C 6.55 g/m*3 4.65 C 12.9 km/h
Sensor: Nr:Datum:Temp:Abs-Feuchte:Windchill:Wind:
Aussen-T/F 1376 02-01-2012 18:50:00 7 C 6.59 g/m*3 4.29 C 14.5 km/h
1377 02-01-2012 18:55:00 6.9 C 6.54 g/m*3 4.99 C 9.7 km/h
1378 02-01-2012 19:00:00 6.8 C 6.5 g/m*3 4.56 C 11.3 km/h
1379 02-01-2012 19:05:00 6.7 C 6.53 g/m*3 5.11 C 8.1 km/h
1380 02-01-2012 19:10:00 6.4 C 6.48 g/m*3 6.4 C 4.8 km/h
1381 02-01-2012 19:15:00 6.3 C 6.51 g/m*3 5.1 C 6.4 km/h
1382 02-01-2012 19:20:00 6.2 C 6.4 g/m*3 4.98 C 6.4 km/h
1383 02-01-2012 19:25:00 6.4 C 6.48 g/m*3 4.75 C 8.1 km/h
1384 02-01-2012 19:30:00 6.5 C 6.45 g/m*3 4.87 C 8.1 km/h
1385 02-01-2012 19:35:00 6.8 C 6.42 g/m*3 4.56 C 11.3 km/h
1386 02-01-2012 19:40:00 6.7 C 6.46 g/m*3 5.56 C 6.4 km/h
1387 02-01-2012 19:45:00 6.7 C 6.46 g/m*3 5.56 C 6.4 km/h
1388 02-01-2012 19:50:00 6.6 C 6.42 g/m*3 4.99 C 8.1 km/h
1389 02-01-2012 19:55:00 6.6 C 6.42 g/m*3 4.32 C 11.3 km/h
1390 02-01-2012 20:00:00 6.7 C 6.53 g/m*3 5.11 C 8.1 km/h
1391 02-01-2012 20:05:00 6.5 C 6.37 g/m*3 4.87 C 8.1 km/h
1392 02-01-2012 20:10:00 6.5 C 6.45 g/m*3 4.87 C 8.1 km/h
1393 02-01-2012 20:15:00 6.4 C 6.48 g/m*3 5.21 C 6.4 km/h
1394 02-01-2012 20:20:00 6.2 C 6.47 g/m*3 6.2 C 3.2 km/h
1395 02-01-2012 20:25:00 5.9 C 6.42 g/m*3 5.9 C 3.2 km/h
1396 02-01-2012 20:30:00 5.8 C 6.45 g/m*3 4.52 C 6.4 km/h
1397 02-01-2012 20:35:00 5.7 C 6.4 g/m*3 5.7 C 4.8 km/h
1398 02-01-2012 20:40:00 5.6 C 6.36 g/m*3 3.81 C 8.1 km/h
1399 02-01-2012 20:45:00 5.5 C 6.32 g/m*3 4.17 C 6.4 km/h
1400 02-01-2012 20:50:00 5.4 C 6.28 g/m*3 5.4 C 3.2 km/h
Sensor: Nr:Datum:Temp:Abs-Feuchte:Windchill:Wind:
Aussen-T/F 1401 02-01-2012 20:55:00 5.3 C 6.31 g/m*3 3.94 C 6.4 km/h
1402 02-01-2012 21:00:00 5.2 C 6.2 g/m*3 5.2 C 3.2 km/h
1403 02-01-2012 21:05:00 5.2 C 6.27 g/m*3 5.2 C 3.2 km/h
1404 02-01-2012 21:10:00 5.2 C 6.33 g/m*3 5.2 C 3.2 km/h
1405 02-01-2012 21:15:00 5.1 C 6.29 g/m*3 5.1 C 3.2 km/h
1406 02-01-2012 21:20:00 5.1 C 6.29 g/m*3 5.1 C 1.6 km/h
1407 02-01-2012 21:25:00 5 C 6.25 g/m*3 5 C 3.2 km/h
1408 02-01-2012 21:30:00 4.9 C 6.21 g/m*3 4.9 C 3.2 km/h
1409 02-01-2012 21:35:00 4.8 C 6.17 g/m*3 4.8 C 4.8 km/h
1410 02-01-2012 21:40:00 4.7 C 6.13 g/m*3 4.7 C 3.2 km/h
1411 02-01-2012 21:45:00 4.7 C 6.13 g/m*3 3.25 C 6.4 km/h
1412 02-01-2012 21:50:00 4.7 C 6.06 g/m*3 4.7 C 4.8 km/h
1413 02-01-2012 21:55:00 4.7 C 6.06 g/m*3 4.7 C 4.8 km/h
1414 02-01-2012 22:00:00 4.9 C 6.08 g/m*3 2.27 C 11.3 km/h
1415 02-01-2012 22:05:00 5 C 6.12 g/m*3 2.72 C 9.7 km/h
1416 02-01-2012 22:10:00 5.2 C 6.13 g/m*3 2.63 C 11.3 km/h
1417 02-01-2012 22:15:00 5.2 C 6.06 g/m*3 3.82 C 6.4 km/h
1418 02-01-2012 22:20:00 5.2 C 6.06 g/m*3 2.96 C 9.7 km/h
1419 02-01-2012 22:25:00 5.1 C 5.95 g/m*3 3.71 C 6.4 km/h
1420 02-01-2012 22:30:00 5 C 5.98 g/m*3 5 C 3.2 km/h
1421 02-01-2012 22:35:00 4.7 C 5.93 g/m*3 4.7 C 3.2 km/h
1422 02-01-2012 22:40:00 4.4 C 5.88 g/m*3 2.9 C 6.4 km/h
1423 02-01-2012 22:45:00 4.5 C 5.85 g/m*3 3.02 C 6.4 km/h
1424 02-01-2012 22:50:00 4.6 C 5.82 g/m*3 2.25 C 9.7 km/h
1425 02-01-2012 22:55:00 4.7 C 5.8 g/m*3 2.03 C 11.3 km/h
Sensor: Nr:Datum:Temp:Abs-Feuchte:Windchill:Wind:
Aussen-T/F 1426 02-01-2012 23:00:00 4.9 C 5.87 g/m*3 2.61 C 9.7 km/h
1427 02-01-2012 23:05:00 5.1 C 5.81 g/m*3 2.84 C 9.7 km/h
1428 02-01-2012 23:10:00 5.1 C 5.88 g/m*3 3.71 C 6.4 km/h
1429 02-01-2012 23:15:00 4.9 C 5.81 g/m*3 2.99 C 8.1 km/h
1430 02-01-2012 23:20:00 4.9 C 5.81 g/m*3 2.27 C 11.3 km/h
1431 02-01-2012 23:25:00 5 C 5.78 g/m*3 2.72 C 9.7 km/h
1432 02-01-2012 23:30:00 5 C 5.78 g/m*3 2.09 C 12.9 km/h
1433 02-01-2012 23:35:00 5.1 C 5.81 g/m*3 2.22 C 12.9 km/h
1434 02-01-2012 23:40:00 5.1 C 5.81 g/m*3 1.49 C 17.7 km/h
1435 02-01-2012 23:45:00 5.1 C 5.81 g/m*3 1.28 C 19.3 km/h
1436 02-01-2012 23:50:00 5.1 C 5.81 g/m*3 1.49 C 17.7 km/h
1437 02-01-2012 23:55:00 5.2 C 5.78 g/m*3 1.21 C 20.9 km/h
1438 03-01-2012 00:00:00 5.2 C 5.78 g/m*3 2.07 C 14.5 km/h
1439 03-01-2012 00:05:00 5.1 C 5.75 g/m*3 1.71 C 16.1 km/h
1440 03-01-2012 00:10:00 5.1 C 5.75 g/m*3 1.95 C 14.5 km/h
1441 03-01-2012 00:15:00 5.2 C 5.71 g/m*3 2.07 C 14.5 km/h
1442 03-01-2012 00:20:00 5.2 C 5.71 g/m*3 1.83 C 16.1 km/h
1443 03-01-2012 00:25:00 5.1 C 5.68 g/m*3 2.51 C 11.3 km/h
1444 03-01-2012 00:30:00 5.1 C 5.68 g/m*3 1.95 C 14.5 km/h
1445 03-01-2012 00:35:00 5.1 C 5.68 g/m*3 1.95 C 14.5 km/h
1446 03-01-2012 00:40:00 5.1 C 5.68 g/m*3 1.71 C 16.1 km/h
1447 03-01-2012 00:45:00 5.1 C 5.68 g/m*3 2.84 C 9.7 km/h
1448 03-01-2012 00:50:00 5 C 5.71 g/m*3 2.72 C 9.7 km/h
1449 03-01-2012 00:55:00 5 C 5.71 g/m*3 2.09 C 12.9 km/h
1450 03-01-2012 01:00:00 5.1 C 5.68 g/m*3 2.51 C 11.3 km/h
Sensor: Nr:Datum:Temp:Abs-Feuchte:Windchill:Wind:
Aussen-T/F 1451 03-01-2012 01:05:00 5.1 C 5.68 g/m*3 1.28 C 19.3 km/h
1452 03-01-2012 01:10:00 5.2 C 5.71 g/m*3 2.34 C 12.9 km/h
1453 03-01-2012 01:15:00 5.2 C 5.71 g/m*3 2.63 C 11.3 km/h
1454 03-01-2012 01:20:00 5.2 C 5.71 g/m*3 2.34 C 12.9 km/h
1455 03-01-2012 01:25:00 5.3 C 5.75 g/m*3 2.46 C 12.9 km/h
1456 03-01-2012 01:30:00 5.3 C 5.68 g/m*3 1.53 C 19.3 km/h
1457 03-01-2012 01:35:00 5.3 C 5.75 g/m*3 3.46 C 8.1 km/h
1458 03-01-2012 01:40:00 5.1 C 5.68 g/m*3 2.84 C 9.7 km/h
1459 03-01-2012 01:45:00 5.1 C 5.68 g/m*3 3.23 C 8.1 km/h
1460 03-01-2012 01:50:00 5.1 C 5.68 g/m*3 3.23 C 8.1 km/h
1461 03-01-2012 01:55:00 5.1 C 5.68 g/m*3 3.23 C 8.1 km/h
1462 03-01-2012 02:00:00 5.2 C 5.65 g/m*3 2.96 C 9.7 km/h
1463 03-01-2012 02:05:00 5.3 C 5.61 g/m*3 3.08 C 9.7 km/h
1464 03-01-2012 02:10:00 5.3 C 5.61 g/m*3 2.75 C 11.3 km/h
1465 03-01-2012 02:15:00 5.3 C 5.68 g/m*3 2.75 C 11.3 km/h
1466 03-01-2012 02:20:00 5.3 C 5.61 g/m*3 3.94 C 6.4 km/h
1467 03-01-2012 02:25:00 5.2 C 5.58 g/m*3 3.82 C 6.4 km/h
1468 03-01-2012 02:30:00 5.2 C 5.65 g/m*3 2.63 C 11.3 km/h
1469 03-01-2012 02:35:00 5.1 C 5.68 g/m*3 5.1 C 4.8 km/h
1470 03-01-2012 02:40:00 5 C 5.64 g/m*3 3.11 C 8.1 km/h
1471 03-01-2012 02:45:00 5 C 5.71 g/m*3 3.11 C 8.1 km/h
1472 03-01-2012 02:50:00 4.8 C 5.63 g/m*3 2.49 C 9.7 km/h
1473 03-01-2012 02:55:00 4.7 C 5.66 g/m*3 3.25 C 6.4 km/h
1474 03-01-2012 03:00:00 4.7 C 5.66 g/m*3 4.7 C 4.8 km/h
1475 03-01-2012 03:05:00 4.7 C 5.6 g/m*3 2.76 C 8.1 km/h
Sensor: Nr:Datum:Temp:Abs-Feuchte:Windchill:Wind:
Aussen-T/F 1476 03-01-2012 03:10:00 4.8 C 5.63 g/m*3 4.8 C 4.8 km/h
1477 03-01-2012 03:15:00 4.9 C 5.74 g/m*3 4.9 C 3.2 km/h
1478 03-01-2012 03:20:00 5.1 C 5.68 g/m*3 3.23 C 8.1 km/h
1479 03-01-2012 03:25:00 5.1 C 5.68 g/m*3 5.1 C 4.8 km/h
1480 03-01-2012 03:30:00 5 C 5.64 g/m*3 3.59 C 6.4 km/h
1481 03-01-2012 03:35:00 4.9 C 5.67 g/m*3 4.9 C 4.8 km/h
1482 03-01-2012 03:40:00 4.7 C 5.6 g/m*3 2.76 C 8.1 km/h
1483 03-01-2012 03:45:00 4.6 C 5.62 g/m*3 2.64 C 8.1 km/h
1484 03-01-2012 03:50:00 4.6 C 5.62 g/m*3 4.6 C 4.8 km/h
1485 03-01-2012 03:55:00 4.5 C 5.59 g/m*3 2.52 C 8.1 km/h
1486 03-01-2012 04:00:00 4.4 C 5.55 g/m*3 2.4 C 8.1 km/h
1487 03-01-2012 04:05:00 4.4 C 5.55 g/m*3 2.9 C 6.4 km/h
1488 03-01-2012 04:10:00 4.4 C 5.62 g/m*3 4.4 C 4.8 km/h
1489 03-01-2012 04:15:00 4.3 C 5.58 g/m*3 1.55 C 11.3 km/h
1490 03-01-2012 04:20:00 4.6 C 5.62 g/m*3 2.25 C 9.7 km/h
1491 03-01-2012 04:25:00 4.8 C 5.63 g/m*3 1.85 C 12.9 km/h
1492 03-01-2012 04:30:00 5.2 C 5.71 g/m*3 1.83 C 16.1 km/h
1493 03-01-2012 04:35:00 5.3 C 5.68 g/m*3 3.46 C 8.1 km/h
1494 03-01-2012 04:40:00 5.4 C 5.72 g/m*3 3.2 C 9.7 km/h
1495 03-01-2012 04:45:00 5.3 C 5.68 g/m*3 3.46 C 8.1 km/h
1496 03-01-2012 04:50:00 5.4 C 5.65 g/m*3 3.2 C 9.7 km/h
1497 03-01-2012 04:55:00 5.5 C 5.69 g/m*3 2.7 C 12.9 km/h
1498 03-01-2012 05:00:00 5.6 C 5.73 g/m*3 2.57 C 14.5 km/h
1499 03-01-2012 05:05:00 5.6 C 5.66 g/m*3 3.44 C 9.7 km/h
1500 03-01-2012 05:10:00 5.5 C 5.62 g/m*3 3.32 C 9.7 km/h
Sensor: Nr:Datum:Temp:Abs-Feuchte:Windchill:Wind:
Aussen-T/F 1501 03-01-2012 05:15:00 5.5 C 5.69 g/m*3 3.32 C 9.7 km/h
1502 03-01-2012 05:20:00 5.4 C 5.65 g/m*3 3.58 C 8.1 km/h
1503 03-01-2012 05:25:00 5.3 C 5.61 g/m*3 5.3 C 4.8 km/h
1504 03-01-2012 05:30:00 5.3 C 5.61 g/m*3 3.46 C 8.1 km/h
1505 03-01-2012 05:35:00 5.2 C 5.65 g/m*3 3.34 C 8.1 km/h
1506 03-01-2012 05:40:00 5.1 C 5.61 g/m*3 5.1 C 4.8 km/h
1507 03-01-2012 05:45:00 5.1 C 5.61 g/m*3 2.51 C 11.3 km/h
1508 03-01-2012 05:50:00 5.2 C 5.65 g/m*3 2.96 C 9.7 km/h
1509 03-01-2012 05:55:00 5.1 C 5.61 g/m*3 2.22 C 12.9 km/h
1510 03-01-2012 06:00:00 5.2 C 5.65 g/m*3 3.34 C 8.1 km/h
1511 03-01-2012 06:05:00 5.2 C 5.65 g/m*3 2.96 C 9.7 km/h
1512 03-01-2012 06:10:00 5 C 5.57 g/m*3 5 C 4.8 km/h
1513 03-01-2012 06:15:00 5 C 5.57 g/m*3 1.83 C 14.5 km/h
1514 03-01-2012 06:20:00 5.2 C 5.58 g/m*3 2.07 C 14.5 km/h
1515 03-01-2012 06:25:00 5.1 C 5.54 g/m*3 1.71 C 16.1 km/h
1516 03-01-2012 06:30:00 5.2 C 5.58 g/m*3 2.07 C 14.5 km/h
1517 03-01-2012 06:35:00 5.1 C 5.54 g/m*3 2.84 C 9.7 km/h
1518 03-01-2012 06:40:00 5.1 C 5.54 g/m*3 2.84 C 9.7 km/h
1519 03-01-2012 06:45:00 5.2 C 5.58 g/m*3 2.07 C 14.5 km/h
1520 03-01-2012 06:50:00 5.2 C 5.58 g/m*3 2.07 C 14.5 km/h
1521 03-01-2012 06:55:00 5.3 C 5.61 g/m*3 2.46 C 12.9 km/h
1522 03-01-2012 07:00:00 5.4 C 5.65 g/m*3 2.32 C 14.5 km/h
1523 03-01-2012 07:05:00 5.4 C 5.65 g/m*3 2.58 C 12.9 km/h
1524 03-01-2012 07:10:00 5.4 C 5.65 g/m*3 2.58 C 12.9 km/h
1525 03-01-2012 07:15:00 5.3 C 5.61 g/m*3 2.75 C 11.3 km/h
Sensor: Nr:Datum:Temp:Abs-Feuchte:Windchill:Wind:
Aussen-T/F 1526 03-01-2012 07:20:00 5.3 C 5.61 g/m*3 2.75 C 11.3 km/h
1527 03-01-2012 07:25:00 5.2 C 5.65 g/m*3 2.34 C 12.9 km/h
1528 03-01-2012 07:30:00 5.3 C 5.68 g/m*3 3.46 C 8.1 km/h
1529 03-01-2012 07:35:00 5.3 C 5.68 g/m*3 3.94 C 6.4 km/h
1530 03-01-2012 07:40:00 5.2 C 5.65 g/m*3 3.82 C 6.4 km/h
1531 03-01-2012 07:45:00 5.2 C 5.65 g/m*3 3.82 C 6.4 km/h
1532 03-01-2012 07:50:00 5.3 C 5.68 g/m*3 3.46 C 8.1 km/h
1533 03-01-2012 07:55:00 5.2 C 5.65 g/m*3 3.82 C 6.4 km/h
1534 03-01-2012 08:00:00 5.2 C 5.65 g/m*3 5.2 C 4.8 km/h
1535 03-01-2012 08:05:00 5.2 C 5.65 g/m*3 3.82 C 6.4 km/h
1536 03-01-2012 08:10:00 5.2 C 5.65 g/m*3 3.82 C 6.4 km/h
1537 03-01-2012 08:15:00 5.3 C 5.61 g/m*3 3.46 C 8.1 km/h
1538 03-01-2012 08:20:00 5.4 C 5.65 g/m*3 4.06 C 6.4 km/h
1539 03-01-2012 08:25:00 5.4 C 5.65 g/m*3 5.4 C 3.2 km/h
1540 03-01-2012 08:30:00 5.4 C 5.58 g/m*3 3.58 C 8.1 km/h
1541 03-01-2012 08:35:00 5.6 C 5.66 g/m*3 2.83 C 12.9 km/h
1542 03-01-2012 08:40:00 5.7 C 5.69 g/m*3 4.4 C 6.4 km/h
1543 03-01-2012 08:45:00 5.7 C 5.69 g/m*3 5.7 C 4.8 km/h
1544 03-01-2012 08:50:00 5.7 C 5.62 g/m*3 4.4 C 6.4 km/h
1545 03-01-2012 08:55:00 5.8 C 5.66 g/m*3 2.81 C 14.5 km/h
1546 03-01-2012 09:00:00 5.9 C 5.7 g/m*3 4.17 C 8.1 km/h
1547 03-01-2012 09:05:00 5.9 C 5.7 g/m*3 5.9 C 4.8 km/h
1548 03-01-2012 09:10:00 5.9 C 5.7 g/m*3 4.63 C 6.4 km/h
1549 03-01-2012 09:15:00 6.1 C 5.77 g/m*3 4.04 C 9.7 km/h
1550 03-01-2012 09:20:00 6.1 C 5.84 g/m*3 4.86 C 6.4 km/h
Sensor: Nr:Datum:Temp:Abs-Feuchte:Windchill:Wind:
Aussen-T/F 1551 03-01-2012 09:25:00 6.1 C 5.84 g/m*3 4.86 C 6.4 km/h
1552 03-01-2012 09:30:00 6.2 C 5.88 g/m*3 3.3 C 14.5 km/h
1553 03-01-2012 09:35:00 6.2 C 5.88 g/m*3 3.56 C 12.9 km/h
1554 03-01-2012 09:40:00 6.3 C 5.92 g/m*3 4.64 C 8.1 km/h
1555 03-01-2012 09:45:00 6.4 C 5.96 g/m*3 4.08 C 11.3 km/h
1556 03-01-2012 09:50:00 6.4 C 5.89 g/m*3 4.75 C 8.1 km/h
1557 03-01-2012 09:55:00 6.5 C 5.92 g/m*3 2.86 C 20.9 km/h
1558 03-01-2012 10:00:00 6.6 C 5.96 g/m*3 2.99 C 20.9 km/h
1559 03-01-2012 10:05:00 6.7 C 6.08 g/m*3 6.7 C 4.8 km/h
1560 03-01-2012 10:10:00 6.7 C 6 g/m*3 4.44 C 11.3 km/h
1561 03-01-2012 10:15:00 6.8 C 6.04 g/m*3 4.87 C 9.7 km/h
1562 03-01-2012 10:20:00 6.9 C 6.08 g/m*3 4.99 C 9.7 km/h
1563 03-01-2012 10:25:00 7 C 6.12 g/m*3 3.33 C 22.5 km/h
1564 03-01-2012 10:30:00 7.1 C 6.08 g/m*3 5.23 C 9.7 km/h
1565 03-01-2012 10:35:00 7.1 C 6.08 g/m*3 4.65 C 12.9 km/h
1566 03-01-2012 10:40:00 7.1 C 6.16 g/m*3 4.92 C 11.3 km/h
1567 03-01-2012 10:45:00 7.2 C 6.2 g/m*3 7.2 C 3.2 km/h
1568 03-01-2012 10:50:00 7.2 C 6.12 g/m*3 5.35 C 9.7 km/h
1569 03-01-2012 10:55:00 7.2 C 6.12 g/m*3 5.35 C 9.7 km/h
1570 03-01-2012 11:00:00 7.3 C 6.08 g/m*3 6.25 C 6.4 km/h
1571 03-01-2012 11:05:00 7.3 C 6.16 g/m*3 7.3 C 4.8 km/h
1572 03-01-2012 11:10:00 7.4 C 6.12 g/m*3 5.28 C 11.3 km/h
1573 03-01-2012 11:15:00 7.4 C 6.12 g/m*3 5.58 C 9.7 km/h
1574 03-01-2012 11:20:00 7.5 C 6.16 g/m*3 4.48 C 17.7 km/h
1575 03-01-2012 11:25:00 7.6 C 6.28 g/m*3 7.6 C 4.8 km/h
Sensor: Nr:Datum:Temp:Abs-Feuchte:Windchill:Wind:
Aussen-T/F 1576 03-01-2012 11:30:00 7.7 C 6.16 g/m*3 4.55 C 19.3 km/h
1577 03-01-2012 11:35:00 7.7 C 6.24 g/m*3 6.28 C 8.1 km/h
1578 03-01-2012 11:40:00 7.9 C 6.24 g/m*3 6.18 C 9.7 km/h
1579 03-01-2012 11:45:00 8 C 6.28 g/m*3 6.64 C 8.1 km/h
1580 03-01-2012 11:50:00 8.1 C 6.32 g/m*3 6.75 C 8.1 km/h
1581 03-01-2012 11:55:00 8.2 C 6.28 g/m*3 6.25 C 11.3 km/h
1582 03-01-2012 12:00:00 8.3 C 6.32 g/m*3 5.89 C 14.5 km/h
1583 03-01-2012 12:05:00 8.4 C 6.36 g/m*3 6.49 C 11.3 km/h
1584 03-01-2012 12:10:00 8.4 C 6.28 g/m*3 6.01 C 14.5 km/h
1585 03-01-2012 12:15:00 8.6 C 6.36 g/m*3 5.52 C 20.9 km/h
1586 03-01-2012 12:20:00 8.6 C 6.36 g/m*3 6.25 C 14.5 km/h
1587 03-01-2012 12:25:00 8.7 C 6.4 g/m*3 6.6 C 12.9 km/h
1588 03-01-2012 12:30:00 8.7 C 6.4 g/m*3 7.46 C 8.1 km/h
1589 03-01-2012 12:35:00 8.8 C 6.35 g/m*3 6.3 C 16.1 km/h
1590 03-01-2012 12:40:00 8.9 C 6.48 g/m*3 6.23 C 17.7 km/h
1591 03-01-2012 12:45:00 8.9 C 6.39 g/m*3 6.23 C 17.7 km/h
1592 03-01-2012 12:50:00 9 C 6.44 g/m*3 6.19 C 19.3 km/h
1593 03-01-2012 12:55:00 9.1 C 6.48 g/m*3 6.67 C 16.1 km/h
1594 03-01-2012 13:00:00 9.2 C 6.43 g/m*3 6.79 C 16.1 km/h
1595 03-01-2012 13:05:00 9.2 C 6.43 g/m*3 6.61 C 17.7 km/h
1596 03-01-2012 13:10:00 9.1 C 6.39 g/m*3 7.09 C 12.9 km/h
1597 03-01-2012 13:15:00 9.2 C 6.43 g/m*3 6.44 C 19.3 km/h
1598 03-01-2012 13:20:00 9.2 C 6.43 g/m*3 7.21 C 12.9 km/h
1599 03-01-2012 13:25:00 9.2 C 6.52 g/m*3 6.79 C 16.1 km/h
1600 03-01-2012 13:30:00 9.2 C 6.52 g/m*3 6.61 C 17.7 km/h
Sensor: Nr:Datum:Temp:Abs-Feuchte:Windchill:Wind:
Aussen-T/F 1601 03-01-2012 13:35:00 9.3 C 6.56 g/m*3 7.33 C 12.9 km/h
1602 03-01-2012 13:40:00 9.3 C 6.56 g/m*3 5.85 C 27.4 km/h
1603 03-01-2012 13:45:00 9.4 C 6.6 g/m*3 6.69 C 19.3 km/h
1604 03-01-2012 13:50:00 9.4 C 6.69 g/m*3 7.46 C 12.9 km/h
1605 03-01-2012 13:55:00 9.5 C 6.64 g/m*3 7.58 C 12.9 km/h
1606 03-01-2012 14:00:00 9.6 C 6.69 g/m*3 6.94 C 19.3 km/h
1607 03-01-2012 14:05:00 9.7 C 6.82 g/m*3 7.07 C 19.3 km/h
1608 03-01-2012 14:10:00 9.8 C 6.87 g/m*3 7.04 C 20.9 km/h
1609 03-01-2012 14:15:00 9.8 C 6.87 g/m*3 7.36 C 17.7 km/h
1610 03-01-2012 14:20:00 9.8 C 6.87 g/m*3 7.54 C 16.1 km/h
1611 03-01-2012 14:25:00 9.8 C 6.87 g/m*3 7.73 C 14.5 km/h
1612 03-01-2012 14:30:00 9.8 C 6.87 g/m*3 7.73 C 14.5 km/h
1613 03-01-2012 14:35:00 9.8 C 6.87 g/m*3 7.36 C 17.7 km/h
1614 03-01-2012 14:40:00 9.8 C 6.96 g/m*3 7.94 C 12.9 km/h
1615 03-01-2012 14:45:00 9.7 C 6.91 g/m*3 7.07 C 19.3 km/h
1616 03-01-2012 14:50:00 9.6 C 6.96 g/m*3 6.37 C 25.7 km/h
1617 03-01-2012 14:55:00 9.6 C 7.05 g/m*3 7.94 C 11.3 km/h
1618 03-01-2012 15:00:00 9.4 C 7.05 g/m*3 7.04 C 16.1 km/h
1619 03-01-2012 15:05:00 9.3 C 7.01 g/m*3 6.73 C 17.7 km/h
1620 03-01-2012 15:10:00 9.3 C 7.1 g/m*3 8.56 C 6.4 km/h
1621 03-01-2012 15:15:00 9.2 C 7.14 g/m*3 7.46 C 11.3 km/h
1622 03-01-2012 15:20:00 9.1 C 7.1 g/m*3 7.33 C 11.3 km/h
1623 03-01-2012 15:25:00 9.1 C 7.19 g/m*3 7.33 C 11.3 km/h
1624 03-01-2012 15:30:00 9.1 C 7.28 g/m*3 6.31 C 19.3 km/h
1625 03-01-2012 15:35:00 9 C 7.23 g/m*3 7.21 C 11.3 km/h
Sensor: Nr:Datum:Temp:Abs-Feuchte:Windchill:Wind:
Aussen-T/F 1626 03-01-2012 15:40:00 8.9 C 7.36 g/m*3 6.42 C 16.1 km/h
1627 03-01-2012 15:45:00 8.8 C 7.31 g/m*3 6.72 C 12.9 km/h
1628 03-01-2012 15:50:00 8.8 C 7.4 g/m*3 7.25 C 9.7 km/h
1629 03-01-2012 15:55:00 8.7 C 7.35 g/m*3 6.85 C 11.3 km/h
1630 03-01-2012 16:00:00 8.6 C 7.39 g/m*3 7.75 C 6.4 km/h
1631 03-01-2012 16:05:00 8.6 C 7.48 g/m*3 7.34 C 8.1 km/h
1632 03-01-2012 16:10:00 8.4 C 7.38 g/m*3 5.8 C 16.1 km/h
1633 03-01-2012 16:15:00 8.4 C 7.38 g/m*3 7.52 C 6.4 km/h
1634 03-01-2012 16:20:00 8.4 C 7.47 g/m*3 7.52 C 6.4 km/h
1635 03-01-2012 16:25:00 8.4 C 7.47 g/m*3 6.49 C 11.3 km/h
1636 03-01-2012 16:30:00 8.5 C 7.51 g/m*3 7.22 C 8.1 km/h
1637 03-01-2012 16:35:00 8.5 C 7.51 g/m*3 7.64 C 6.4 km/h
1638 03-01-2012 16:40:00 8.5 C 7.6 g/m*3 6.61 C 11.3 km/h
1639 03-01-2012 16:45:00 8.5 C 7.6 g/m*3 7.22 C 8.1 km/h
1640 03-01-2012 16:50:00 8.7 C 7.7 g/m*3 6.6 C 12.9 km/h
1641 03-01-2012 16:55:00 8.8 C 7.75 g/m*3 6.3 C 16.1 km/h
1642 03-01-2012 17:00:00 8.8 C 7.75 g/m*3 7.58 C 8.1 km/h
1643 03-01-2012 17:05:00 8.8 C 7.75 g/m*3 6.72 C 12.9 km/h
1644 03-01-2012 17:10:00 8.9 C 7.8 g/m*3 7.37 C 9.7 km/h
1645 03-01-2012 17:15:00 8.9 C 7.8 g/m*3 7.09 C 11.3 km/h
1646 03-01-2012 17:20:00 8.9 C 7.8 g/m*3 7.09 C 11.3 km/h
1647 03-01-2012 17:25:00 9.1 C 7.81 g/m*3 6.67 C 16.1 km/h
1648 03-01-2012 17:30:00 9.1 C 7.81 g/m*3 7.09 C 12.9 km/h
1649 03-01-2012 17:35:00 9.2 C 7.95 g/m*3 7.21 C 12.9 km/h
1650 03-01-2012 17:40:00 9.2 C 7.95 g/m*3 7.21 C 12.9 km/h
Sensor: Nr:Datum:Temp:Abs-Feuchte:Windchill:Wind:
Aussen-T/F 1651 03-01-2012 17:45:00 9.2 C 7.95 g/m*3 6.44 C 19.3 km/h
1652 03-01-2012 17:50:00 9.3 C 7.91 g/m*3 7.33 C 12.9 km/h
1653 03-01-2012 17:55:00 9.4 C 7.96 g/m*3 7.04 C 16.1 km/h
1654 03-01-2012 18:00:00 9.4 C 7.96 g/m*3 7.46 C 12.9 km/h
1655 03-01-2012 18:05:00 9.6 C 7.97 g/m*3 6.94 C 19.3 km/h
1656 03-01-2012 18:10:00 9.7 C 8.02 g/m*3 6.91 C 20.9 km/h
1657 03-01-2012 18:15:00 9.7 C 8.02 g/m*3 7.61 C 14.5 km/h
1658 03-01-2012 18:20:00 9.8 C 7.98 g/m*3 7.36 C 17.7 km/h
1659 03-01-2012 18:25:00 9.9 C 8.03 g/m*3 7.48 C 17.7 km/h
1660 03-01-2012 18:30:00 10 C 8.08 g/m*3 7.44 C 19.3 km/h
1661 03-01-2012 18:35:00 10.1 C 8.13 g/m*3 8.1 C 14.5 km/h
1662 03-01-2012 18:40:00 10.2 C 8.18 g/m*3 7.86 C 17.7 km/h
1663 03-01-2012 18:45:00 10.2 C 8.09 g/m*3 7.86 C 17.7 km/h
1664 03-01-2012 18:50:00 10.3 C 8.14 g/m*3 7.82 C 19.3 km/h
1665 03-01-2012 18:55:00 10.3 C 8.14 g/m*3 7.98 C 17.7 km/h
1666 03-01-2012 19:00:00 10.3 C 8.14 g/m*3 7.4 C 24.1 km/h
1667 03-01-2012 19:05:00 10.4 C 8.19 g/m*3 7.66 C 22.5 km/h
1668 03-01-2012 19:10:00 10.4 C 8.1 g/m*3 7.8 C 20.9 km/h
1669 03-01-2012 19:15:00 10.4 C 8.19 g/m*3 7.66 C 22.5 km/h
1670 03-01-2012 19:20:00 10.4 C 8.19 g/m*3 7.28 C 27.4 km/h
1671 03-01-2012 19:25:00 10.4 C 8.19 g/m*3 7.95 C 19.3 km/h
1672 03-01-2012 19:30:00 10.5 C 8.15 g/m*3 7.92 C 20.9 km/h
1673 03-01-2012 19:35:00 10.5 C 8.24 g/m*3 8.07 C 19.3 km/h
1674 03-01-2012 19:40:00 10.4 C 8.19 g/m*3 7.8 C 20.9 km/h
1675 03-01-2012 19:45:00 10.4 C 8.19 g/m*3 7.8 C 20.9 km/h
Sensor: Nr:Datum:Temp:Abs-Feuchte:Windchill:Wind:
Aussen-T/F 1676 03-01-2012 19:50:00 10.6 C 8.3 g/m*3 7.22 C 32.2 km/h
1677 03-01-2012 19:55:00 10.6 C 8.3 g/m*3 7.12 C 33.8 km/h
1678 03-01-2012 20:00:00 10.7 C 8.35 g/m*3 8.32 C 19.3 km/h
1679 03-01-2012 20:05:00 10.7 C 8.25 g/m*3 8.65 C 16.1 km/h
1680 03-01-2012 20:10:00 10.8 C 8.4 g/m*3 8.3 C 20.9 km/h
1681 03-01-2012 20:15:00 10.8 C 8.4 g/m*3 7.92 C 25.7 km/h
1682 03-01-2012 20:20:00 10.8 C 8.4 g/m*3 7.92 C 25.7 km/h
1683 03-01-2012 20:25:00 10.9 C 8.45 g/m*3 7.51 C 33.8 km/h
1684 03-01-2012 20:30:00 10.9 C 8.45 g/m*3 8.9 C 16.1 km/h
1685 03-01-2012 20:35:00 10.9 C 8.45 g/m*3 8.9 C 16.1 km/h
1686 03-01-2012 20:40:00 10.9 C 8.45 g/m*3 8.73 C 17.7 km/h
1687 03-01-2012 20:45:00 10.9 C 8.55 g/m*3 9.28 C 12.9 km/h
1688 03-01-2012 20:50:00 10.9 C 8.55 g/m*3 8.73 C 17.7 km/h
1689 03-01-2012 20:55:00 10.9 C 8.55 g/m*3 9.08 C 14.5 km/h
1690 03-01-2012 21:00:00 10.9 C 8.55 g/m*3 8.9 C 16.1 km/h
1691 03-01-2012 21:05:00 10.9 C 8.65 g/m*3 8.73 C 17.7 km/h
1692 03-01-2012 21:10:00 10.8 C 8.7 g/m*3 8.61 C 17.7 km/h
1693 03-01-2012 21:15:00 10.3 C 8.04 g/m*3 7.82 C 19.3 km/h
1694 03-01-2012 21:20:00 9.7 C 8.02 g/m*3 7.82 C 12.9 km/h
1695 03-01-2012 21:25:00 9.4 C 8.05 g/m*3 7.97 C 9.7 km/h
1696 03-01-2012 21:30:00 9.3 C 8.09 g/m*3 8.56 C 6.4 km/h
1697 03-01-2012 21:35:00 9.3 C 8 g/m*3 8.16 C 8.1 km/h
1698 03-01-2012 21:40:00 9.4 C 7.6 g/m*3 7.97 C 9.7 km/h
1699 03-01-2012 21:45:00 9.4 C 7.42 g/m*3 8.28 C 8.1 km/h
1700 03-01-2012 21:50:00 9.3 C 7.46 g/m*3 7.85 C 9.7 km/h
Sensor: Nr:Datum:Temp:Abs-Feuchte:Windchill:Wind:
Aussen-T/F 1701 03-01-2012 21:55:00 9 C 7.49 g/m*3 8.21 C 6.4 km/h
1702 03-01-2012 22:00:00 8.7 C 7.18 g/m*3 7.13 C 9.7 km/h
1703 03-01-2012 22:05:00 8.4 C 7.3 g/m*3 7.52 C 6.4 km/h
1704 03-01-2012 22:10:00 8 C 7.11 g/m*3 6.64 C 8.1 km/h
1705 03-01-2012 22:15:00 8 C 6.94 g/m*3 5.75 C 12.9 km/h
1706 03-01-2012 22:20:00 8.2 C 6.87 g/m*3 5.55 C 16.1 km/h
1707 03-01-2012 22:25:00 8.2 C 6.95 g/m*3 6.25 C 11.3 km/h
1708 03-01-2012 22:30:00 8.1 C 6.74 g/m*3 5.87 C 12.9 km/h
1709 03-01-2012 22:35:00 8.2 C 6.87 g/m*3 5.99 C 12.9 km/h
1710 03-01-2012 22:40:00 8.2 C 6.78 g/m*3 5.99 C 12.9 km/h
1711 03-01-2012 22:45:00 8.1 C 6.74 g/m*3 6.42 C 9.7 km/h
1712 03-01-2012 22:50:00 8.1 C 6.82 g/m*3 6.75 C 8.1 km/h
1713 03-01-2012 22:55:00 8 C 6.78 g/m*3 5.52 C 14.5 km/h
1714 03-01-2012 23:00:00 8 C 6.78 g/m*3 6.3 C 9.7 km/h
1715 03-01-2012 23:05:00 7.7 C 6.89 g/m*3 7.7 C 4.8 km/h
1716 03-01-2012 23:10:00 7.5 C 6.72 g/m*3 5.7 C 9.7 km/h
1717 03-01-2012 23:15:00 7.6 C 6.61 g/m*3 5.26 C 12.9 km/h
1718 03-01-2012 23:20:00 7.9 C 6.57 g/m*3 5.39 C 14.5 km/h
1719 03-01-2012 23:25:00 7.9 C 6.65 g/m*3 5.89 C 11.3 km/h
1720 03-01-2012 23:30:00 8 C 6.78 g/m*3 6.64 C 8.1 km/h
1721 03-01-2012 23:35:00 7.9 C 6.65 g/m*3 5.63 C 12.9 km/h
1722 03-01-2012 23:40:00 7.8 C 6.69 g/m*3 6.4 C 8.1 km/h
1723 03-01-2012 23:45:00 7.6 C 6.69 g/m*3 5.82 C 9.7 km/h
1724 03-01-2012 23:50:00 7.3 C 6.72 g/m*3 7.3 C 4.8 km/h
1725 03-01-2012 23:55:00 7.2 C 6.75 g/m*3 7.2 C 4.8 km/h
Sensor: Nr:Datum:Temp:Abs-Feuchte:Windchill:Wind:
Aussen-T/F 1726 04-01-2012 00:00:00 7.1 C 6.71 g/m*3 4.65 C 12.9 km/h
1727 04-01-2012 00:05:00 6.9 C 6.7 g/m*3 6.9 C 4.8 km/h
1728 04-01-2012 00:10:00 6.9 C 6.62 g/m*3 4.99 C 9.7 km/h
1729 04-01-2012 00:15:00 7 C 6.74 g/m*3 7 C 3.2 km/h
1730 04-01-2012 00:20:00 6.9 C 6.7 g/m*3 5.34 C 8.1 km/h
1731 04-01-2012 00:25:00 7.2 C 6.67 g/m*3 6.13 C 6.4 km/h
1732 04-01-2012 00:30:00 7.4 C 6.68 g/m*3 5.93 C 8.1 km/h
1733 04-01-2012 00:35:00 7.5 C 6.72 g/m*3 6.05 C 8.1 km/h
1734 04-01-2012 00:40:00 7.5 C 6.72 g/m*3 5.41 C 11.3 km/h
1735 04-01-2012 00:45:00 7.7 C 6.73 g/m*3 5.38 C 12.9 km/h
1736 04-01-2012 00:50:00 7.7 C 6.73 g/m*3 5.94 C 9.7 km/h
1737 04-01-2012 00:55:00 7.7 C 6.73 g/m*3 6.28 C 8.1 km/h
1738 04-01-2012 01:00:00 7.6 C 6.69 g/m*3 5.82 C 9.7 km/h
1739 04-01-2012 01:05:00 7.6 C 6.85 g/m*3 7.6 C 4.8 km/h
1740 04-01-2012 01:10:00 7.4 C 6.84 g/m*3 6.37 C 6.4 km/h
1741 04-01-2012 01:15:00 7.3 C 6.72 g/m*3 7.3 C 4.8 km/h
1742 04-01-2012 01:20:00 7.2 C 6.83 g/m*3 6.13 C 6.4 km/h
1743 04-01-2012 01:25:00 7.1 C 6.63 g/m*3 4.41 C 14.5 km/h
1744 04-01-2012 01:30:00 7.3 C 6.64 g/m*3 5.81 C 8.1 km/h
1745 04-01-2012 01:35:00 7.2 C 6.67 g/m*3 5.69 C 8.1 km/h
1746 04-01-2012 01:40:00 7.3 C 6.64 g/m*3 5.47 C 9.7 km/h
1747 04-01-2012 01:45:00 7.3 C 6.64 g/m*3 6.25 C 6.4 km/h
1748 04-01-2012 01:50:00 7.5 C 6.64 g/m*3 5.7 C 9.7 km/h
1749 04-01-2012 01:55:00 7.4 C 6.6 g/m*3 5.93 C 8.1 km/h
1750 04-01-2012 02:00:00 7.6 C 6.53 g/m*3 5.02 C 14.5 km/h
Sensor: Nr:Datum:Temp:Abs-Feuchte:Windchill:Wind:
Aussen-T/F 1751 04-01-2012 02:05:00 7.7 C 6.57 g/m*3 5.38 C 12.9 km/h
1752 04-01-2012 02:10:00 7.8 C 6.61 g/m*3 6.06 C 9.7 km/h
1753 04-01-2012 02:15:00 7.8 C 6.53 g/m*3 5.06 C 16.1 km/h
1754 04-01-2012 02:20:00 7.8 C 6.69 g/m*3 7.8 C 4.8 km/h
1755 04-01-2012 02:25:00 7.7 C 6.57 g/m*3 5.94 C 9.7 km/h
1756 04-01-2012 02:30:00 7.6 C 6.53 g/m*3 5.53 C 11.3 km/h
1757 04-01-2012 02:35:00 7.4 C 6.6 g/m*3 5.93 C 8.1 km/h
1758 04-01-2012 02:40:00 7.2 C 6.59 g/m*3 5.69 C 8.1 km/h
1759 04-01-2012 02:45:00 7.2 C 6.59 g/m*3 5.35 C 9.7 km/h
1760 04-01-2012 02:50:00 7.1 C 6.55 g/m*3 6.02 C 6.4 km/h
1761 04-01-2012 02:55:00 7.1 C 6.55 g/m*3 5.58 C 8.1 km/h
1762 04-01-2012 03:00:00 7.2 C 6.52 g/m*3 5.04 C 11.3 km/h
1763 04-01-2012 03:05:00 7.4 C 6.44 g/m*3 5.58 C 9.7 km/h
1764 04-01-2012 03:10:00 7.4 C 6.28 g/m*3 4.36 C 17.7 km/h
1765 04-01-2012 03:15:00 7.5 C 6.24 g/m*3 4.9 C 14.5 km/h
1766 04-01-2012 03:20:00 7.5 C 6.32 g/m*3 4.9 C 14.5 km/h
1767 04-01-2012 03:25:00 7.4 C 6.2 g/m*3 5.58 C 9.7 km/h
1768 04-01-2012 03:30:00 7.4 C 6.28 g/m*3 6.37 C 6.4 km/h
1769 04-01-2012 03:35:00 7.3 C 6.24 g/m*3 5.81 C 8.1 km/h
1770 04-01-2012 03:40:00 7.2 C 6.28 g/m*3 6.13 C 6.4 km/h
1771 04-01-2012 03:45:00 7.2 C 6.28 g/m*3 6.13 C 6.4 km/h
1772 04-01-2012 03:50:00 7 C 6.35 g/m*3 7 C 4.8 km/h
1773 04-01-2012 03:55:00 6.8 C 6.19 g/m*3 5.67 C 6.4 km/h
1774 04-01-2012 04:00:00 6.6 C 6.27 g/m*3 6.6 C 4.8 km/h
1775 04-01-2012 04:05:00 6.5 C 6.15 g/m*3 6.5 C 3.2 km/h
Sensor: Nr:Datum:Temp:Abs-Feuchte:Windchill:Wind:
Aussen-T/F 1776 04-01-2012 04:10:00 6.3 C 6.22 g/m*3 6.3 C 3.2 km/h
1777 04-01-2012 04:15:00 6.2 C 6.18 g/m*3 6.2 C 3.2 km/h
1778 04-01-2012 04:20:00 6.3 C 6 g/m*3 5.1 C 6.4 km/h
1779 04-01-2012 04:25:00 6.5 C 6 g/m*3 4.51 C 9.7 km/h
1780 04-01-2012 04:30:00 6.6 C 5.96 g/m*3 4.32 C 11.3 km/h
1781 04-01-2012 04:35:00 6.6 C 5.96 g/m*3 4.04 C 12.9 km/h
1782 04-01-2012 04:40:00 6.6 C 5.96 g/m*3 3.79 C 14.5 km/h
1783 04-01-2012 04:45:00 6.7 C 5.93 g/m*3 4.44 C 11.3 km/h
1784 04-01-2012 04:50:00 6.7 C 5.93 g/m*3 4.44 C 11.3 km/h
1785 04-01-2012 04:55:00 6.6 C 5.89 g/m*3 4.32 C 11.3 km/h
1786 04-01-2012 05:00:00 6.5 C 5.77 g/m*3 4.2 C 11.3 km/h
1787 04-01-2012 05:05:00 6.4 C 5.81 g/m*3 4.08 C 11.3 km/h
1788 04-01-2012 05:10:00 6.4 C 5.81 g/m*3 3.55 C 14.5 km/h
1789 04-01-2012 05:15:00 6.3 C 5.77 g/m*3 3.96 C 11.3 km/h
1790 04-01-2012 05:20:00 6.2 C 5.74 g/m*3 4.52 C 8.1 km/h
1791 04-01-2012 05:25:00 6.2 C 5.81 g/m*3 4.52 C 8.1 km/h
1792 04-01-2012 05:30:00 6.1 C 5.77 g/m*3 4.4 C 8.1 km/h
1793 04-01-2012 05:35:00 5.9 C 5.84 g/m*3 4.17 C 8.1 km/h
1794 04-01-2012 05:40:00 5.7 C 5.76 g/m*3 3.56 C 9.7 km/h
1795 04-01-2012 05:45:00 5.7 C 5.76 g/m*3 3.93 C 8.1 km/h
1796 04-01-2012 05:50:00 5.7 C 5.69 g/m*3 4.4 C 6.4 km/h
1797 04-01-2012 05:55:00 5.6 C 5.66 g/m*3 4.29 C 6.4 km/h
1798 04-01-2012 06:00:00 5.4 C 5.65 g/m*3 4.06 C 6.4 km/h
1799 04-01-2012 06:05:00 5.3 C 5.61 g/m*3 3.46 C 8.1 km/h
1800 04-01-2012 06:10:00 5.3 C 5.48 g/m*3 3.94 C 6.4 km/h
Sensor: Nr:Datum:Temp:Abs-Feuchte:Windchill:Wind:
Aussen-T/F 1801 04-01-2012 06:15:00 5.3 C 5.48 g/m*3 3.46 C 8.1 km/h
1802 04-01-2012 06:20:00 5.3 C 5.48 g/m*3 3.46 C 8.1 km/h
1803 04-01-2012 06:25:00 5.3 C 5.48 g/m*3 3.46 C 8.1 km/h
1804 04-01-2012 06:30:00 5.3 C 5.48 g/m*3 3.46 C 8.1 km/h
1805 04-01-2012 06:35:00 5.3 C 5.48 g/m*3 3.08 C 9.7 km/h
1806 04-01-2012 06:40:00 5.2 C 5.51 g/m*3 5.2 C 4.8 km/h
1807 04-01-2012 06:45:00 5.1 C 5.54 g/m*3 3.23 C 8.1 km/h
1808 04-01-2012 06:50:00 5.2 C 5.58 g/m*3 0.4 C 29 km/h
1809 04-01-2012 06:55:00 5.4 C 5.65 g/m*3 2.58 C 12.9 km/h
1810 04-01-2012 07:00:00 5.4 C 5.65 g/m*3 1.47 C 20.9 km/h
1811 04-01-2012 07:05:00 5.4 C 5.65 g/m*3 2.87 C 11.3 km/h
1812 04-01-2012 07:10:00 5.4 C 5.65 g/m*3 2.32 C 14.5 km/h
1813 04-01-2012 07:15:00 5.4 C 5.65 g/m*3 1.66 C 19.3 km/h
1814 04-01-2012 07:20:00 5.4 C 5.58 g/m*3 2.08 C 16.1 km/h
1815 04-01-2012 07:25:00 5.7 C 5.62 g/m*3 1.67 C 22.5 km/h
1816 04-01-2012 07:30:00 5.9 C 5.55 g/m*3 2.29 C 19.3 km/h
1817 04-01-2012 07:35:00 5.9 C 5.55 g/m*3 3.48 C 11.3 km/h
1818 04-01-2012 07:40:00 5.9 C 5.48 g/m*3 2.48 C 17.7 km/h
1819 04-01-2012 07:45:00 5.9 C 5.55 g/m*3 2.7 C 16.1 km/h
1820 04-01-2012 07:50:00 5.9 C 5.55 g/m*3 3.48 C 11.3 km/h
1821 04-01-2012 07:55:00 5.8 C 5.52 g/m*3 3.36 C 11.3 km/h
1822 04-01-2012 08:00:00 5.8 C 5.44 g/m*3 2.58 C 16.1 km/h
1823 04-01-2012 08:05:00 5.9 C 5.48 g/m*3 2.48 C 17.7 km/h
1824 04-01-2012 08:10:00 6 C 5.52 g/m*3 3.92 C 9.7 km/h
1825 04-01-2012 08:15:00 5.9 C 5.48 g/m*3 3.8 C 9.7 km/h
Sensor: Nr:Datum:Temp:Abs-Feuchte:Windchill:Wind:
Aussen-T/F 1826 04-01-2012 08:20:00 5.9 C 5.48 g/m*3 3.19 C 12.9 km/h
1827 04-01-2012 08:25:00 5.9 C 5.48 g/m*3 4.17 C 8.1 km/h
1828 04-01-2012 08:30:00 5.9 C 5.48 g/m*3 2.93 C 14.5 km/h
1829 04-01-2012 08:35:00 6 C 5.44 g/m*3 3.31 C 12.9 km/h
1830 04-01-2012 08:40:00 6 C 5.44 g/m*3 3.92 C 9.7 km/h
1831 04-01-2012 08:45:00 5.9 C 5.48 g/m*3 3.19 C 12.9 km/h
1832 04-01-2012 08:50:00 6 C 5.52 g/m*3 2.61 C 17.7 km/h
1833 04-01-2012 08:55:00 6 C 5.52 g/m*3 4.28 C 8.1 km/h
1834 04-01-2012 09:00:00 6.1 C 5.48 g/m*3 4.86 C 6.4 km/h
1835 04-01-2012 09:05:00 6 C 5.52 g/m*3 4.75 C 6.4 km/h
1836 04-01-2012 09:10:00 5.9 C 5.48 g/m*3 4.63 C 6.4 km/h
1837 04-01-2012 09:15:00 6 C 5.52 g/m*3 3.6 C 11.3 km/h
1838 04-01-2012 09:20:00 6 C 5.37 g/m*3 3.31 C 12.9 km/h
1839 04-01-2012 09:25:00 6.1 C 5.41 g/m*3 4.04 C 9.7 km/h
1840 04-01-2012 09:30:00 6.2 C 5.44 g/m*3 3.3 C 14.5 km/h
1841 04-01-2012 09:35:00 6.2 C 5.44 g/m*3 3.07 C 16.1 km/h
1842 04-01-2012 09:40:00 6.2 C 5.52 g/m*3 3.56 C 12.9 km/h
1843 04-01-2012 09:45:00 6.2 C 5.44 g/m*3 3.56 C 12.9 km/h
1844 04-01-2012 09:50:00 6.2 C 5.44 g/m*3 3.56 C 12.9 km/h
1845 04-01-2012 09:55:00 6.2 C 5.52 g/m*3 3.84 C 11.3 km/h
1846 04-01-2012 10:00:00 6.2 C 5.52 g/m*3 3.3 C 14.5 km/h
1847 04-01-2012 10:05:00 6.2 C 5.59 g/m*3 4.52 C 8.1 km/h
1848 04-01-2012 10:10:00 6.2 C 5.59 g/m*3 4.15 C 9.7 km/h
1849 04-01-2012 10:15:00 6.2 C 5.52 g/m*3 3.07 C 16.1 km/h
1850 04-01-2012 10:20:00 6.2 C 5.52 g/m*3 4.15 C 9.7 km/h
Sensor: Nr:Datum:Temp:Abs-Feuchte:Windchill:Wind:
Aussen-T/F 1851 04-01-2012 10:25:00 6.4 C 5.44 g/m*3 4.08 C 11.3 km/h
1852 04-01-2012 10:30:00 6.6 C 5.44 g/m*3 3.79 C 14.5 km/h
1853 04-01-2012 10:35:00 6.7 C 5.39 g/m*3 3.48 C 17.7 km/h
1854 04-01-2012 10:40:00 6.7 C 5.39 g/m*3 4.44 C 11.3 km/h
1855 04-01-2012 10:45:00 6.7 C 5.39 g/m*3 3.92 C 14.5 km/h
1856 04-01-2012 10:50:00 6.7 C 5.39 g/m*3 3.92 C 14.5 km/h
1857 04-01-2012 10:55:00 6.8 C 5.28 g/m*3 3.82 C 16.1 km/h
1858 04-01-2012 11:00:00 6.8 C 5.35 g/m*3 4.29 C 12.9 km/h
1859 04-01-2012 11:05:00 6.8 C 5.28 g/m*3 4.04 C 14.5 km/h
1860 04-01-2012 11:10:00 6.9 C 5.39 g/m*3 3.54 C 19.3 km/h
1861 04-01-2012 11:15:00 6.9 C 5.31 g/m*3 4.16 C 14.5 km/h
1862 04-01-2012 11:20:00 7 C 5.35 g/m*3 3.86 C 17.7 km/h
1863 04-01-2012 11:25:00 7 C 5.27 g/m*3 4.06 C 16.1 km/h
1864 04-01-2012 11:30:00 7.1 C 5.3 g/m*3 4.41 C 14.5 km/h
1865 04-01-2012 11:35:00 7.1 C 5.3 g/m*3 3.98 C 17.7 km/h
1866 04-01-2012 11:40:00 7.1 C 5.3 g/m*3 4.65 C 12.9 km/h
1867 04-01-2012 11:45:00 7.1 C 5.3 g/m*3 4.65 C 12.9 km/h
1868 04-01-2012 11:50:00 7.1 C 5.3 g/m*3 4.65 C 12.9 km/h
1869 04-01-2012 11:55:00 7.1 C 5.3 g/m*3 4.19 C 16.1 km/h
1870 04-01-2012 12:00:00 7.1 C 5.23 g/m*3 4.92 C 11.3 km/h
1871 04-01-2012 12:05:00 7.2 C 5.26 g/m*3 5.35 C 9.7 km/h
1872 04-01-2012 12:10:00 7.2 C 5.34 g/m*3 5.69 C 8.1 km/h
1873 04-01-2012 12:15:00 7.2 C 5.34 g/m*3 5.04 C 11.3 km/h
1874 04-01-2012 12:20:00 7.1 C 5.46 g/m*3 5.23 C 9.7 km/h
1875 04-01-2012 12:25:00 7.1 C 5.38 g/m*3 3.8 C 19.3 km/h
Sensor: Nr:Datum:Temp:Abs-Feuchte:Windchill:Wind:
Aussen-T/F 1876 04-01-2012 12:30:00 7.1 C 5.38 g/m*3 4.65 C 12.9 km/h
1877 04-01-2012 12:35:00 7.1 C 5.38 g/m*3 4.92 C 11.3 km/h
1878 04-01-2012 12:40:00 7.1 C 5.3 g/m*3 4.41 C 14.5 km/h
1879 04-01-2012 12:45:00 7.1 C 5.23 g/m*3 4.92 C 11.3 km/h
1880 04-01-2012 12:50:00 7.2 C 5.26 g/m*3 4.53 C 14.5 km/h
1881 04-01-2012 12:55:00 7.1 C 5.23 g/m*3 5.23 C 9.7 km/h
1882 04-01-2012 13:00:00 7.2 C 5.26 g/m*3 4.31 C 16.1 km/h
1883 04-01-2012 13:05:00 7.1 C 5.23 g/m*3 4.41 C 14.5 km/h
1884 04-01-2012 13:10:00 7.1 C 5.15 g/m*3 4.41 C 14.5 km/h
1885 04-01-2012 13:15:00 7.1 C 5.23 g/m*3 4.92 C 11.3 km/h
1886 04-01-2012 13:20:00 7.1 C 5.23 g/m*3 4.41 C 14.5 km/h
1887 04-01-2012 13:25:00 7.1 C 5.3 g/m*3 4.92 C 11.3 km/h
1888 04-01-2012 13:30:00 7 C 5.27 g/m*3 4.06 C 16.1 km/h
1889 04-01-2012 13:35:00 7 C 5.27 g/m*3 4.8 C 11.3 km/h
1890 04-01-2012 13:40:00 6.9 C 5.31 g/m*3 4.16 C 14.5 km/h
1891 04-01-2012 13:45:00 6.9 C 5.31 g/m*3 4.99 C 9.7 km/h
1892 04-01-2012 13:50:00 6.9 C 5.31 g/m*3 4.68 C 11.3 km/h
1893 04-01-2012 13:55:00 6.9 C 5.31 g/m*3 3.73 C 17.7 km/h
1894 04-01-2012 14:00:00 6.9 C 5.31 g/m*3 3.94 C 16.1 km/h
1895 04-01-2012 14:05:00 6.9 C 5.39 g/m*3 4.68 C 11.3 km/h
1896 04-01-2012 14:10:00 6.8 C 5.35 g/m*3 4.87 C 9.7 km/h
1897 04-01-2012 14:15:00 6.8 C 5.35 g/m*3 4.56 C 11.3 km/h
1898 04-01-2012 14:20:00 6.8 C 5.43 g/m*3 3.82 C 16.1 km/h
1899 04-01-2012 14:25:00 6.8 C 5.35 g/m*3 4.29 C 12.9 km/h
1900 04-01-2012 14:30:00 6.8 C 5.43 g/m*3 4.29 C 12.9 km/h
Sensor: Nr:Datum:Temp:Abs-Feuchte:Windchill:Wind:
Aussen-T/F 1901 04-01-2012 14:35:00 6.7 C 5.32 g/m*3 4.75 C 9.7 km/h
1902 04-01-2012 14:40:00 6.7 C 5.39 g/m*3 4.17 C 12.9 km/h
1903 04-01-2012 14:45:00 6.7 C 5.39 g/m*3 4.17 C 12.9 km/h
1904 04-01-2012 14:50:00 6.7 C 5.39 g/m*3 4.75 C 9.7 km/h
1905 04-01-2012 14:55:00 6.7 C 5.32 g/m*3 4.75 C 9.7 km/h
1906 04-01-2012 15:00:00 6.7 C 5.32 g/m*3 4.44 C 11.3 km/h
1907 04-01-2012 15:05:00 6.7 C 5.32 g/m*3 4.75 C 9.7 km/h
1908 04-01-2012 15:10:00 6.7 C 5.24 g/m*3 4.44 C 11.3 km/h
1909 04-01-2012 15:15:00 6.8 C 5.35 g/m*3 4.87 C 9.7 km/h
1910 04-01-2012 15:20:00 6.8 C 5.28 g/m*3 4.87 C 9.7 km/h
1911 04-01-2012 15:25:00 6.7 C 5.24 g/m*3 4.44 C 11.3 km/h
1912 04-01-2012 15:30:00 6.7 C 5.24 g/m*3 4.17 C 12.9 km/h
1913 04-01-2012 15:35:00 6.7 C 5.24 g/m*3 4.75 C 9.7 km/h
1914 04-01-2012 15:40:00 6.7 C 5.24 g/m*3 4.75 C 9.7 km/h
1915 04-01-2012 15:45:00 6.7 C 5.17 g/m*3 5.11 C 8.1 km/h
1916 04-01-2012 15:50:00 6.7 C 5.24 g/m*3 4.44 C 11.3 km/h
1917 04-01-2012 15:55:00 6.7 C 5.24 g/m*3 3.92 C 14.5 km/h
1918 04-01-2012 16:00:00 6.6 C 5.21 g/m*3 4.99 C 8.1 km/h
1919 04-01-2012 16:05:00 6.6 C 5.21 g/m*3 4.04 C 12.9 km/h
1920 04-01-2012 16:10:00 6.6 C 5.28 g/m*3 4.04 C 12.9 km/h
1921 04-01-2012 16:15:00 6.4 C 5.22 g/m*3 4.08 C 11.3 km/h
1922 04-01-2012 16:20:00 6.4 C 5.22 g/m*3 4.75 C 8.1 km/h
1923 04-01-2012 16:25:00 6.3 C 5.26 g/m*3 3.96 C 11.3 km/h
1924 04-01-2012 16:30:00 6.3 C 5.26 g/m*3 4.27 C 9.7 km/h
1925 04-01-2012 16:35:00 6.2 C 5.22 g/m*3 3.84 C 11.3 km/h
Sensor: Nr:Datum:Temp:Abs-Feuchte:Windchill:Wind:
Aussen-T/F 1926 04-01-2012 16:40:00 6.2 C 5.22 g/m*3 3.3 C 14.5 km/h
1927 04-01-2012 16:45:00 6.2 C 5.29 g/m*3 3.84 C 11.3 km/h
1928 04-01-2012 16:50:00 6.1 C 5.26 g/m*3 3.72 C 11.3 km/h
1929 04-01-2012 16:55:00 6.1 C 5.19 g/m*3 4.04 C 9.7 km/h
1930 04-01-2012 17:00:00 6.1 C 5.26 g/m*3 4.86 C 6.4 km/h
1931 04-01-2012 17:05:00 6.1 C 5.26 g/m*3 3.72 C 11.3 km/h
1932 04-01-2012 17:10:00 6.2 C 5.29 g/m*3 4.15 C 9.7 km/h
1933 04-01-2012 17:15:00 6.1 C 5.26 g/m*3 4.04 C 9.7 km/h
1934 04-01-2012 17:20:00 6.2 C 5.22 g/m*3 4.15 C 9.7 km/h
1935 04-01-2012 17:25:00 6.3 C 5.26 g/m*3 3.68 C 12.9 km/h
1936 04-01-2012 17:30:00 6.3 C 5.26 g/m*3 3.68 C 12.9 km/h
1937 04-01-2012 17:35:00 6.3 C 5.26 g/m*3 3.68 C 12.9 km/h
1938 04-01-2012 17:40:00 6.3 C 5.26 g/m*3 2.98 C 17.7 km/h
1939 04-01-2012 17:45:00 6.3 C 5.33 g/m*3 3.68 C 12.9 km/h
1940 04-01-2012 17:50:00 6.3 C 5.33 g/m*3 3.2 C 16.1 km/h
1941 04-01-2012 17:55:00 6.4 C 5.36 g/m*3 2.91 C 19.3 km/h
1942 04-01-2012 18:00:00 6.4 C 5.36 g/m*3 3.55 C 14.5 km/h
1943 04-01-2012 18:05:00 6.3 C 5.33 g/m*3 3.68 C 12.9 km/h
1944 04-01-2012 18:10:00 6.3 C 5.4 g/m*3 3.43 C 14.5 km/h
1945 04-01-2012 18:15:00 6.3 C 5.4 g/m*3 3.68 C 12.9 km/h
1946 04-01-2012 18:20:00 6.2 C 5.37 g/m*3 4.15 C 9.7 km/h
1947 04-01-2012 18:25:00 6.2 C 5.44 g/m*3 3.84 C 11.3 km/h
1948 04-01-2012 18:30:00 6.2 C 5.44 g/m*3 4.15 C 9.7 km/h
1949 04-01-2012 18:35:00 6.2 C 5.44 g/m*3 3.07 C 16.1 km/h
1950 04-01-2012 18:40:00 6.2 C 5.52 g/m*3 3.56 C 12.9 km/h
Sensor: Nr:Datum:Temp:Abs-Feuchte:Windchill:Wind:
Aussen-T/F 1951 04-01-2012 18:45:00 6.2 C 5.52 g/m*3 3.56 C 12.9 km/h
1952 04-01-2012 18:50:00 6.3 C 5.55 g/m*3 2.98 C 17.7 km/h
1953 04-01-2012 18:55:00 6.4 C 5.59 g/m*3 2.1 C 27.4 km/h
1954 04-01-2012 19:00:00 6.5 C 5.62 g/m*3 3.92 C 12.9 km/h
1955 04-01-2012 19:05:00 6.5 C 5.62 g/m*3 4.2 C 11.3 km/h
1956 04-01-2012 19:10:00 6.6 C 5.59 g/m*3 3.79 C 14.5 km/h
1957 04-01-2012 19:15:00 6.6 C 5.59 g/m*3 2.99 C 20.9 km/h
1958 04-01-2012 19:20:00 6.7 C 5.62 g/m*3 3.29 C 19.3 km/h
1959 04-01-2012 19:25:00 6.7 C 5.62 g/m*3 3.92 C 14.5 km/h
1960 04-01-2012 19:30:00 6.7 C 5.7 g/m*3 3.69 C 16.1 km/h
1961 04-01-2012 19:35:00 6.7 C 5.7 g/m*3 3.48 C 17.7 km/h
1962 04-01-2012 19:40:00 6.8 C 5.74 g/m*3 3.61 C 17.7 km/h
1963 04-01-2012 19:45:00 6.8 C 5.74 g/m*3 4.29 C 12.9 km/h
1964 04-01-2012 19:50:00 6.7 C 5.77 g/m*3 3.48 C 17.7 km/h
1965 04-01-2012 19:55:00 6.7 C 5.77 g/m*3 4.17 C 12.9 km/h
1966 04-01-2012 20:00:00 6.7 C 5.85 g/m*3 3.29 C 19.3 km/h
1967 04-01-2012 20:05:00 6.6 C 5.89 g/m*3 3.79 C 14.5 km/h
1968 04-01-2012 20:10:00 6.6 C 5.96 g/m*3 3.57 C 16.1 km/h
1969 04-01-2012 20:15:00 6.5 C 6 g/m*3 3.44 C 16.1 km/h
1970 04-01-2012 20:20:00 6.4 C 5.96 g/m*3 3.8 C 12.9 km/h
1971 04-01-2012 20:25:00 6.3 C 6 g/m*3 3.2 C 16.1 km/h
1972 04-01-2012 20:30:00 6.3 C 5.92 g/m*3 3.68 C 12.9 km/h
1973 04-01-2012 20:35:00 6.3 C 5.92 g/m*3 2.98 C 17.7 km/h
1974 04-01-2012 20:40:00 6.4 C 5.89 g/m*3 3.11 C 17.7 km/h
1975 04-01-2012 20:45:00 6.4 C 5.89 g/m*3 3.55 C 14.5 km/h
Sensor: Nr:Datum:Temp:Abs-Feuchte:Windchill:Wind:
Aussen-T/F 1976 04-01-2012 20:50:00 6.4 C 5.89 g/m*3 3.8 C 12.9 km/h
1977 04-01-2012 20:55:00 6.4 C 5.89 g/m*3 3.32 C 16.1 km/h
1978 04-01-2012 21:00:00 6.4 C 5.81 g/m*3 3.32 C 16.1 km/h
1979 04-01-2012 21:05:00 6.5 C 5.85 g/m*3 2.69 C 22.5 km/h
1980 04-01-2012 21:10:00 6.5 C 5.85 g/m*3 2.86 C 20.9 km/h
1981 04-01-2012 21:15:00 6.5 C 5.92 g/m*3 2.38 C 25.7 km/h
1982 04-01-2012 21:20:00 6.5 C 5.92 g/m*3 2.69 C 22.5 km/h
1983 04-01-2012 21:25:00 6.5 C 5.92 g/m*3 2.53 C 24.1 km/h
1984 04-01-2012 21:30:00 6.5 C 5.92 g/m*3 2.69 C 22.5 km/h
1985 04-01-2012 21:35:00 6.5 C 6 g/m*3 3.44 C 16.1 km/h
1986 04-01-2012 21:40:00 6.6 C 6.04 g/m*3 3.36 C 17.7 km/h
1987 04-01-2012 21:45:00 6.6 C 6.11 g/m*3 3.57 C 16.1 km/h
1988 04-01-2012 21:50:00 6.6 C 6.11 g/m*3 3.36 C 17.7 km/h
1989 04-01-2012 21:55:00 6.6 C 6.19 g/m*3 3.57 C 16.1 km/h
1990 04-01-2012 22:00:00 6.6 C 6.27 g/m*3 3.17 C 19.3 km/h
1991 04-01-2012 22:05:00 6.4 C 6.26 g/m*3 3.32 C 16.1 km/h
1992 04-01-2012 22:10:00 6.4 C 6.26 g/m*3 3.55 C 14.5 km/h
1993 04-01-2012 22:15:00 6.4 C 6.26 g/m*3 3.55 C 14.5 km/h
1994 04-01-2012 22:20:00 6.4 C 6.26 g/m*3 3.55 C 14.5 km/h
1995 04-01-2012 22:25:00 6.4 C 6.33 g/m*3 4.08 C 11.3 km/h
1996 04-01-2012 22:30:00 6.4 C 6.33 g/m*3 3.55 C 14.5 km/h
1997 04-01-2012 22:35:00 6.4 C 6.33 g/m*3 3.8 C 12.9 km/h
1998 04-01-2012 22:40:00 6.5 C 6.37 g/m*3 3.23 C 17.7 km/h
1999 04-01-2012 22:45:00 6.4 C 6.33 g/m*3 2.91 C 19.3 km/h
2000 04-01-2012 22:50:00 6.4 C 6.33 g/m*3 3.11 C 17.7 km/h
Sensor: Nr:Datum:Temp:Abs-Feuchte:Windchill:Wind:
Aussen-T/F 2001 04-01-2012 22:55:00 6.4 C 6.41 g/m*3 3.11 C 17.7 km/h
2002 04-01-2012 23:00:00 6.4 C 6.41 g/m*3 3.55 C 14.5 km/h
2003 04-01-2012 23:05:00 6.4 C 6.41 g/m*3 3.8 C 12.9 km/h
2004 04-01-2012 23:10:00 6.5 C 6.45 g/m*3 3.92 C 12.9 km/h
2005 04-01-2012 23:15:00 6.6 C 6.42 g/m*3 2.99 C 20.9 km/h
2006 04-01-2012 23:20:00 6.6 C 6.42 g/m*3 3.36 C 17.7 km/h
2007 04-01-2012 23:25:00 6.7 C 6.46 g/m*3 3.48 C 17.7 km/h
2008 04-01-2012 23:30:00 6.7 C 6.46 g/m*3 3.48 C 17.7 km/h
2009 04-01-2012 23:35:00 6.8 C 6.5 g/m*3 3.82 C 16.1 km/h
2010 04-01-2012 23:40:00 6.7 C 6.46 g/m*3 3.69 C 16.1 km/h
2011 04-01-2012 23:45:00 6.8 C 6.5 g/m*3 3.82 C 16.1 km/h
2012 04-01-2012 23:50:00 6.8 C 6.5 g/m*3 3.82 C 16.1 km/h
2013 04-01-2012 23:55:00 6.8 C 6.5 g/m*3 3.82 C 16.1 km/h
2014 05-01-2012 00:00:00 6.8 C 6.5 g/m*3 2.91 C 24.1 km/h
2015 05-01-2012 00:05:00 6.8 C 6.5 g/m*3 3.61 C 17.7 km/h
2016 05-01-2012 00:10:00 6.8 C 6.5 g/m*3 2.76 C 25.7 km/h
2017 05-01-2012 00:15:00 6.8 C 6.58 g/m*3 3.82 C 16.1 km/h
2018 05-01-2012 00:20:00 6.7 C 6.53 g/m*3 4.17 C 12.9 km/h
2019 05-01-2012 00:25:00 6.7 C 6.53 g/m*3 3.29 C 19.3 km/h
2020 05-01-2012 00:30:00 6.7 C 6.53 g/m*3 3.11 C 20.9 km/h
2021 05-01-2012 00:35:00 6.7 C 6.53 g/m*3 3.48 C 17.7 km/h
2022 05-01-2012 00:40:00 6.7 C 6.53 g/m*3 4.44 C 11.3 km/h
2023 05-01-2012 00:45:00 6.7 C 6.53 g/m*3 3.92 C 14.5 km/h
2024 05-01-2012 00:50:00 6.7 C 6.53 g/m*3 3.11 C 20.9 km/h
2025 05-01-2012 00:55:00 6.7 C 6.53 g/m*3 3.11 C 20.9 km/h
Sensor: Nr:Datum:Temp:Abs-Feuchte:Windchill:Wind:
Aussen-T/F 2026 05-01-2012 01:00:00 6.6 C 6.49 g/m*3 3.79 C 14.5 km/h
2027 05-01-2012 01:05:00 6.6 C 6.49 g/m*3 3.17 C 19.3 km/h
2028 05-01-2012 01:10:00 6.5 C 6.45 g/m*3 2.86 C 20.9 km/h
2029 05-01-2012 01:15:00 6.5 C 6.45 g/m*3 2.69 C 22.5 km/h
2030 05-01-2012 01:20:00 6.5 C 6.45 g/m*3 3.92 C 12.9 km/h
2031 05-01-2012 01:25:00 6.4 C 6.48 g/m*3 3.11 C 17.7 km/h
2032 05-01-2012 01:30:00 6.4 C 6.41 g/m*3 2.91 C 19.3 km/h
2033 05-01-2012 01:35:00 6.4 C 6.41 g/m*3 2.91 C 19.3 km/h
2034 05-01-2012 01:40:00 6.4 C 6.41 g/m*3 2.91 C 19.3 km/h
2035 05-01-2012 01:45:00 6.4 C 6.41 g/m*3 2.91 C 19.3 km/h
2036 05-01-2012 01:50:00 6.5 C 6.45 g/m*3 3.04 C 19.3 km/h
2037 05-01-2012 01:55:00 6.5 C 6.45 g/m*3 3.67 C 14.5 km/h
2038 05-01-2012 02:00:00 6.4 C 6.41 g/m*3 2.1 C 27.4 km/h
2039 05-01-2012 02:05:00 6.4 C 6.41 g/m*3 2.1 C 27.4 km/h
2040 05-01-2012 02:10:00 6.4 C 6.41 g/m*3 3.55 C 14.5 km/h
2041 05-01-2012 02:15:00 6.5 C 6.37 g/m*3 2.38 C 25.7 km/h
2042 05-01-2012 02:20:00 6.4 C 6.41 g/m*3 3.32 C 16.1 km/h
2043 05-01-2012 02:25:00 6.4 C 6.41 g/m*3 3.11 C 17.7 km/h
2044 05-01-2012 02:30:00 6.5 C 6.45 g/m*3 3.44 C 16.1 km/h
2045 05-01-2012 02:35:00 6.5 C 6.45 g/m*3 3.44 C 16.1 km/h
2046 05-01-2012 02:40:00 6.5 C 6.45 g/m*3 2.86 C 20.9 km/h
2047 05-01-2012 02:45:00 6.6 C 6.42 g/m*3 2.82 C 22.5 km/h
2048 05-01-2012 02:50:00 6.7 C 6.46 g/m*3 3.29 C 19.3 km/h
2049 05-01-2012 02:55:00 6.7 C 6.46 g/m*3 1.87 C 35.4 km/h
2050 05-01-2012 03:00:00 6.7 C 6.46 g/m*3 2.49 C 27.4 km/h
Sensor: Nr:Datum:Temp:Abs-Feuchte:Windchill:Wind:
Aussen-T/F 2051 05-01-2012 03:05:00 6.8 C 6.42 g/m*3 3.24 C 20.9 km/h
2052 05-01-2012 03:10:00 6.9 C 6.47 g/m*3 3.2 C 22.5 km/h
2053 05-01-2012 03:15:00 7 C 6.51 g/m*3 2.87 C 27.4 km/h
2054 05-01-2012 03:20:00 7.1 C 6.47 g/m*3 3.3 C 24.1 km/h
2055 05-01-2012 03:25:00 7.1 C 6.55 g/m*3 3 C 27.4 km/h
2056 05-01-2012 03:30:00 7.1 C 6.55 g/m*3 3.3 C 24.1 km/h
2057 05-01-2012 03:35:00 7.1 C 6.55 g/m*3 3.62 C 20.9 km/h
2058 05-01-2012 03:40:00 7.1 C 6.55 g/m*3 3.15 C 25.7 km/h
2059 05-01-2012 03:45:00 7.1 C 6.63 g/m*3 3.62 C 20.9 km/h
2060 05-01-2012 03:50:00 7.1 C 6.63 g/m*3 3 C 27.4 km/h
2061 05-01-2012 03:55:00 7.1 C 6.63 g/m*3 3.8 C 19.3 km/h
2062 05-01-2012 04:00:00 7.1 C 6.63 g/m*3 3.8 C 19.3 km/h
2063 05-01-2012 04:05:00 7.2 C 6.67 g/m*3 3.75 C 20.9 km/h
2064 05-01-2012 04:10:00 7.3 C 6.64 g/m*3 3.41 C 25.7 km/h
2065 05-01-2012 04:15:00 7.3 C 6.72 g/m*3 3.41 C 25.7 km/h
2066 05-01-2012 04:20:00 7.3 C 6.64 g/m*3 3.26 C 27.4 km/h
2067 05-01-2012 04:25:00 7.4 C 6.68 g/m*3 2.9 C 33.8 km/h
2068 05-01-2012 04:30:00 7.5 C 6.64 g/m*3 3.67 C 25.7 km/h
2069 05-01-2012 04:35:00 7.6 C 6.77 g/m*3 3.8 C 25.7 km/h
2070 05-01-2012 04:40:00 7.6 C 6.77 g/m*3 4.25 C 20.9 km/h
2071 05-01-2012 04:45:00 7.6 C 6.77 g/m*3 4.09 C 22.5 km/h
2072 05-01-2012 04:50:00 7.7 C 6.81 g/m*3 4.07 C 24.1 km/h
2073 05-01-2012 04:55:00 7.7 C 6.81 g/m*3 3.92 C 25.7 km/h
2074 05-01-2012 05:00:00 7.7 C 6.73 g/m*3 4.22 C 22.5 km/h
2075 05-01-2012 05:05:00 7.8 C 6.69 g/m*3 3.54 C 32.2 km/h
Sensor: Nr:Datum:Temp:Abs-Feuchte:Windchill:Wind:
Aussen-T/F 2076 05-01-2012 05:10:00 7.9 C 6.74 g/m*3 4.04 C 27.4 km/h
2077 05-01-2012 05:15:00 7.9 C 6.74 g/m*3 4.04 C 27.4 km/h
2078 05-01-2012 05:20:00 8 C 6.78 g/m*3 3.8 C 32.2 km/h
2079 05-01-2012 05:25:00 7.9 C 6.82 g/m*3 4.47 C 22.5 km/h
2080 05-01-2012 05:30:00 7.9 C 6.82 g/m*3 4.8 C 19.3 km/h
2081 05-01-2012 05:35:00 7.9 C 6.82 g/m*3 4.98 C 17.7 km/h
2082 05-01-2012 05:40:00 7.8 C 6.94 g/m*3 4.86 C 17.7 km/h
2083 05-01-2012 05:45:00 7.7 C 6.89 g/m*3 4.38 C 20.9 km/h
2084 05-01-2012 05:50:00 7.7 C 6.89 g/m*3 4.22 C 22.5 km/h
2085 05-01-2012 05:55:00 7.6 C 6.85 g/m*3 4.25 C 20.9 km/h
2086 05-01-2012 06:00:00 7.6 C 6.93 g/m*3 4.42 C 19.3 km/h
2087 05-01-2012 06:05:00 7.6 C 6.93 g/m*3 4.25 C 20.9 km/h
2088 05-01-2012 06:10:00 7.6 C 6.85 g/m*3 4.42 C 19.3 km/h
2089 05-01-2012 06:15:00 7.6 C 6.93 g/m*3 3.4 C 30.6 km/h
2090 05-01-2012 06:20:00 7.5 C 6.88 g/m*3 3.52 C 27.4 km/h
2091 05-01-2012 06:25:00 7.5 C 6.88 g/m*3 4.3 C 19.3 km/h
2092 05-01-2012 06:30:00 7.6 C 6.85 g/m*3 3.94 C 24.1 km/h
2093 05-01-2012 06:35:00 7.6 C 6.85 g/m*3 4.61 C 17.7 km/h
2094 05-01-2012 06:40:00 7.6 C 6.85 g/m*3 3.94 C 24.1 km/h
2095 05-01-2012 06:45:00 7.7 C 6.89 g/m*3 4.55 C 19.3 km/h
2096 05-01-2012 06:50:00 7.7 C 6.97 g/m*3 4.22 C 22.5 km/h
2097 05-01-2012 06:55:00 7.6 C 6.93 g/m*3 4.25 C 20.9 km/h
2098 05-01-2012 07:00:00 7.6 C 7.01 g/m*3 4.42 C 19.3 km/h
2099 05-01-2012 07:05:00 7.7 C 7.05 g/m*3 4.38 C 20.9 km/h
2100 05-01-2012 07:10:00 7.7 C 7.05 g/m*3 4.38 C 20.9 km/h
Sensor: Nr:Datum:Temp:Abs-Feuchte:Windchill:Wind:
Aussen-T/F 2101 05-01-2012 07:15:00 7.7 C 7.05 g/m*3 4.93 C 16.1 km/h
2102 05-01-2012 07:20:00 7.7 C 6.97 g/m*3 4.73 C 17.7 km/h
2103 05-01-2012 07:25:00 7.8 C 7.02 g/m*3 4.86 C 17.7 km/h
2104 05-01-2012 07:30:00 7.8 C 7.02 g/m*3 4.51 C 20.9 km/h
2105 05-01-2012 07:35:00 7.8 C 7.02 g/m*3 4.35 C 22.5 km/h
2106 05-01-2012 07:40:00 7.8 C 7.02 g/m*3 4.2 C 24.1 km/h
2107 05-01-2012 07:45:00 7.8 C 7.02 g/m*3 5.06 C 16.1 km/h
2108 05-01-2012 07:50:00 7.9 C 7.06 g/m*3 4.63 C 20.9 km/h
2109 05-01-2012 07:55:00 7.9 C 7.06 g/m*3 5.18 C 16.1 km/h
2110 05-01-2012 08:00:00 7.9 C 7.06 g/m*3 4.18 C 25.7 km/h
2111 05-01-2012 08:05:00 7.9 C 7.06 g/m*3 4.98 C 17.7 km/h
2112 05-01-2012 08:10:00 7.9 C 7.15 g/m*3 4.47 C 22.5 km/h
2113 05-01-2012 08:15:00 8 C 7.19 g/m*3 5.75 C 12.9 km/h
2114 05-01-2012 08:20:00 8 C 7.19 g/m*3 4.93 C 19.3 km/h
2115 05-01-2012 08:25:00 8.1 C 7.24 g/m*3 4.73 C 22.5 km/h
2116 05-01-2012 08:30:00 8.2 C 7.29 g/m*3 5.18 C 19.3 km/h
2117 05-01-2012 08:35:00 8.2 C 7.29 g/m*3 5.18 C 19.3 km/h
2118 05-01-2012 08:40:00 8.2 C 7.37 g/m*3 5.01 C 20.9 km/h
2119 05-01-2012 08:45:00 8.2 C 7.29 g/m*3 5.01 C 20.9 km/h
2120 05-01-2012 08:50:00 8.3 C 7.33 g/m*3 4.7 C 25.7 km/h
2121 05-01-2012 08:55:00 8.3 C 7.33 g/m*3 5.31 C 19.3 km/h
2122 05-01-2012 09:00:00 8.4 C 7.38 g/m*3 4.83 C 25.7 km/h
2123 05-01-2012 09:05:00 8.4 C 7.38 g/m*3 5.11 C 22.5 km/h
2124 05-01-2012 09:10:00 8.4 C 7.47 g/m*3 5.43 C 19.3 km/h
2125 05-01-2012 09:15:00 8.4 C 7.47 g/m*3 5.27 C 20.9 km/h
Sensor: Nr:Datum:Temp:Abs-Feuchte:Windchill:Wind:
Aussen-T/F 2126 05-01-2012 09:20:00 8.4 C 7.47 g/m*3 5.8 C 16.1 km/h
2127 05-01-2012 09:25:00 8.6 C 7.56 g/m*3 5.22 C 24.1 km/h
2128 05-01-2012 09:30:00 8.5 C 7.51 g/m*3 4.82 C 27.4 km/h
2129 05-01-2012 09:35:00 8.6 C 7.56 g/m*3 4.95 C 27.4 km/h
2130 05-01-2012 09:40:00 8.7 C 7.44 g/m*3 5.07 C 27.4 km/h
2131 05-01-2012 09:45:00 8.8 C 7.49 g/m*3 5.08 C 29 km/h
2132 05-01-2012 09:50:00 8.7 C 7.52 g/m*3 5.81 C 19.3 km/h
2133 05-01-2012 09:55:00 8.6 C 7.56 g/m*3 5.08 C 25.7 km/h
2134 05-01-2012 10:00:00 8.5 C 7.6 g/m*3 5.24 C 22.5 km/h
2135 05-01-2012 10:05:00 8.4 C 7.55 g/m*3 6.01 C 14.5 km/h
2136 05-01-2012 10:10:00 8.4 C 7.55 g/m*3 5.11 C 22.5 km/h
2137 05-01-2012 10:15:00 8.4 C 7.55 g/m*3 6.24 C 12.9 km/h
2138 05-01-2012 10:20:00 8.6 C 7.65 g/m*3 5.86 C 17.7 km/h
2139 05-01-2012 10:25:00 8.6 C 7.65 g/m*3 6.05 C 16.1 km/h
2140 05-01-2012 10:30:00 7.2 C 6.36 g/m*3 2.75 C 32.2 km/h
2141 05-01-2012 10:35:00 5.4 C 5.79 g/m*3 1.47 C 20.9 km/h
2142 05-01-2012 10:40:00 4.6 C 5.82 g/m*3 0.45 C 20.9 km/h
2143 05-01-2012 10:45:00 4.4 C 5.88 g/m*3 -0.49 C 27.4 km/h
2144 05-01-2012 10:50:00 4.6 C 6.02 g/m*3 1.34 C 14.5 km/h
2145 05-01-2012 10:55:00 4.9 C 6.14 g/m*3 2.27 C 11.3 km/h
2146 05-01-2012 11:00:00 5.1 C 6.22 g/m*3 2.22 C 12.9 km/h
2147 05-01-2012 11:05:00 5.3 C 6.24 g/m*3 1.96 C 16.1 km/h
2148 05-01-2012 11:10:00 5.3 C 6.24 g/m*3 2.75 C 11.3 km/h
2149 05-01-2012 11:15:00 5.4 C 6.28 g/m*3 1.66 C 19.3 km/h
2150 05-01-2012 11:20:00 5.6 C 6.36 g/m*3 2.83 C 12.9 km/h
Sensor: Nr:Datum:Temp:Abs-Feuchte:Windchill:Wind:
Aussen-T/F 2151 05-01-2012 11:25:00 5.8 C 6.38 g/m*3 3.07 C 12.9 km/h
2152 05-01-2012 11:30:00 5.9 C 6.42 g/m*3 2.93 C 14.5 km/h
2153 05-01-2012 11:35:00 6.1 C 6.43 g/m*3 3.18 C 14.5 km/h
2154 05-01-2012 11:40:00 6.3 C 6.44 g/m*3 2.79 C 19.3 km/h
2155 05-01-2012 11:45:00 6.4 C 6.33 g/m*3 2.73 C 20.9 km/h
2156 05-01-2012 11:50:00 6.6 C 6.42 g/m*3 3.17 C 19.3 km/h
2157 05-01-2012 11:55:00 6.7 C 6.38 g/m*3 3.92 C 14.5 km/h
2158 05-01-2012 12:00:00 6.7 C 6.46 g/m*3 3.92 C 14.5 km/h
2159 05-01-2012 12:05:00 6.7 C 6.38 g/m*3 2.64 C 25.7 km/h
2160 05-01-2012 12:10:00 6.7 C 6.38 g/m*3 4.17 C 12.9 km/h
2161 05-01-2012 12:15:00 6.7 C 6.38 g/m*3 4.17 C 12.9 km/h
2162 05-01-2012 12:20:00 6.8 C 6.42 g/m*3 3.61 C 17.7 km/h
2163 05-01-2012 12:25:00 6.9 C 6.47 g/m*3 3.73 C 17.7 km/h
2164 05-01-2012 12:30:00 6.9 C 6.47 g/m*3 4.41 C 12.9 km/h
2165 05-01-2012 12:35:00 6.9 C 6.47 g/m*3 4.41 C 12.9 km/h
2166 05-01-2012 12:40:00 6.9 C 6.54 g/m*3 4.68 C 11.3 km/h
2167 05-01-2012 12:45:00 6.9 C 6.47 g/m*3 3.73 C 17.7 km/h
2168 05-01-2012 12:50:00 6.9 C 6.47 g/m*3 4.16 C 14.5 km/h
2169 05-01-2012 12:55:00 7 C 6.51 g/m*3 4.29 C 14.5 km/h
2170 05-01-2012 13:00:00 7.1 C 6.55 g/m*3 4.41 C 14.5 km/h
2171 05-01-2012 13:05:00 7.1 C 6.47 g/m*3 4.41 C 14.5 km/h
2172 05-01-2012 13:10:00 7.2 C 6.36 g/m*3 5.35 C 9.7 km/h
2173 05-01-2012 13:15:00 7.4 C 6.36 g/m*3 3.84 C 22.5 km/h
2174 05-01-2012 13:20:00 7.5 C 6.32 g/m*3 4.68 C 16.1 km/h
2175 05-01-2012 13:25:00 7.6 C 6.36 g/m*3 5.02 C 14.5 km/h
Sensor: Nr:Datum:Temp:Abs-Feuchte:Windchill:Wind:
Aussen-T/F 2176 05-01-2012 13:30:00 7.6 C 6.2 g/m*3 4.42 C 19.3 km/h
2177 05-01-2012 13:35:00 7.7 C 6.16 g/m*3 4.07 C 24.1 km/h
2178 05-01-2012 13:40:00 7.7 C 6.08 g/m*3 4.22 C 22.5 km/h
2179 05-01-2012 13:45:00 7.7 C 6.08 g/m*3 4.38 C 20.9 km/h
2180 05-01-2012 13:50:00 7.7 C 5.92 g/m*3 4.93 C 16.1 km/h
2181 05-01-2012 13:55:00 7.8 C 5.88 g/m*3 5.27 C 14.5 km/h
2182 05-01-2012 14:00:00 7.9 C 6.08 g/m*3 4.04 C 27.4 km/h
2183 05-01-2012 14:05:00 7.9 C 6 g/m*3 4.8 C 19.3 km/h
2184 05-01-2012 14:10:00 8.2 C 5.95 g/m*3 5.18 C 19.3 km/h
2185 05-01-2012 14:15:00 8.2 C 6.03 g/m*3 5.76 C 14.5 km/h
2186 05-01-2012 14:20:00 8.2 C 6.03 g/m*3 5.99 C 12.9 km/h
2187 05-01-2012 14:25:00 8.3 C 5.9 g/m*3 5.14 C 20.9 km/h
2188 05-01-2012 14:30:00 8.4 C 5.94 g/m*3 4.83 C 25.7 km/h
2189 05-01-2012 14:35:00 8.4 C 6.02 g/m*3 5.11 C 22.5 km/h
2190 05-01-2012 14:40:00 8.4 C 5.94 g/m*3 5.43 C 19.3 km/h
2191 05-01-2012 14:45:00 8.4 C 5.85 g/m*3 5.8 C 16.1 km/h
2192 05-01-2012 14:50:00 8.4 C 5.94 g/m*3 5.61 C 17.7 km/h
2193 05-01-2012 14:55:00 8.4 C 6.02 g/m*3 5.11 C 22.5 km/h
2194 05-01-2012 15:00:00 7.9 C 6 g/m*3 3.67 C 32.2 km/h
2195 05-01-2012 15:05:00 7.6 C 5.96 g/m*3 5.26 C 12.9 km/h
2196 05-01-2012 15:10:00 7.5 C 5.92 g/m*3 4.68 C 16.1 km/h
2197 05-01-2012 15:15:00 7.8 C 5.79 g/m*3 4.68 C 19.3 km/h
2198 05-01-2012 15:20:00 7.9 C 5.67 g/m*3 5.63 C 12.9 km/h
2199 05-01-2012 15:25:00 8.1 C 5.74 g/m*3 5.64 C 14.5 km/h
2200 05-01-2012 15:30:00 8.1 C 5.66 g/m*3 5.87 C 12.9 km/h
Sensor: Nr:Datum:Temp:Abs-Feuchte:Windchill:Wind:
Aussen-T/F 2201 05-01-2012 15:35:00 8 C 5.7 g/m*3 4.93 C 19.3 km/h
2202 05-01-2012 15:40:00 7.9 C 5.75 g/m*3 4.98 C 17.7 km/h
2203 05-01-2012 15:45:00 7.7 C 5.84 g/m*3 5.38 C 12.9 km/h
2204 05-01-2012 15:50:00 7.5 C 5.68 g/m*3 5.41 C 11.3 km/h
2205 05-01-2012 15:55:00 7.6 C 5.64 g/m*3 4.81 C 16.1 km/h
2206 05-01-2012 16:00:00 7.7 C 5.35 g/m*3 5.15 C 14.5 km/h
2207 05-01-2012 16:05:00 7.9 C 5.26 g/m*3 4.8 C 19.3 km/h
2208 05-01-2012 16:10:00 7.8 C 5.22 g/m*3 4.68 C 19.3 km/h
2209 05-01-2012 16:15:00 7.8 C 5.22 g/m*3 4.51 C 20.9 km/h
2210 05-01-2012 16:20:00 7.8 C 5.22 g/m*3 3.78 C 29 km/h
2211 05-01-2012 16:25:00 7.8 C 5.22 g/m*3 4.35 C 22.5 km/h
2212 05-01-2012 16:30:00 7.8 C 5.3 g/m*3 4.51 C 20.9 km/h
2213 05-01-2012 16:35:00 7.8 C 5.22 g/m*3 4.35 C 22.5 km/h
2214 05-01-2012 16:40:00 7.8 C 5.22 g/m*3 3.91 C 27.4 km/h
2215 05-01-2012 16:45:00 7.7 C 5.19 g/m*3 4.93 C 16.1 km/h
2216 05-01-2012 16:50:00 7.7 C 5.35 g/m*3 4.38 C 20.9 km/h
2217 05-01-2012 16:55:00 7.6 C 5.32 g/m*3 5.02 C 14.5 km/h
2218 05-01-2012 17:00:00 7.5 C 5.36 g/m*3 4.68 C 16.1 km/h
2219 05-01-2012 17:05:00 7.5 C 5.28 g/m*3 5.14 C 12.9 km/h
2220 05-01-2012 17:10:00 7.5 C 5.28 g/m*3 5.14 C 12.9 km/h
2221 05-01-2012 17:15:00 7.4 C 5.25 g/m*3 4.56 C 16.1 km/h
2222 05-01-2012 17:20:00 7.4 C 5.33 g/m*3 5.02 C 12.9 km/h
2223 05-01-2012 17:25:00 7.4 C 5.25 g/m*3 4 C 20.9 km/h
2224 05-01-2012 17:30:00 7.4 C 5.25 g/m*3 4.78 C 14.5 km/h
2225 05-01-2012 17:35:00 7.4 C 5.41 g/m*3 4 C 20.9 km/h
Sensor: Nr:Datum:Temp:Abs-Feuchte:Windchill:Wind:
Aussen-T/F 2226 05-01-2012 17:40:00 7.3 C 5.37 g/m*3 4.66 C 14.5 km/h
2227 05-01-2012 17:45:00 7.3 C 5.37 g/m*3 5.16 C 11.3 km/h
2228 05-01-2012 17:50:00 7.3 C 5.45 g/m*3 4.66 C 14.5 km/h
2229 05-01-2012 17:55:00 7.2 C 5.42 g/m*3 4.53 C 14.5 km/h
2230 05-01-2012 18:00:00 7.2 C 5.42 g/m*3 5.04 C 11.3 km/h
2231 05-01-2012 18:05:00 7.2 C 5.42 g/m*3 5.35 C 9.7 km/h
2232 05-01-2012 18:10:00 7.2 C 5.49 g/m*3 7.2 C 4.8 km/h
2233 05-01-2012 18:15:00 7.2 C 5.57 g/m*3 6.13 C 6.4 km/h
2234 05-01-2012 18:20:00 7.1 C 5.46 g/m*3 6.02 C 6.4 km/h
2235 05-01-2012 18:25:00 7.2 C 5.42 g/m*3 4.31 C 16.1 km/h
2236 05-01-2012 18:30:00 7.3 C 5.45 g/m*3 5.47 C 9.7 km/h
2237 05-01-2012 18:35:00 7.3 C 5.45 g/m*3 5.47 C 9.7 km/h
2238 05-01-2012 18:40:00 7.3 C 5.61 g/m*3 4.66 C 14.5 km/h
2239 05-01-2012 18:45:00 7.3 C 5.61 g/m*3 4.9 C 12.9 km/h
2240 05-01-2012 18:50:00 7.2 C 5.65 g/m*3 4.53 C 14.5 km/h
2241 05-01-2012 18:55:00 7.1 C 5.62 g/m*3 3.98 C 17.7 km/h
2242 05-01-2012 19:00:00 7 C 5.66 g/m*3 4.8 C 11.3 km/h
2243 05-01-2012 19:05:00 6.9 C 5.47 g/m*3 4.68 C 11.3 km/h
2244 05-01-2012 19:10:00 6.9 C 5.47 g/m*3 4.68 C 11.3 km/h
2245 05-01-2012 19:15:00 6.9 C 5.47 g/m*3 4.16 C 14.5 km/h
2246 05-01-2012 19:20:00 6.9 C 5.47 g/m*3 4.41 C 12.9 km/h
2247 05-01-2012 19:25:00 6.8 C 5.43 g/m*3 4.29 C 12.9 km/h
2248 05-01-2012 19:30:00 6.9 C 5.39 g/m*3 4.68 C 11.3 km/h
2249 05-01-2012 19:35:00 6.9 C 5.39 g/m*3 4.16 C 14.5 km/h
2250 05-01-2012 19:40:00 6.9 C 5.62 g/m*3 3.73 C 17.7 km/h
Sensor: Nr:Datum:Temp:Abs-Feuchte:Windchill:Wind:
Aussen-T/F 2251 05-01-2012 19:45:00 5.9 C 5.84 g/m*3 2.7 C 16.1 km/h
2252 05-01-2012 19:50:00 5 C 5.64 g/m*3 1.83 C 14.5 km/h
2253 05-01-2012 19:55:00 4.4 C 5.55 g/m*3 -0.16 C 24.1 km/h
2254 05-01-2012 20:00:00 4.1 C 5.44 g/m*3 0.47 C 16.1 km/h
2255 05-01-2012 20:05:00 3.8 C 5.46 g/m*3 1.7 C 8.1 km/h
2256 05-01-2012 20:10:00 3.7 C 5.42 g/m*3 0.23 C 14.5 km/h
2257 05-01-2012 20:15:00 3.7 C 5.42 g/m*3 -0.03 C 16.1 km/h
2258 05-01-2012 20:20:00 3.7 C 5.36 g/m*3 0.82 C 11.3 km/h
2259 05-01-2012 20:25:00 3.7 C 5.42 g/m*3 3.7 C 4.8 km/h
2260 05-01-2012 20:30:00 3.7 C 5.48 g/m*3 1.58 C 8.1 km/h
2261 05-01-2012 20:35:00 3.7 C 5.42 g/m*3 1.18 C 9.7 km/h
2262 05-01-2012 20:40:00 3.7 C 5.55 g/m*3 2.09 C 6.4 km/h
2263 05-01-2012 20:45:00 3.8 C 5.52 g/m*3 1.29 C 9.7 km/h
2264 05-01-2012 20:50:00 4 C 5.53 g/m*3 1.18 C 11.3 km/h
2265 05-01-2012 20:55:00 4.2 C 5.54 g/m*3 4.2 C 4.8 km/h
2266 05-01-2012 21:00:00 4.4 C 5.62 g/m*3 2.01 C 9.7 km/h
2267 05-01-2012 21:05:00 4.7 C 5.6 g/m*3 1.46 C 14.5 km/h
2268 05-01-2012 21:10:00 5.1 C 5.68 g/m*3 1.71 C 16.1 km/h
2269 05-01-2012 21:15:00 5.2 C 5.71 g/m*3 2.34 C 12.9 km/h
2270 05-01-2012 21:20:00 5.2 C 5.71 g/m*3 2.63 C 11.3 km/h
2271 05-01-2012 21:25:00 5.2 C 5.65 g/m*3 1.03 C 22.5 km/h
2272 05-01-2012 21:30:00 5.3 C 5.61 g/m*3 0.99 C 24.1 km/h
2273 05-01-2012 21:35:00 5.3 C 5.41 g/m*3 1.96 C 16.1 km/h
2274 05-01-2012 21:40:00 5.3 C 5.41 g/m*3 2.2 C 14.5 km/h
2275 05-01-2012 21:45:00 5.3 C 5.34 g/m*3 1.53 C 19.3 km/h
Sensor: Nr:Datum:Temp:Abs-Feuchte:Windchill:Wind:
Aussen-T/F 2276 05-01-2012 21:50:00 5.2 C 5.37 g/m*3 1.4 C 19.3 km/h
2277 05-01-2012 21:55:00 5.2 C 5.3 g/m*3 1.4 C 19.3 km/h
2278 05-01-2012 22:00:00 5.2 C 5.37 g/m*3 0.7 C 25.7 km/h
2279 05-01-2012 22:05:00 5.1 C 5.4 g/m*3 0.58 C 25.7 km/h
2280 05-01-2012 22:10:00 5.1 C 5.27 g/m*3 0.41 C 27.4 km/h
2281 05-01-2012 22:15:00 5.2 C 5.37 g/m*3 0.86 C 24.1 km/h
2282 05-01-2012 22:20:00 5.1 C 5.34 g/m*3 0.74 C 24.1 km/h
2283 05-01-2012 22:25:00 5.1 C 5.27 g/m*3 0.41 C 27.4 km/h
2284 05-01-2012 22:30:00 5.1 C 5.27 g/m*3 1.49 C 17.7 km/h
2285 05-01-2012 22:35:00 5.1 C 5.27 g/m*3 1.28 C 19.3 km/h
2286 05-01-2012 22:40:00 5.1 C 5.27 g/m*3 0.74 C 24.1 km/h
2287 05-01-2012 22:45:00 5.2 C 5.3 g/m*3 1.83 C 16.1 km/h
2288 05-01-2012 22:50:00 5.2 C 5.23 g/m*3 1.83 C 16.1 km/h
2289 05-01-2012 22:55:00 5.2 C 5.16 g/m*3 1.21 C 20.9 km/h
2290 05-01-2012 23:00:00 5.3 C 5.13 g/m*3 1.16 C 22.5 km/h
2291 05-01-2012 23:05:00 5.2 C 5.1 g/m*3 2.34 C 12.9 km/h
2292 05-01-2012 23:10:00 5.3 C 5.06 g/m*3 1.34 C 20.9 km/h
2293 05-01-2012 23:15:00 5.3 C 5.06 g/m*3 0.67 C 27.4 km/h
2294 05-01-2012 23:20:00 5.2 C 4.96 g/m*3 2.34 C 12.9 km/h
2295 05-01-2012 23:25:00 5.2 C 4.89 g/m*3 1.4 C 19.3 km/h
2296 05-01-2012 23:30:00 5.3 C 4.92 g/m*3 0.99 C 24.1 km/h
2297 05-01-2012 23:35:00 5.2 C 4.96 g/m*3 1.03 C 22.5 km/h
2298 05-01-2012 23:40:00 5.2 C 4.89 g/m*3 1.21 C 20.9 km/h
2299 05-01-2012 23:45:00 5.2 C 4.96 g/m*3 0.7 C 25.7 km/h
2300 05-01-2012 23:50:00 5.1 C 4.92 g/m*3 1.71 C 16.1 km/h
Sensor: Nr:Datum:Temp:Abs-Feuchte:Windchill:Wind:
Aussen-T/F 2301 05-01-2012 23:55:00 5.1 C 4.92 g/m*3 0.74 C 24.1 km/h
2302 06-01-2012 00:00:00 5.1 C 4.86 g/m*3 1.09 C 20.9 km/h
2303 06-01-2012 00:05:00 5.1 C 4.86 g/m*3 0.74 C 24.1 km/h
2304 06-01-2012 00:10:00 5.1 C 4.86 g/m*3 0.41 C 27.4 km/h
2305 06-01-2012 00:15:00 5.1 C 4.86 g/m*3 1.71 C 16.1 km/h
2306 06-01-2012 00:20:00 5.1 C 4.79 g/m*3 1.49 C 17.7 km/h
2307 06-01-2012 00:25:00 5.2 C 4.89 g/m*3 1.4 C 19.3 km/h
2308 06-01-2012 00:30:00 5.1 C 4.92 g/m*3 0.91 C 22.5 km/h
2309 06-01-2012 00:35:00 5 C 5.03 g/m*3 1.83 C 14.5 km/h
2310 06-01-2012 00:40:00 4.8 C 5.16 g/m*3 1.85 C 12.9 km/h
2311 06-01-2012 00:45:00 4.5 C 5.19 g/m*3 0.74 C 17.7 km/h
2312 06-01-2012 00:50:00 4.3 C 5.19 g/m*3 -0.46 C 25.7 km/h
2313 06-01-2012 00:55:00 4.2 C 5.22 g/m*3 -0.24 C 22.5 km/h
2314 06-01-2012 01:00:00 3.8 C 5.27 g/m*3 0.35 C 14.5 km/h
2315 06-01-2012 01:05:00 3.5 C 5.23 g/m*3 0.58 C 11.3 km/h
2316 06-01-2012 01:10:00 3.3 C 5.22 g/m*3 1.11 C 8.1 km/h
2317 06-01-2012 01:15:00 3.2 C 5.24 g/m*3 -0.1 C 12.9 km/h
2318 06-01-2012 01:20:00 3.2 C 5.24 g/m*3 0.58 C 9.7 km/h
2319 06-01-2012 01:25:00 3.2 C 5.24 g/m*3 -0.1 C 12.9 km/h
2320 06-01-2012 01:30:00 3.4 C 5.19 g/m*3 0.14 C 12.9 km/h
2321 06-01-2012 01:35:00 3.7 C 5.23 g/m*3 -0.03 C 16.1 km/h
2322 06-01-2012 01:40:00 3.9 C 5.24 g/m*3 0.75 C 12.9 km/h
2323 06-01-2012 01:45:00 4.1 C 5.18 g/m*3 0.47 C 16.1 km/h
2324 06-01-2012 01:50:00 4.5 C 5.26 g/m*3 -0.51 C 29 km/h
2325 06-01-2012 01:55:00 4.6 C 5.29 g/m*3 -0.38 C 29 km/h
Sensor: Nr:Datum:Temp:Abs-Feuchte:Windchill:Wind:
Aussen-T/F 2326 06-01-2012 02:00:00 4.7 C 5.26 g/m*3 0.22 C 24.1 km/h
2327 06-01-2012 02:05:00 4.7 C 5.26 g/m*3 0.4 C 22.5 km/h
2328 06-01-2012 02:10:00 4.5 C 5.26 g/m*3 -0.2 C 25.7 km/h
2329 06-01-2012 02:15:00 4.4 C 5.22 g/m*3 0.2 C 20.9 km/h
2330 06-01-2012 02:20:00 4.3 C 5.19 g/m*3 0.49 C 17.7 km/h
2331 06-01-2012 02:25:00 4.3 C 5.19 g/m*3 2.29 C 8.1 km/h
2332 06-01-2012 02:30:00 4.3 C 5.19 g/m*3 0.27 C 19.3 km/h
2333 06-01-2012 02:35:00 4.4 C 5.22 g/m*3 0.01 C 22.5 km/h
2334 06-01-2012 02:40:00 4.6 C 5.23 g/m*3 0.65 C 19.3 km/h
2335 06-01-2012 02:45:00 4.6 C 5.23 g/m*3 0.1 C 24.1 km/h
2336 06-01-2012 02:50:00 4.6 C 5.23 g/m*3 1.91 C 11.3 km/h
2337 06-01-2012 02:55:00 4.6 C 5.16 g/m*3 1.34 C 14.5 km/h
2338 06-01-2012 03:00:00 4.7 C 5.2 g/m*3 0.99 C 17.7 km/h
2339 06-01-2012 03:05:00 4.7 C 5.2 g/m*3 0.78 C 19.3 km/h
2340 06-01-2012 03:10:00 4.6 C 5.23 g/m*3 2.25 C 9.7 km/h
2341 06-01-2012 03:15:00 4.6 C 5.23 g/m*3 2.25 C 9.7 km/h
2342 06-01-2012 03:20:00 4.6 C 5.23 g/m*3 0.86 C 17.7 km/h
2343 06-01-2012 03:25:00 4.7 C 5.26 g/m*3 1.73 C 12.9 km/h
2344 06-01-2012 03:30:00 4.7 C 5.2 g/m*3 1.46 C 14.5 km/h
2345 06-01-2012 03:35:00 4.8 C 5.23 g/m*3 0.9 C 19.3 km/h
2346 06-01-2012 03:40:00 4.8 C 5.23 g/m*3 1.85 C 12.9 km/h
2347 06-01-2012 03:45:00 4.8 C 5.23 g/m*3 0.71 C 20.9 km/h
2348 06-01-2012 03:50:00 4.8 C 5.3 g/m*3 -0.26 C 30.6 km/h
2349 06-01-2012 03:55:00 4.8 C 5.23 g/m*3 1.34 C 16.1 km/h
2350 06-01-2012 04:00:00 4.8 C 5.23 g/m*3 1.11 C 17.7 km/h
Sensor: Nr:Datum:Temp:Abs-Feuchte:Windchill:Wind:
Aussen-T/F 2351 06-01-2012 04:05:00 4.8 C 5.16 g/m*3 1.34 C 16.1 km/h
2352 06-01-2012 04:10:00 4.8 C 5.23 g/m*3 1.58 C 14.5 km/h
2353 06-01-2012 04:15:00 4.8 C 5.16 g/m*3 2.49 C 9.7 km/h
2354 06-01-2012 04:20:00 4.9 C 5.2 g/m*3 2.27 C 11.3 km/h
2355 06-01-2012 04:25:00 5 C 5.16 g/m*3 1.15 C 19.3 km/h
2356 06-01-2012 04:30:00 5 C 5.23 g/m*3 3.11 C 8.1 km/h
2357 06-01-2012 04:35:00 4.9 C 5.13 g/m*3 1.46 C 16.1 km/h
2358 06-01-2012 04:40:00 5 C 5.16 g/m*3 1.36 C 17.7 km/h
2359 06-01-2012 04:45:00 5.1 C 5.2 g/m*3 0.91 C 22.5 km/h
2360 06-01-2012 04:50:00 5.1 C 5.2 g/m*3 2.51 C 11.3 km/h
2361 06-01-2012 04:55:00 5.1 C 5.27 g/m*3 2.22 C 12.9 km/h
2362 06-01-2012 05:00:00 5.1 C 5.27 g/m*3 2.51 C 11.3 km/h
2363 06-01-2012 05:05:00 5.1 C 5.27 g/m*3 2.84 C 9.7 km/h
2364 06-01-2012 05:10:00 5.2 C 5.3 g/m*3 2.07 C 14.5 km/h
2365 06-01-2012 05:15:00 5.2 C 5.23 g/m*3 2.07 C 14.5 km/h
2366 06-01-2012 05:20:00 5.3 C 5.2 g/m*3 1.53 C 19.3 km/h
2367 06-01-2012 05:25:00 5.4 C 5.23 g/m*3 1.86 C 17.7 km/h
2368 06-01-2012 05:30:00 5.5 C 5.27 g/m*3 2.44 C 14.5 km/h
2369 06-01-2012 05:35:00 5.5 C 5.27 g/m*3 2.2 C 16.1 km/h
2370 06-01-2012 05:40:00 5.5 C 5.34 g/m*3 2.2 C 16.1 km/h
2371 06-01-2012 05:45:00 5.5 C 5.34 g/m*3 2.2 C 16.1 km/h
2372 06-01-2012 05:50:00 5.5 C 5.41 g/m*3 1.99 C 17.7 km/h
2373 06-01-2012 05:55:00 5.4 C 5.37 g/m*3 1.29 C 22.5 km/h
2374 06-01-2012 06:00:00 5.5 C 5.41 g/m*3 1.99 C 17.7 km/h
2375 06-01-2012 06:05:00 5.6 C 5.37 g/m*3 2.83 C 12.9 km/h
Sensor: Nr:Datum:Temp:Abs-Feuchte:Windchill:Wind:
Aussen-T/F 2376 06-01-2012 06:10:00 5.6 C 5.44 g/m*3 3.11 C 11.3 km/h
2377 06-01-2012 06:15:00 5.6 C 5.37 g/m*3 3.44 C 9.7 km/h
2378 06-01-2012 06:20:00 5.7 C 5.41 g/m*3 1.67 C 22.5 km/h
2379 06-01-2012 06:25:00 5.8 C 5.44 g/m*3 1.63 C 24.1 km/h
2380 06-01-2012 06:30:00 5.8 C 5.44 g/m*3 3.07 C 12.9 km/h
2381 06-01-2012 06:35:00 5.8 C 5.44 g/m*3 2.81 C 14.5 km/h
2382 06-01-2012 06:40:00 5.8 C 5.37 g/m*3 2.58 C 16.1 km/h
2383 06-01-2012 06:45:00 5.9 C 5.41 g/m*3 2.7 C 16.1 km/h
2384 06-01-2012 06:50:00 6 C 5.37 g/m*3 2.61 C 17.7 km/h
2385 06-01-2012 06:55:00 6.1 C 5.41 g/m*3 2.73 C 17.7 km/h
2386 06-01-2012 07:00:00 6.1 C 5.41 g/m*3 2.54 C 19.3 km/h
2387 06-01-2012 07:05:00 6.2 C 5.44 g/m*3 3.3 C 14.5 km/h
2388 06-01-2012 07:10:00 6.2 C 5.44 g/m*3 1.84 C 27.4 km/h
2389 06-01-2012 07:15:00 6.2 C 5.44 g/m*3 3.07 C 16.1 km/h
2390 06-01-2012 07:20:00 6.2 C 5.52 g/m*3 3.3 C 14.5 km/h
2391 06-01-2012 07:25:00 6.1 C 5.63 g/m*3 3.43 C 12.9 km/h
2392 06-01-2012 07:30:00 5.9 C 5.55 g/m*3 2.93 C 14.5 km/h
2393 06-01-2012 07:35:00 5.9 C 5.62 g/m*3 2.93 C 14.5 km/h
2394 06-01-2012 07:40:00 5.9 C 5.7 g/m*3 2.29 C 19.3 km/h
2395 06-01-2012 07:45:00 5.9 C 5.77 g/m*3 1.31 C 29 km/h
2396 06-01-2012 07:50:00 5.7 C 5.76 g/m*3 2.45 C 16.1 km/h
2397 06-01-2012 07:55:00 5.7 C 5.69 g/m*3 1.85 C 20.9 km/h
2398 06-01-2012 08:00:00 5.7 C 5.84 g/m*3 3.23 C 11.3 km/h
2399 06-01-2012 08:05:00 5.7 C 5.76 g/m*3 1.67 C 22.5 km/h
2400 06-01-2012 08:10:00 5.7 C 5.76 g/m*3 2.69 C 14.5 km/h
Sensor: Nr:Datum:Temp:Abs-Feuchte:Windchill:Wind:
Aussen-T/F 2401 06-01-2012 08:15:00 5.6 C 5.66 g/m*3 2.33 C 16.1 km/h
2402 06-01-2012 08:20:00 5.7 C 5.69 g/m*3 2.45 C 16.1 km/h
2403 06-01-2012 08:25:00 5.8 C 5.66 g/m*3 3.68 C 9.7 km/h
2404 06-01-2012 08:30:00 5.8 C 5.66 g/m*3 3.36 C 11.3 km/h
2405 06-01-2012 08:35:00 5.9 C 5.62 g/m*3 2.93 C 14.5 km/h
2406 06-01-2012 08:40:00 5.9 C 5.62 g/m*3 2.1 C 20.9 km/h
2407 06-01-2012 08:45:00 5.9 C 5.62 g/m*3 3.19 C 12.9 km/h
2408 06-01-2012 08:50:00 5.9 C 5.55 g/m*3 2.48 C 17.7 km/h
2409 06-01-2012 08:55:00 6 C 5.59 g/m*3 2.61 C 17.7 km/h
2410 06-01-2012 09:00:00 6 C 5.59 g/m*3 3.6 C 11.3 km/h
2411 06-01-2012 09:05:00 6.1 C 5.63 g/m*3 3.72 C 11.3 km/h
2412 06-01-2012 09:10:00 6.1 C 5.63 g/m*3 3.43 C 12.9 km/h
2413 06-01-2012 09:15:00 6.1 C 5.63 g/m*3 2.95 C 16.1 km/h
2414 06-01-2012 09:20:00 6.2 C 5.66 g/m*3 3.07 C 16.1 km/h
2415 06-01-2012 09:25:00 6.3 C 5.63 g/m*3 2.12 C 25.7 km/h
2416 06-01-2012 09:30:00 6.2 C 5.66 g/m*3 3.84 C 11.3 km/h
2417 06-01-2012 09:35:00 6.2 C 5.66 g/m*3 3.07 C 16.1 km/h
2418 06-01-2012 09:40:00 6.2 C 5.74 g/m*3 4.15 C 9.7 km/h
2419 06-01-2012 09:45:00 6.2 C 5.74 g/m*3 3.56 C 12.9 km/h
2420 06-01-2012 09:50:00 6.2 C 5.74 g/m*3 3.84 C 11.3 km/h
2421 06-01-2012 09:55:00 6.2 C 5.74 g/m*3 2.48 C 20.9 km/h
2422 06-01-2012 10:00:00 6.2 C 5.74 g/m*3 2.31 C 22.5 km/h
2423 06-01-2012 10:05:00 6.2 C 5.81 g/m*3 4.15 C 9.7 km/h
2424 06-01-2012 10:10:00 6.1 C 5.92 g/m*3 3.72 C 11.3 km/h
2425 06-01-2012 10:15:00 6.1 C 5.92 g/m*3 3.43 C 12.9 km/h
Sensor: Nr:Datum:Temp:Abs-Feuchte:Windchill:Wind:
Aussen-T/F 2426 06-01-2012 10:20:00 6 C 5.95 g/m*3 2.05 C 22.5 km/h
2427 06-01-2012 10:25:00 5.9 C 5.98 g/m*3 1.93 C 22.5 km/h
2428 06-01-2012 10:30:00 5.7 C 5.91 g/m*3 1.19 C 27.4 km/h
2429 06-01-2012 10:35:00 5.4 C 5.79 g/m*3 1.66 C 19.3 km/h
2430 06-01-2012 10:40:00 5.3 C 5.82 g/m*3 3.08 C 9.7 km/h
2431 06-01-2012 10:45:00 5.3 C 5.89 g/m*3 3.08 C 9.7 km/h
2432 06-01-2012 10:50:00 5.3 C 5.96 g/m*3 3.94 C 6.4 km/h
2433 06-01-2012 10:55:00 5.6 C 6.01 g/m*3 2.57 C 14.5 km/h
2434 06-01-2012 11:00:00 5.7 C 6.12 g/m*3 5.7 C 4.8 km/h
2435 06-01-2012 11:05:00 5.8 C 6.09 g/m*3 5.8 C 4.8 km/h
2436 06-01-2012 11:10:00 5.9 C 6.13 g/m*3 3.19 C 12.9 km/h
2437 06-01-2012 11:15:00 6.1 C 6.06 g/m*3 4.04 C 9.7 km/h
2438 06-01-2012 11:20:00 6.3 C 6.14 g/m*3 3.96 C 11.3 km/h
2439 06-01-2012 11:25:00 6.4 C 5.96 g/m*3 3.32 C 16.1 km/h
2440 06-01-2012 11:30:00 6.4 C 5.96 g/m*3 3.55 C 14.5 km/h
2441 06-01-2012 11:35:00 6.5 C 6 g/m*3 3.92 C 12.9 km/h
2442 06-01-2012 11:40:00 6.6 C 5.89 g/m*3 3.57 C 16.1 km/h
2443 06-01-2012 11:45:00 6.7 C 5.93 g/m*3 4.17 C 12.9 km/h
2444 06-01-2012 11:50:00 6.8 C 5.89 g/m*3 2.11 C 33.8 km/h
2445 06-01-2012 11:55:00 6.7 C 5.93 g/m*3 3.92 C 14.5 km/h
2446 06-01-2012 12:00:00 6.7 C 5.93 g/m*3 3.29 C 19.3 km/h
2447 06-01-2012 12:05:00 6.7 C 6 g/m*3 3.69 C 16.1 km/h
2448 06-01-2012 12:10:00 6.6 C 5.96 g/m*3 3.36 C 17.7 km/h
2449 06-01-2012 12:15:00 6.6 C 6.04 g/m*3 3.36 C 17.7 km/h
2450 06-01-2012 12:20:00 6.7 C 6.08 g/m*3 3.92 C 14.5 km/h
Sensor: Nr:Datum:Temp:Abs-Feuchte:Windchill:Wind:
Aussen-T/F 2451 06-01-2012 12:25:00 6.7 C 6.08 g/m*3 3.92 C 14.5 km/h
2452 06-01-2012 12:30:00 6.7 C 6.23 g/m*3 3.69 C 16.1 km/h
2453 06-01-2012 12:35:00 6.8 C 6.12 g/m*3 3.61 C 17.7 km/h
2454 06-01-2012 12:40:00 6.8 C 6.12 g/m*3 3.42 C 19.3 km/h
2455 06-01-2012 12:45:00 6.7 C 6.15 g/m*3 2.49 C 27.4 km/h
2456 06-01-2012 12:50:00 6.6 C 6.11 g/m*3 4.99 C 8.1 km/h
2457 06-01-2012 12:55:00 6.6 C 6.11 g/m*3 4.04 C 12.9 km/h
2458 06-01-2012 13:00:00 6.6 C 6.04 g/m*3 3.57 C 16.1 km/h
2459 06-01-2012 13:05:00 6.7 C 6.15 g/m*3 4.75 C 9.7 km/h
2460 06-01-2012 13:10:00 6.7 C 6.15 g/m*3 5.11 C 8.1 km/h
2461 06-01-2012 13:15:00 6.8 C 6.12 g/m*3 4.29 C 12.9 km/h
2462 06-01-2012 13:20:00 6.8 C 6.04 g/m*3 4.04 C 14.5 km/h
2463 06-01-2012 13:25:00 6.8 C 5.97 g/m*3 3.82 C 16.1 km/h
2464 06-01-2012 13:30:00 6.8 C 6.04 g/m*3 4.56 C 11.3 km/h
2465 06-01-2012 13:35:00 6.7 C 6 g/m*3 3.92 C 14.5 km/h
2466 06-01-2012 13:40:00 6.7 C 6.15 g/m*3 5.11 C 8.1 km/h
2467 06-01-2012 13:45:00 6.7 C 6.08 g/m*3 3.48 C 17.7 km/h
2468 06-01-2012 13:50:00 6.7 C 6.08 g/m*3 4.17 C 12.9 km/h
2469 06-01-2012 13:55:00 6.7 C 6.08 g/m*3 3.92 C 14.5 km/h
2470 06-01-2012 14:00:00 6.8 C 6.12 g/m*3 4.87 C 9.7 km/h
2471 06-01-2012 14:05:00 6.8 C 6.12 g/m*3 4.04 C 14.5 km/h
2472 06-01-2012 14:10:00 6.9 C 6.16 g/m*3 4.99 C 9.7 km/h
2473 06-01-2012 14:15:00 7 C 6.04 g/m*3 4.53 C 12.9 km/h
2474 06-01-2012 14:20:00 7.1 C 6.16 g/m*3 4.41 C 14.5 km/h
2475 06-01-2012 14:25:00 7.2 C 6.12 g/m*3 4.77 C 12.9 km/h
Sensor: Nr:Datum:Temp:Abs-Feuchte:Windchill:Wind:
Aussen-T/F 2476 06-01-2012 14:30:00 7.2 C 6.2 g/m*3 4.31 C 16.1 km/h
2477 06-01-2012 14:35:00 7.2 C 6.04 g/m*3 4.77 C 12.9 km/h
2478 06-01-2012 14:40:00 7.2 C 6.12 g/m*3 3.92 C 19.3 km/h
2479 06-01-2012 14:45:00 7.1 C 6.01 g/m*3 4.41 C 14.5 km/h
2480 06-01-2012 14:50:00 7.1 C 6.01 g/m*3 3.8 C 19.3 km/h
2481 06-01-2012 14:55:00 7.1 C 6.01 g/m*3 4.92 C 11.3 km/h
2482 06-01-2012 15:00:00 7 C 5.97 g/m*3 4.06 C 16.1 km/h
2483 06-01-2012 15:05:00 7 C 5.97 g/m*3 4.53 C 12.9 km/h
2484 06-01-2012 15:10:00 7.1 C 6.01 g/m*3 4.19 C 16.1 km/h
2485 06-01-2012 15:15:00 6.8 C 6.19 g/m*3 4.56 C 11.3 km/h
2486 06-01-2012 15:20:00 6.6 C 6.34 g/m*3 3.79 C 14.5 km/h
2487 06-01-2012 15:25:00 6.2 C 6.18 g/m*3 3.3 C 14.5 km/h
2488 06-01-2012 15:30:00 5.9 C 6.2 g/m*3 4.63 C 6.4 km/h
2489 06-01-2012 15:35:00 5.8 C 6.23 g/m*3 4.52 C 6.4 km/h
2490 06-01-2012 15:40:00 5.6 C 6.22 g/m*3 5.6 C 4.8 km/h
2491 06-01-2012 15:45:00 5.5 C 6.18 g/m*3 5.5 C 3.2 km/h
2492 06-01-2012 15:50:00 5.4 C 6.14 g/m*3 5.4 C 3.2 km/h
2493 06-01-2012 15:55:00 5.4 C 6.21 g/m*3 5.4 C 4.8 km/h
2494 06-01-2012 16:00:00 5.3 C 6.24 g/m*3 5.3 C 3.2 km/h
2495 06-01-2012 16:05:00 5.3 C 6.31 g/m*3 3.94 C 6.4 km/h
2496 06-01-2012 16:10:00 5.2 C 6.27 g/m*3 5.2 C 4.8 km/h
2497 06-01-2012 16:15:00 5.2 C 6.2 g/m*3 3.82 C 6.4 km/h
2498 06-01-2012 16:20:00 5.2 C 6.2 g/m*3 3.34 C 8.1 km/h
2499 06-01-2012 16:25:00 5.3 C 6.24 g/m*3 3.94 C 6.4 km/h
2500 06-01-2012 16:30:00 5.3 C 6.17 g/m*3 5.3 C 3.2 km/h
Sensor: Nr:Datum:Temp:Abs-Feuchte:Windchill:Wind:
Aussen-T/F 2501 06-01-2012 16:35:00 5.5 C 6.18 g/m*3 3.7 C 8.1 km/h
2502 06-01-2012 16:40:00 5.8 C 6.23 g/m*3 4.05 C 8.1 km/h
2503 06-01-2012 16:45:00 5.9 C 6.27 g/m*3 4.63 C 6.4 km/h
2504 06-01-2012 16:50:00 5.8 C 6.23 g/m*3 3.68 C 9.7 km/h
2505 06-01-2012 16:55:00 5.8 C 6.3 g/m*3 4.52 C 6.4 km/h
2506 06-01-2012 17:00:00 5.7 C 6.26 g/m*3 5.7 C 4.8 km/h
2507 06-01-2012 17:05:00 5.6 C 6.36 g/m*3 5.6 C 3.2 km/h
2508 06-01-2012 17:10:00 5.5 C 6.32 g/m*3 5.5 C 3.2 km/h
2509 06-01-2012 17:15:00 5.3 C 6.24 g/m*3 5.3 C 3.2 km/h
2510 06-01-2012 17:20:00 5.1 C 6.16 g/m*3 5.1 C 3.2 km/h
2511 06-01-2012 17:25:00 4.8 C 6.1 g/m*3 4.8 C 4.8 km/h
2512 06-01-2012 17:30:00 4.7 C 6.06 g/m*3 3.25 C 6.4 km/h
2513 06-01-2012 17:35:00 4.7 C 6.13 g/m*3 2.76 C 8.1 km/h
2514 06-01-2012 17:40:00 4.7 C 6.13 g/m*3 3.25 C 6.4 km/h
2515 06-01-2012 17:45:00 4.7 C 6.13 g/m*3 4.7 C 4.8 km/h
2516 06-01-2012 17:50:00 4.6 C 6.09 g/m*3 3.13 C 6.4 km/h
2517 06-01-2012 17:55:00 4.6 C 6.09 g/m*3 3.13 C 6.4 km/h
2518 06-01-2012 18:00:00 4.7 C 6.06 g/m*3 2.76 C 8.1 km/h
2519 06-01-2012 18:05:00 4.9 C 6.08 g/m*3 2.27 C 11.3 km/h
2520 06-01-2012 18:10:00 5.1 C 6.09 g/m*3 2.84 C 9.7 km/h
2521 06-01-2012 18:15:00 5.1 C 6.02 g/m*3 3.23 C 8.1 km/h
2522 06-01-2012 18:20:00 5.2 C 5.99 g/m*3 2.63 C 11.3 km/h
2523 06-01-2012 18:25:00 5.3 C 6.03 g/m*3 3.46 C 8.1 km/h
2524 06-01-2012 18:30:00 5.3 C 6.03 g/m*3 3.46 C 8.1 km/h
2525 06-01-2012 18:35:00 5.3 C 6.03 g/m*3 2.75 C 11.3 km/h
Sensor: Nr:Datum:Temp:Abs-Feuchte:Windchill:Wind:
Aussen-T/F 2526 06-01-2012 18:40:00 5.2 C 5.99 g/m*3 2.63 C 11.3 km/h
2527 06-01-2012 18:45:00 5.2 C 5.92 g/m*3 2.63 C 11.3 km/h
2528 06-01-2012 18:50:00 5.2 C 5.85 g/m*3 2.63 C 11.3 km/h
2529 06-01-2012 18:55:00 5.3 C 5.89 g/m*3 3.46 C 8.1 km/h
2530 06-01-2012 19:00:00 5.3 C 5.89 g/m*3 2.75 C 11.3 km/h
2531 06-01-2012 19:05:00 5.4 C 5.93 g/m*3 4.06 C 6.4 km/h
2532 06-01-2012 19:10:00 5.3 C 5.89 g/m*3 3.94 C 6.4 km/h
2533 06-01-2012 19:15:00 5.3 C 5.82 g/m*3 3.46 C 8.1 km/h
2534 06-01-2012 19:20:00 5.3 C 5.75 g/m*3 3.46 C 8.1 km/h
2535 06-01-2012 19:25:00 5.3 C 5.82 g/m*3 5.3 C 4.8 km/h
2536 06-01-2012 19:30:00 5.2 C 5.85 g/m*3 5.2 C 4.8 km/h
2537 06-01-2012 19:35:00 5.1 C 5.81 g/m*3 3.71 C 6.4 km/h
2538 06-01-2012 19:40:00 4.9 C 5.81 g/m*3 2.99 C 8.1 km/h
2539 06-01-2012 19:45:00 4.7 C 5.8 g/m*3 4.7 C 4.8 km/h
2540 06-01-2012 19:50:00 4.6 C 5.82 g/m*3 3.13 C 6.4 km/h
2541 06-01-2012 19:55:00 4.6 C 5.82 g/m*3 3.13 C 6.4 km/h
2542 06-01-2012 20:00:00 4.5 C 5.78 g/m*3 4.5 C 4.8 km/h
2543 06-01-2012 20:05:00 4.6 C 5.82 g/m*3 3.13 C 6.4 km/h
2544 06-01-2012 20:10:00 4.6 C 5.82 g/m*3 4.6 C 4.8 km/h
2545 06-01-2012 20:15:00 4.6 C 5.82 g/m*3 3.13 C 6.4 km/h
2546 06-01-2012 20:20:00 4.5 C 5.85 g/m*3 3.02 C 6.4 km/h
2547 06-01-2012 20:25:00 4.5 C 5.85 g/m*3 2.13 C 9.7 km/h
2548 06-01-2012 20:30:00 4.7 C 5.8 g/m*3 2.03 C 11.3 km/h
2549 06-01-2012 20:35:00 4.9 C 5.74 g/m*3 1.97 C 12.9 km/h
2550 06-01-2012 20:40:00 5 C 5.78 g/m*3 2.72 C 9.7 km/h
Sensor: Nr:Datum:Temp:Abs-Feuchte:Windchill:Wind:
Aussen-T/F 2551 06-01-2012 20:45:00 4.9 C 5.87 g/m*3 2.61 C 9.7 km/h
2552 06-01-2012 20:50:00 4.8 C 5.77 g/m*3 2.87 C 8.1 km/h
2553 06-01-2012 20:55:00 4.8 C 5.7 g/m*3 2.87 C 8.1 km/h
2554 06-01-2012 21:00:00 4.9 C 5.81 g/m*3 2.99 C 8.1 km/h
2555 06-01-2012 21:05:00 4.8 C 5.77 g/m*3 2.87 C 8.1 km/h
2556 06-01-2012 21:10:00 4.8 C 5.83 g/m*3 3.36 C 6.4 km/h
2557 06-01-2012 21:15:00 4.8 C 5.83 g/m*3 2.87 C 8.1 km/h
2558 06-01-2012 21:20:00 4.8 C 5.77 g/m*3 4.8 C 4.8 km/h
2559 06-01-2012 21:25:00 4.8 C 5.77 g/m*3 2.87 C 8.1 km/h
2560 06-01-2012 21:30:00 4.8 C 5.77 g/m*3 2.49 C 9.7 km/h
2561 06-01-2012 21:35:00 4.9 C 5.74 g/m*3 2.61 C 9.7 km/h
2562 06-01-2012 21:40:00 4.9 C 5.74 g/m*3 2.27 C 11.3 km/h
2563 06-01-2012 21:45:00 4.9 C 5.74 g/m*3 2.61 C 9.7 km/h
2564 06-01-2012 21:50:00 4.9 C 5.74 g/m*3 2.99 C 8.1 km/h
2565 06-01-2012 21:55:00 4.9 C 5.74 g/m*3 2.61 C 9.7 km/h
2566 06-01-2012 22:00:00 4.8 C 5.7 g/m*3 2.87 C 8.1 km/h
2567 06-01-2012 22:05:00 4.7 C 5.66 g/m*3 2.76 C 8.1 km/h
2568 06-01-2012 22:10:00 4.6 C 5.69 g/m*3 2.64 C 8.1 km/h
2569 06-01-2012 22:15:00 4.6 C 5.69 g/m*3 3.13 C 6.4 km/h
2570 06-01-2012 22:20:00 4.4 C 5.62 g/m*3 2.4 C 8.1 km/h
2571 06-01-2012 22:25:00 4.3 C 5.64 g/m*3 1.89 C 9.7 km/h
2572 06-01-2012 22:30:00 4.3 C 5.64 g/m*3 4.3 C 4.8 km/h
2573 06-01-2012 22:35:00 4.2 C 5.61 g/m*3 1.43 C 11.3 km/h
2574 06-01-2012 22:40:00 4.2 C 5.61 g/m*3 1.77 C 9.7 km/h
2575 06-01-2012 22:45:00 4.3 C 5.64 g/m*3 2.78 C 6.4 km/h
Sensor: Nr:Datum:Temp:Abs-Feuchte:Windchill:Wind:
Aussen-T/F 2576 06-01-2012 22:50:00 4.3 C 5.64 g/m*3 2.29 C 8.1 km/h
2577 06-01-2012 22:55:00 4.3 C 5.64 g/m*3 4.3 C 4.8 km/h
2578 06-01-2012 23:00:00 4.3 C 5.64 g/m*3 1.89 C 9.7 km/h
2579 06-01-2012 23:05:00 4.4 C 5.62 g/m*3 2.01 C 9.7 km/h
2580 06-01-2012 23:10:00 4.4 C 5.55 g/m*3 2.9 C 6.4 km/h
2581 06-01-2012 23:15:00 4.6 C 5.56 g/m*3 1.91 C 11.3 km/h
2582 06-01-2012 23:20:00 4.7 C 5.46 g/m*3 1.46 C 14.5 km/h
2583 06-01-2012 23:25:00 4.7 C 5.46 g/m*3 2.37 C 9.7 km/h
2584 06-01-2012 23:30:00 4.6 C 5.49 g/m*3 3.13 C 6.4 km/h
2585 06-01-2012 23:35:00 4.4 C 5.42 g/m*3 2.01 C 9.7 km/h
2586 06-01-2012 23:40:00 4.3 C 5.38 g/m*3 4.3 C 4.8 km/h
2587 06-01-2012 23:45:00 4.2 C 5.41 g/m*3 2.67 C 6.4 km/h
2588 06-01-2012 23:50:00 4.2 C 5.41 g/m*3 4.2 C 4.8 km/h
2589 06-01-2012 23:55:00 4.2 C 5.48 g/m*3 2.67 C 6.4 km/h
2590 07-01-2012 00:00:00 4.3 C 5.45 g/m*3 4.3 C 4.8 km/h
2591 07-01-2012 00:05:00 4.2 C 5.48 g/m*3 4.2 C 4.8 km/h
2592 07-01-2012 00:10:00 4.2 C 5.48 g/m*3 4.2 C 4.8 km/h
2593 07-01-2012 00:15:00 4.1 C 5.38 g/m*3 1.65 C 9.7 km/h
2594 07-01-2012 00:20:00 4.2 C 5.41 g/m*3 2.67 C 6.4 km/h
2595 07-01-2012 00:25:00 4.1 C 5.38 g/m*3 1.65 C 9.7 km/h
2596 07-01-2012 00:30:00 4.1 C 5.38 g/m*3 1.65 C 9.7 km/h
2597 07-01-2012 00:35:00 4 C 5.34 g/m*3 1.53 C 9.7 km/h
2598 07-01-2012 00:40:00 4 C 5.34 g/m*3 1.93 C 8.1 km/h
2599 07-01-2012 00:45:00 4 C 5.34 g/m*3 0.88 C 12.9 km/h
2600 07-01-2012 00:50:00 3.9 C 5.31 g/m*3 1.82 C 8.1 km/h
Sensor: Nr:Datum:Temp:Abs-Feuchte:Windchill:Wind:
Aussen-T/F 2601 07-01-2012 00:55:00 3.9 C 5.24 g/m*3 1.82 C 8.1 km/h
2602 07-01-2012 01:00:00 3.9 C 5.31 g/m*3 3.9 C 3.2 km/h
2603 07-01-2012 01:05:00 3.7 C 5.3 g/m*3 1.58 C 8.1 km/h
2604 07-01-2012 01:10:00 3.6 C 5.2 g/m*3 0.7 C 11.3 km/h
2605 07-01-2012 01:15:00 3.6 C 5.14 g/m*3 1.06 C 9.7 km/h
2606 07-01-2012 01:20:00 3.6 C 5.14 g/m*3 1.06 C 9.7 km/h
2607 07-01-2012 01:25:00 3.6 C 5.14 g/m*3 1.46 C 8.1 km/h
2608 07-01-2012 01:30:00 3.6 C 5.08 g/m*3 0.39 C 12.9 km/h
2609 07-01-2012 01:35:00 3.7 C 5.11 g/m*3 0.23 C 14.5 km/h
2610 07-01-2012 01:40:00 3.8 C 5.14 g/m*3 0.35 C 14.5 km/h
2611 07-01-2012 01:45:00 3.7 C 5.11 g/m*3 1.58 C 8.1 km/h
2612 07-01-2012 01:50:00 3.8 C 5.14 g/m*3 0.94 C 11.3 km/h
2613 07-01-2012 01:55:00 3.8 C 5.14 g/m*3 0.94 C 11.3 km/h
2614 07-01-2012 02:00:00 3.8 C 5.14 g/m*3 1.7 C 8.1 km/h
2615 07-01-2012 02:05:00 3.8 C 5.08 g/m*3 1.29 C 9.7 km/h
2616 07-01-2012 02:10:00 3.8 C 5.14 g/m*3 1.7 C 8.1 km/h
2617 07-01-2012 02:15:00 3.8 C 5.14 g/m*3 2.21 C 6.4 km/h
2618 07-01-2012 02:20:00 3.9 C 5.18 g/m*3 2.32 C 6.4 km/h
2619 07-01-2012 02:25:00 3.9 C 5.18 g/m*3 1.41 C 9.7 km/h
2620 07-01-2012 02:30:00 3.9 C 5.18 g/m*3 2.32 C 6.4 km/h
2621 07-01-2012 02:35:00 4 C 5.21 g/m*3 1.93 C 8.1 km/h
2622 07-01-2012 02:40:00 4.1 C 5.25 g/m*3 2.05 C 8.1 km/h
2623 07-01-2012 02:45:00 4.1 C 5.18 g/m*3 1.31 C 11.3 km/h
2624 07-01-2012 02:50:00 4.2 C 5.28 g/m*3 1.77 C 9.7 km/h
2625 07-01-2012 02:55:00 4.2 C 5.28 g/m*3 1.43 C 11.3 km/h
Sensor: Nr:Datum:Temp:Abs-Feuchte:Windchill:Wind:
Aussen-T/F 2626 07-01-2012 03:00:00 4.2 C 5.28 g/m*3 1.12 C 12.9 km/h
2627 07-01-2012 03:05:00 4.2 C 5.28 g/m*3 1.77 C 9.7 km/h
2628 07-01-2012 03:10:00 4.2 C 5.28 g/m*3 2.17 C 8.1 km/h
2629 07-01-2012 03:15:00 4.3 C 5.32 g/m*3 0.72 C 16.1 km/h
2630 07-01-2012 03:20:00 4.3 C 5.32 g/m*3 2.29 C 8.1 km/h
2631 07-01-2012 03:25:00 4.3 C 5.38 g/m*3 1.55 C 11.3 km/h
2632 07-01-2012 03:30:00 4.3 C 5.32 g/m*3 1.89 C 9.7 km/h
2633 07-01-2012 03:35:00 4.3 C 5.38 g/m*3 1.24 C 12.9 km/h
2634 07-01-2012 03:40:00 4.3 C 5.38 g/m*3 2.78 C 6.4 km/h
2635 07-01-2012 03:45:00 4.3 C 5.45 g/m*3 4.3 C 4.8 km/h
2636 07-01-2012 03:50:00 4.2 C 5.41 g/m*3 -0.05 C 20.9 km/h
2637 07-01-2012 03:55:00 4.3 C 5.45 g/m*3 0.07 C 20.9 km/h
2638 07-01-2012 04:00:00 4.3 C 5.45 g/m*3 1.24 C 12.9 km/h
2639 07-01-2012 04:05:00 4.3 C 5.38 g/m*3 0.72 C 16.1 km/h
2640 07-01-2012 04:10:00 4.3 C 5.38 g/m*3 1.55 C 11.3 km/h
2641 07-01-2012 04:15:00 4.4 C 5.42 g/m*3 1.36 C 12.9 km/h
2642 07-01-2012 04:20:00 4.4 C 5.42 g/m*3 2.01 C 9.7 km/h
2643 07-01-2012 04:25:00 4.4 C 5.42 g/m*3 1.67 C 11.3 km/h
2644 07-01-2012 04:30:00 4.4 C 5.42 g/m*3 1.36 C 12.9 km/h
2645 07-01-2012 04:35:00 4.5 C 5.46 g/m*3 1.79 C 11.3 km/h
2646 07-01-2012 04:40:00 4.5 C 5.52 g/m*3 1.48 C 12.9 km/h
2647 07-01-2012 04:45:00 4.4 C 5.48 g/m*3 0.61 C 17.7 km/h
2648 07-01-2012 04:50:00 4.4 C 5.48 g/m*3 1.67 C 11.3 km/h
2649 07-01-2012 04:55:00 4.4 C 5.48 g/m*3 1.36 C 12.9 km/h
2650 07-01-2012 05:00:00 4.4 C 5.48 g/m*3 0.84 C 16.1 km/h
Sensor: Nr:Datum:Temp:Abs-Feuchte:Windchill:Wind:
Aussen-T/F 2651 07-01-2012 05:05:00 4.4 C 5.48 g/m*3 1.36 C 12.9 km/h
2652 07-01-2012 05:10:00 4.4 C 5.55 g/m*3 1.36 C 12.9 km/h
2653 07-01-2012 05:15:00 4.4 C 5.55 g/m*3 1.09 C 14.5 km/h
2654 07-01-2012 05:20:00 4.4 C 5.55 g/m*3 1.36 C 12.9 km/h
2655 07-01-2012 05:25:00 4.4 C 5.55 g/m*3 0.84 C 16.1 km/h
2656 07-01-2012 05:30:00 4.4 C 5.55 g/m*3 0.4 C 19.3 km/h
2657 07-01-2012 05:35:00 4.5 C 5.59 g/m*3 -0.03 C 24.1 km/h
2658 07-01-2012 05:40:00 4.4 C 5.55 g/m*3 0.84 C 16.1 km/h
2659 07-01-2012 05:45:00 4.4 C 5.55 g/m*3 1.09 C 14.5 km/h
2660 07-01-2012 05:50:00 4.4 C 5.55 g/m*3 1.09 C 14.5 km/h
2661 07-01-2012 05:55:00 4.5 C 5.59 g/m*3 1.79 C 11.3 km/h
2662 07-01-2012 06:00:00 4.5 C 5.59 g/m*3 0.96 C 16.1 km/h
2663 07-01-2012 06:05:00 4.6 C 5.62 g/m*3 1.61 C 12.9 km/h
2664 07-01-2012 06:10:00 4.6 C 5.62 g/m*3 2.25 C 9.7 km/h
2665 07-01-2012 06:15:00 4.6 C 5.62 g/m*3 0.65 C 19.3 km/h
2666 07-01-2012 06:20:00 4.6 C 5.62 g/m*3 1.61 C 12.9 km/h
2667 07-01-2012 06:25:00 4.6 C 5.62 g/m*3 0.86 C 17.7 km/h
2668 07-01-2012 06:30:00 4.6 C 5.62 g/m*3 0.45 C 20.9 km/h
2669 07-01-2012 06:35:00 4.6 C 5.62 g/m*3 0.65 C 19.3 km/h
2670 07-01-2012 06:40:00 4.6 C 5.62 g/m*3 0.27 C 22.5 km/h
2671 07-01-2012 06:45:00 4.6 C 5.62 g/m*3 0.27 C 22.5 km/h
2672 07-01-2012 06:50:00 4.6 C 5.62 g/m*3 1.34 C 14.5 km/h
2673 07-01-2012 06:55:00 4.6 C 5.62 g/m*3 1.34 C 14.5 km/h
2674 07-01-2012 07:00:00 4.6 C 5.69 g/m*3 0.86 C 17.7 km/h
2675 07-01-2012 07:05:00 4.7 C 5.73 g/m*3 0.58 C 20.9 km/h
Sensor: Nr:Datum:Temp:Abs-Feuchte:Windchill:Wind:
Aussen-T/F 2676 07-01-2012 07:10:00 4.7 C 5.73 g/m*3 0.4 C 22.5 km/h
2677 07-01-2012 07:15:00 4.7 C 5.73 g/m*3 0.99 C 17.7 km/h
2678 07-01-2012 07:20:00 4.7 C 5.8 g/m*3 1.46 C 14.5 km/h
2679 07-01-2012 07:25:00 4.6 C 5.82 g/m*3 0.1 C 24.1 km/h
2680 07-01-2012 07:30:00 4.5 C 5.85 g/m*3 0.96 C 16.1 km/h
2681 07-01-2012 07:35:00 4.6 C 5.89 g/m*3 0.27 C 22.5 km/h
2682 07-01-2012 07:40:00 4.5 C 5.85 g/m*3 0.33 C 20.9 km/h
2683 07-01-2012 07:45:00 4.5 C 5.85 g/m*3 0.33 C 20.9 km/h
2684 07-01-2012 07:50:00 4.6 C 5.89 g/m*3 1.09 C 16.1 km/h
2685 07-01-2012 07:55:00 4.6 C 5.89 g/m*3 1.09 C 16.1 km/h
2686 07-01-2012 08:00:00 4.7 C 5.93 g/m*3 0.4 C 22.5 km/h
2687 07-01-2012 08:05:00 4.7 C 5.86 g/m*3 0.58 C 20.9 km/h
2688 07-01-2012 08:10:00 4.7 C 5.86 g/m*3 0.4 C 22.5 km/h
2689 07-01-2012 08:15:00 4.8 C 5.9 g/m*3 0.19 C 25.7 km/h
2690 07-01-2012 08:20:00 4.8 C 5.9 g/m*3 0.19 C 25.7 km/h
2691 07-01-2012 08:25:00 4.8 C 5.9 g/m*3 0.9 C 19.3 km/h
2692 07-01-2012 08:30:00 4.8 C 5.9 g/m*3 0.52 C 22.5 km/h
2693 07-01-2012 08:35:00 4.8 C 5.9 g/m*3 1.11 C 17.7 km/h
2694 07-01-2012 08:40:00 4.8 C 5.97 g/m*3 1.58 C 14.5 km/h
2695 07-01-2012 08:45:00 4.8 C 5.97 g/m*3 0.71 C 20.9 km/h
2696 07-01-2012 08:50:00 4.8 C 5.97 g/m*3 0.71 C 20.9 km/h
2697 07-01-2012 08:55:00 4.8 C 6.04 g/m*3 1.34 C 16.1 km/h
2698 07-01-2012 09:00:00 4.8 C 6.04 g/m*3 0.9 C 19.3 km/h
2699 07-01-2012 09:05:00 4.8 C 6.04 g/m*3 1.58 C 14.5 km/h
2700 07-01-2012 09:10:00 4.9 C 6.08 g/m*3 0.83 C 20.9 km/h
Sensor: Nr:Datum:Temp:Abs-Feuchte:Windchill:Wind:
Aussen-T/F 2701 07-01-2012 09:15:00 4.9 C 6.08 g/m*3 1.24 C 17.7 km/h
2702 07-01-2012 09:20:00 5 C 6.12 g/m*3 0.61 C 24.1 km/h
2703 07-01-2012 09:25:00 5 C 6.05 g/m*3 1.15 C 19.3 km/h
2704 07-01-2012 09:30:00 5.1 C 6.09 g/m*3 1.49 C 17.7 km/h
2705 07-01-2012 09:35:00 5.1 C 6.09 g/m*3 1.09 C 20.9 km/h
2706 07-01-2012 09:40:00 5.2 C 6.13 g/m*3 1.03 C 22.5 km/h
2707 07-01-2012 09:45:00 5.3 C 6.1 g/m*3 1.34 C 20.9 km/h
2708 07-01-2012 09:50:00 5.4 C 6.14 g/m*3 1.47 C 20.9 km/h
2709 07-01-2012 09:55:00 5.5 C 6.18 g/m*3 1.25 C 24.1 km/h
2710 07-01-2012 10:00:00 5.5 C 6.18 g/m*3 1.99 C 17.7 km/h
2711 07-01-2012 10:05:00 5.6 C 6.22 g/m*3 2.33 C 16.1 km/h
2712 07-01-2012 10:10:00 5.6 C 6.22 g/m*3 2.33 C 16.1 km/h
2713 07-01-2012 10:15:00 5.7 C 6.26 g/m*3 2.69 C 14.5 km/h
2714 07-01-2012 10:20:00 5.7 C 6.26 g/m*3 2.45 C 16.1 km/h
2715 07-01-2012 10:25:00 5.8 C 6.3 g/m*3 3.07 C 12.9 km/h
2716 07-01-2012 10:30:00 5.9 C 6.27 g/m*3 2.93 C 14.5 km/h
2717 07-01-2012 10:35:00 5.9 C 6.27 g/m*3 3.48 C 11.3 km/h
2718 07-01-2012 10:40:00 6 C 6.31 g/m*3 3.31 C 12.9 km/h
2719 07-01-2012 10:45:00 6.1 C 6.43 g/m*3 3.72 C 11.3 km/h
2720 07-01-2012 10:50:00 6.1 C 6.43 g/m*3 3.18 C 14.5 km/h
2721 07-01-2012 10:55:00 6.1 C 6.5 g/m*3 2.95 C 16.1 km/h
2722 07-01-2012 11:00:00 6.2 C 6.47 g/m*3 2.66 C 19.3 km/h
2723 07-01-2012 11:05:00 6.3 C 6.51 g/m*3 3.96 C 11.3 km/h
2724 07-01-2012 11:10:00 6.3 C 6.51 g/m*3 3.68 C 12.9 km/h
2725 07-01-2012 11:15:00 6.3 C 6.51 g/m*3 3.96 C 11.3 km/h
Sensor: Nr:Datum:Temp:Abs-Feuchte:Windchill:Wind:
Aussen-T/F 2726 07-01-2012 11:20:00 6.4 C 6.56 g/m*3 2.91 C 19.3 km/h
2727 07-01-2012 11:25:00 6.4 C 6.56 g/m*3 3.32 C 16.1 km/h
2728 07-01-2012 11:30:00 6.4 C 6.56 g/m*3 4.08 C 11.3 km/h
2729 07-01-2012 11:35:00 6.6 C 6.64 g/m*3 3.79 C 14.5 km/h
2730 07-01-2012 11:40:00 6.7 C 6.61 g/m*3 3.92 C 14.5 km/h
2731 07-01-2012 11:45:00 6.7 C 6.61 g/m*3 4.17 C 12.9 km/h
2732 07-01-2012 11:50:00 6.7 C 6.61 g/m*3 4.75 C 9.7 km/h
2733 07-01-2012 11:55:00 6.9 C 6.7 g/m*3 4.41 C 12.9 km/h
2734 07-01-2012 12:00:00 7 C 6.74 g/m*3 4.8 C 11.3 km/h
2735 07-01-2012 12:05:00 7 C 6.74 g/m*3 4.8 C 11.3 km/h
2736 07-01-2012 12:10:00 6.9 C 6.7 g/m*3 4.41 C 12.9 km/h
2737 07-01-2012 12:15:00 6.8 C 6.73 g/m*3 4.56 C 11.3 km/h
2738 07-01-2012 12:20:00 6.8 C 6.81 g/m*3 5.67 C 6.4 km/h
2739 07-01-2012 12:25:00 6.7 C 6.91 g/m*3 5.56 C 6.4 km/h
2740 07-01-2012 12:30:00 6.7 C 6.91 g/m*3 4.75 C 9.7 km/h
2741 07-01-2012 12:35:00 6.7 C 6.91 g/m*3 4.44 C 11.3 km/h
2742 07-01-2012 12:40:00 6.7 C 6.91 g/m*3 4.17 C 12.9 km/h
2743 07-01-2012 12:45:00 6.7 C 6.91 g/m*3 4.44 C 11.3 km/h
2744 07-01-2012 12:50:00 6.8 C 6.96 g/m*3 4.56 C 11.3 km/h
2745 07-01-2012 12:55:00 6.8 C 6.96 g/m*3 4.87 C 9.7 km/h
2746 07-01-2012 13:00:00 6.9 C 6.93 g/m*3 3.73 C 17.7 km/h
2747 07-01-2012 13:05:00 7 C 6.9 g/m*3 4.29 C 14.5 km/h
2748 07-01-2012 13:10:00 7.1 C 6.94 g/m*3 5.58 C 8.1 km/h
2749 07-01-2012 13:15:00 7.1 C 7.02 g/m*3 4.92 C 11.3 km/h
2750 07-01-2012 13:20:00 7.1 C 7.02 g/m*3 4.92 C 11.3 km/h
Sensor: Nr:Datum:Temp:Abs-Feuchte:Windchill:Wind:
Aussen-T/F 2751 07-01-2012 13:25:00 7.1 C 7.1 g/m*3 6.02 C 6.4 km/h
2752 07-01-2012 13:30:00 7.2 C 7.06 g/m*3 5.69 C 8.1 km/h
2753 07-01-2012 13:35:00 7.3 C 7.03 g/m*3 5.16 C 11.3 km/h
2754 07-01-2012 13:40:00 7.4 C 7 g/m*3 6.37 C 6.4 km/h
2755 07-01-2012 13:45:00 7.5 C 6.96 g/m*3 4.9 C 14.5 km/h
2756 07-01-2012 13:50:00 7.8 C 6.77 g/m*3 5.27 C 14.5 km/h
2757 07-01-2012 13:55:00 7.9 C 6.82 g/m*3 6.52 C 8.1 km/h
2758 07-01-2012 14:00:00 8 C 6.94 g/m*3 7.06 C 6.4 km/h
2759 07-01-2012 14:05:00 7.9 C 6.98 g/m*3 7.9 C 4.8 km/h
2760 07-01-2012 14:10:00 7.8 C 6.94 g/m*3 6.83 C 6.4 km/h
2761 07-01-2012 14:15:00 7.8 C 6.77 g/m*3 6.83 C 6.4 km/h
2762 07-01-2012 14:20:00 7.8 C 6.77 g/m*3 6.83 C 6.4 km/h
2763 07-01-2012 14:25:00 7.9 C 6.74 g/m*3 5.18 C 16.1 km/h
2764 07-01-2012 14:30:00 8 C 6.53 g/m*3 5.52 C 14.5 km/h
2765 07-01-2012 14:35:00 8 C 6.45 g/m*3 4.93 C 19.3 km/h
2766 07-01-2012 14:40:00 7.9 C 6.49 g/m*3 5.63 C 12.9 km/h
2767 07-01-2012 14:45:00 7.7 C 6.57 g/m*3 5.38 C 12.9 km/h
2768 07-01-2012 14:50:00 7.5 C 6.56 g/m*3 4.9 C 14.5 km/h
2769 07-01-2012 14:55:00 7.4 C 6.6 g/m*3 5.93 C 8.1 km/h
2770 07-01-2012 15:00:00 7.4 C 6.6 g/m*3 5.02 C 12.9 km/h
2771 07-01-2012 15:05:00 7.4 C 6.68 g/m*3 4.56 C 16.1 km/h
2772 07-01-2012 15:10:00 7.4 C 6.6 g/m*3 4.36 C 17.7 km/h
2773 07-01-2012 15:15:00 7.4 C 6.68 g/m*3 5.28 C 11.3 km/h
2774 07-01-2012 15:20:00 7.3 C 6.64 g/m*3 5.81 C 8.1 km/h
2775 07-01-2012 15:25:00 7.2 C 6.59 g/m*3 4.31 C 16.1 km/h
Sensor: Nr:Datum:Temp:Abs-Feuchte:Windchill:Wind:
Aussen-T/F 2776 07-01-2012 15:30:00 7.2 C 6.67 g/m*3 5.04 C 11.3 km/h
2777 07-01-2012 15:35:00 7 C 6.59 g/m*3 5.11 C 9.7 km/h
2778 07-01-2012 15:40:00 6.9 C 6.47 g/m*3 5.34 C 8.1 km/h
2779 07-01-2012 15:45:00 6.9 C 6.54 g/m*3 4.99 C 9.7 km/h
2780 07-01-2012 15:50:00 6.8 C 6.58 g/m*3 5.22 C 8.1 km/h
2781 07-01-2012 15:55:00 6.9 C 6.54 g/m*3 4.16 C 14.5 km/h
2782 07-01-2012 16:00:00 7.1 C 6.47 g/m*3 4.65 C 12.9 km/h
2783 07-01-2012 16:05:00 7.3 C 6.32 g/m*3 4.9 C 12.9 km/h
2784 07-01-2012 16:10:00 7.4 C 6.44 g/m*3 5.93 C 8.1 km/h
2785 07-01-2012 16:15:00 7.3 C 6.4 g/m*3 5.47 C 9.7 km/h
2786 07-01-2012 16:20:00 7.3 C 6.48 g/m*3 5.81 C 8.1 km/h
2787 07-01-2012 16:25:00 7.2 C 6.52 g/m*3 5.69 C 8.1 km/h
2788 07-01-2012 16:30:00 7.1 C 6.47 g/m*3 4.65 C 12.9 km/h
2789 07-01-2012 16:35:00 7.1 C 6.32 g/m*3 4.92 C 11.3 km/h
2790 07-01-2012 16:40:00 7.1 C 6.4 g/m*3 4.65 C 12.9 km/h
2791 07-01-2012 16:45:00 7.1 C 6.4 g/m*3 4.41 C 14.5 km/h
2792 07-01-2012 16:50:00 7.1 C 6.32 g/m*3 3.8 C 19.3 km/h
2793 07-01-2012 16:55:00 7 C 6.28 g/m*3 4.29 C 14.5 km/h
2794 07-01-2012 17:00:00 6.9 C 6.24 g/m*3 4.16 C 14.5 km/h
2795 07-01-2012 17:05:00 6.7 C 6.23 g/m*3 4.17 C 12.9 km/h
2796 07-01-2012 17:10:00 6.6 C 6.19 g/m*3 5.44 C 6.4 km/h
2797 07-01-2012 17:15:00 6.6 C 6.19 g/m*3 3.79 C 14.5 km/h
2798 07-01-2012 17:20:00 6.6 C 6.11 g/m*3 3.57 C 16.1 km/h
2799 07-01-2012 17:25:00 6.7 C 6.15 g/m*3 3.69 C 16.1 km/h
2800 07-01-2012 17:30:00 6.7 C 6.15 g/m*3 5.11 C 8.1 km/h
Sensor: Nr:Datum:Temp:Abs-Feuchte:Windchill:Wind:
Aussen-T/F 2801 07-01-2012 17:35:00 6.7 C 6.15 g/m*3 4.44 C 11.3 km/h
2802 07-01-2012 17:40:00 6.8 C 6.12 g/m*3 4.56 C 11.3 km/h
2803 07-01-2012 17:45:00 6.7 C 6.08 g/m*3 5.56 C 6.4 km/h
2804 07-01-2012 17:50:00 6.7 C 6.08 g/m*3 5.11 C 8.1 km/h
2805 07-01-2012 17:55:00 6.8 C 6.04 g/m*3 4.29 C 12.9 km/h
2806 07-01-2012 18:00:00 6.9 C 6 g/m*3 3.94 C 16.1 km/h
2807 07-01-2012 18:05:00 7.1 C 6.08 g/m*3 4.41 C 14.5 km/h
2808 07-01-2012 18:10:00 7.1 C 6.08 g/m*3 4.19 C 16.1 km/h
2809 07-01-2012 18:15:00 6.9 C 6 g/m*3 3.54 C 19.3 km/h
2810 07-01-2012 18:20:00 6.9 C 6 g/m*3 4.68 C 11.3 km/h
2811 07-01-2012 18:25:00 6.7 C 6 g/m*3 4.75 C 9.7 km/h
2812 07-01-2012 18:30:00 6.7 C 6 g/m*3 3.29 C 19.3 km/h
2813 07-01-2012 18:35:00 6.7 C 5.93 g/m*3 4.17 C 12.9 km/h
2814 07-01-2012 18:40:00 6.8 C 5.97 g/m*3 4.56 C 11.3 km/h
2815 07-01-2012 18:45:00 6.7 C 5.93 g/m*3 5.11 C 8.1 km/h
2816 07-01-2012 18:50:00 6.7 C 5.85 g/m*3 3.92 C 14.5 km/h
2817 07-01-2012 18:55:00 6.8 C 5.89 g/m*3 4.56 C 11.3 km/h
2818 07-01-2012 19:00:00 6.9 C 5.85 g/m*3 3.94 C 16.1 km/h
2819 07-01-2012 19:05:00 7.1 C 5.77 g/m*3 4.41 C 14.5 km/h
2820 07-01-2012 19:10:00 7.1 C 5.77 g/m*3 4.65 C 12.9 km/h
2821 07-01-2012 19:15:00 7.1 C 5.85 g/m*3 4.19 C 16.1 km/h
2822 07-01-2012 19:20:00 7.1 C 5.85 g/m*3 4.19 C 16.1 km/h
2823 07-01-2012 19:25:00 7.1 C 5.77 g/m*3 4.19 C 16.1 km/h
2824 07-01-2012 19:30:00 7.1 C 5.77 g/m*3 4.65 C 12.9 km/h
2825 07-01-2012 19:35:00 7.1 C 5.77 g/m*3 4.65 C 12.9 km/h
Sensor: Nr:Datum:Temp:Abs-Feuchte:Windchill:Wind:
Aussen-T/F 2826 07-01-2012 19:40:00 7.1 C 5.85 g/m*3 5.58 C 8.1 km/h
2827 07-01-2012 19:45:00 7 C 5.81 g/m*3 5.46 C 8.1 km/h
2828 07-01-2012 19:50:00 6.9 C 5.85 g/m*3 4.16 C 14.5 km/h
2829 07-01-2012 19:55:00 6.8 C 5.97 g/m*3 4.04 C 14.5 km/h
2830 07-01-2012 20:00:00 6.4 C 5.96 g/m*3 4.08 C 11.3 km/h
2831 07-01-2012 20:05:00 6.1 C 5.99 g/m*3 3.18 C 14.5 km/h
2832 07-01-2012 20:10:00 5.8 C 6.02 g/m*3 5.8 C 4.8 km/h
2833 07-01-2012 20:15:00 5.7 C 6.05 g/m*3 3.56 C 9.7 km/h
2834 07-01-2012 20:20:00 5.5 C 6.04 g/m*3 3.7 C 8.1 km/h
2835 07-01-2012 20:25:00 5.4 C 6 g/m*3 2.87 C 11.3 km/h
2836 07-01-2012 20:30:00 5.4 C 6 g/m*3 3.58 C 8.1 km/h
2837 07-01-2012 20:35:00 5.3 C 6.03 g/m*3 3.94 C 6.4 km/h
2838 07-01-2012 20:40:00 5.3 C 5.96 g/m*3 3.08 C 9.7 km/h
2839 07-01-2012 20:45:00 5.2 C 5.92 g/m*3 1.61 C 17.7 km/h
2840 07-01-2012 20:50:00 5.2 C 5.92 g/m*3 2.63 C 11.3 km/h
2841 07-01-2012 20:55:00 5.2 C 5.92 g/m*3 2.63 C 11.3 km/h
2842 07-01-2012 21:00:00 5.2 C 5.99 g/m*3 3.82 C 6.4 km/h
2843 07-01-2012 21:05:00 5.2 C 5.92 g/m*3 2.63 C 11.3 km/h
2844 07-01-2012 21:10:00 5.1 C 6.02 g/m*3 5.1 C 3.2 km/h
2845 07-01-2012 21:15:00 4.9 C 6.01 g/m*3 4.9 C 3.2 km/h
2846 07-01-2012 21:20:00 4.9 C 5.94 g/m*3 2.27 C 11.3 km/h
2847 07-01-2012 21:25:00 5.1 C 6.02 g/m*3 3.23 C 8.1 km/h
2848 07-01-2012 21:30:00 5.1 C 6.02 g/m*3 3.23 C 8.1 km/h
2849 07-01-2012 21:35:00 5.1 C 6.02 g/m*3 3.71 C 6.4 km/h
2850 07-01-2012 21:40:00 4.9 C 6.01 g/m*3 4.9 C 4.8 km/h
Sensor: Nr:Datum:Temp:Abs-Feuchte:Windchill:Wind:
Aussen-T/F 2851 07-01-2012 21:45:00 4.9 C 5.94 g/m*3 2.99 C 8.1 km/h
2852 07-01-2012 21:50:00 4.8 C 5.97 g/m*3 2.87 C 8.1 km/h
2853 07-01-2012 21:55:00 4.8 C 5.97 g/m*3 1.85 C 12.9 km/h
2854 07-01-2012 22:00:00 4.8 C 5.97 g/m*3 2.87 C 8.1 km/h
2855 07-01-2012 22:05:00 4.9 C 6.01 g/m*3 2.61 C 9.7 km/h
2856 07-01-2012 22:10:00 4.9 C 6.01 g/m*3 2.61 C 9.7 km/h
2857 07-01-2012 22:15:00 5.1 C 6.09 g/m*3 3.23 C 8.1 km/h
2858 07-01-2012 22:20:00 5.1 C 6.09 g/m*3 3.23 C 8.1 km/h
2859 07-01-2012 22:25:00 5.1 C 6.02 g/m*3 3.23 C 8.1 km/h
2860 07-01-2012 22:30:00 5.2 C 6.06 g/m*3 3.82 C 6.4 km/h
2861 07-01-2012 22:35:00 5.2 C 6.06 g/m*3 3.82 C 6.4 km/h
2862 07-01-2012 22:40:00 5.1 C 6.09 g/m*3 2.84 C 9.7 km/h
2863 07-01-2012 22:45:00 5 C 6.05 g/m*3 2.72 C 9.7 km/h
2864 07-01-2012 22:50:00 4.9 C 6.01 g/m*3 2.61 C 9.7 km/h
2865 07-01-2012 22:55:00 4.9 C 6.01 g/m*3 2.27 C 11.3 km/h
2866 07-01-2012 23:00:00 4.8 C 5.97 g/m*3 4.8 C 4.8 km/h
2867 07-01-2012 23:05:00 4.8 C 6.04 g/m*3 4.8 C 3.2 km/h
2868 07-01-2012 23:10:00 4.7 C 6 g/m*3 4.7 C 3.2 km/h
2869 07-01-2012 23:15:00 4.6 C 6.02 g/m*3 4.6 C 3.2 km/h
2870 07-01-2012 23:20:00 4.5 C 6.05 g/m*3 4.5 C 4.8 km/h
2871 07-01-2012 23:25:00 4.4 C 6.01 g/m*3 2.9 C 6.4 km/h
2872 07-01-2012 23:30:00 4.4 C 6.01 g/m*3 4.4 C 4.8 km/h
2873 07-01-2012 23:35:00 4.4 C 6.01 g/m*3 2.9 C 6.4 km/h
2874 07-01-2012 23:40:00 4.4 C 6.01 g/m*3 2.9 C 6.4 km/h
2875 07-01-2012 23:45:00 4.5 C 5.98 g/m*3 4.5 C 4.8 km/h
Sensor: Nr:Datum:Temp:Abs-Feuchte:Windchill:Wind:
Aussen-T/F 2876 07-01-2012 23:50:00 4.6 C 6.02 g/m*3 1.91 C 11.3 km/h
2877 07-01-2012 23:55:00 4.7 C 5.93 g/m*3 2.03 C 11.3 km/h
2878 08-01-2012 00:00:00 4.9 C 5.94 g/m*3 1.7 C 14.5 km/h
2879 08-01-2012 00:05:00 5.1 C 5.95 g/m*3 2.22 C 12.9 km/h
2880 08-01-2012 00:10:00 5.2 C 5.99 g/m*3 2.63 C 11.3 km/h
2881 08-01-2012 00:15:00 5.2 C 6.06 g/m*3 3.82 C 6.4 km/h
2882 08-01-2012 00:20:00 5.2 C 6.06 g/m*3 3.34 C 8.1 km/h
2883 08-01-2012 00:25:00 5.2 C 6.06 g/m*3 5.2 C 4.8 km/h
2884 08-01-2012 00:30:00 5.2 C 6.06 g/m*3 2.63 C 11.3 km/h
2885 08-01-2012 00:35:00 5.2 C 6.06 g/m*3 2.63 C 11.3 km/h
2886 08-01-2012 00:40:00 5.3 C 6.03 g/m*3 1.96 C 16.1 km/h
2887 08-01-2012 00:45:00 5.3 C 6.1 g/m*3 1.96 C 16.1 km/h
2888 08-01-2012 00:50:00 5.3 C 6.03 g/m*3 3.46 C 8.1 km/h
2889 08-01-2012 00:55:00 5.2 C 6.06 g/m*3 3.34 C 8.1 km/h
2890 08-01-2012 01:00:00 5.1 C 6.09 g/m*3 5.1 C 4.8 km/h
2891 08-01-2012 01:05:00 5.1 C 6.09 g/m*3 5.1 C 3.2 km/h
2892 08-01-2012 01:10:00 4.9 C 6.01 g/m*3 3.48 C 6.4 km/h
2893 08-01-2012 01:15:00 4.9 C 6.08 g/m*3 4.9 C 4.8 km/h
2894 08-01-2012 01:20:00 4.8 C 6.04 g/m*3 4.8 C 4.8 km/h
2895 08-01-2012 01:25:00 4.8 C 5.97 g/m*3 3.36 C 6.4 km/h
2896 08-01-2012 01:30:00 4.8 C 6.04 g/m*3 4.8 C 4.8 km/h
2897 08-01-2012 01:35:00 4.8 C 6.04 g/m*3 4.8 C 4.8 km/h
2898 08-01-2012 01:40:00 4.9 C 6.01 g/m*3 2.27 C 11.3 km/h
2899 08-01-2012 01:45:00 5.1 C 6.09 g/m*3 5.1 C 4.8 km/h
2900 08-01-2012 01:50:00 5.1 C 6.02 g/m*3 2.84 C 9.7 km/h
Sensor: Nr:Datum:Temp:Abs-Feuchte:Windchill:Wind:
Aussen-T/F 2901 08-01-2012 01:55:00 5.2 C 6.06 g/m*3 3.82 C 6.4 km/h
2902 08-01-2012 02:00:00 5.3 C 6.03 g/m*3 3.94 C 6.4 km/h
2903 08-01-2012 02:05:00 5.3 C 6.1 g/m*3 5.3 C 4.8 km/h
2904 08-01-2012 02:10:00 5.2 C 6.06 g/m*3 5.2 C 3.2 km/h
2905 08-01-2012 02:15:00 5.2 C 6.13 g/m*3 3.34 C 8.1 km/h
2906 08-01-2012 02:20:00 5.2 C 6.06 g/m*3 5.2 C 4.8 km/h
2907 08-01-2012 02:25:00 5.2 C 6.13 g/m*3 5.2 C 4.8 km/h
2908 08-01-2012 02:30:00 5.2 C 6.13 g/m*3 5.2 C 3.2 km/h
2909 08-01-2012 02:35:00 5.1 C 6.09 g/m*3 5.1 C 4.8 km/h
2910 08-01-2012 02:40:00 5.1 C 6.02 g/m*3 2.84 C 9.7 km/h
2911 08-01-2012 02:45:00 5.2 C 6.13 g/m*3 3.34 C 8.1 km/h
2912 08-01-2012 02:50:00 5.2 C 6.06 g/m*3 5.2 C 4.8 km/h
2913 08-01-2012 02:55:00 5.3 C 6.1 g/m*3 5.3 C 4.8 km/h
2914 08-01-2012 03:00:00 5.3 C 6.1 g/m*3 3.94 C 6.4 km/h
2915 08-01-2012 03:05:00 5.3 C 6.03 g/m*3 3.94 C 6.4 km/h
2916 08-01-2012 03:10:00 5.4 C 6.07 g/m*3 3.58 C 8.1 km/h
2917 08-01-2012 03:15:00 5.6 C 6.15 g/m*3 3.81 C 8.1 km/h
2918 08-01-2012 03:20:00 5.7 C 6.12 g/m*3 4.4 C 6.4 km/h
2919 08-01-2012 03:25:00 5.7 C 6.12 g/m*3 4.4 C 6.4 km/h
2920 08-01-2012 03:30:00 5.7 C 6.12 g/m*3 3.93 C 8.1 km/h
2921 08-01-2012 03:35:00 5.7 C 6.05 g/m*3 2.95 C 12.9 km/h
2922 08-01-2012 03:40:00 5.7 C 6.05 g/m*3 3.23 C 11.3 km/h
2923 08-01-2012 03:45:00 5.8 C 6.09 g/m*3 3.68 C 9.7 km/h
2924 08-01-2012 03:50:00 5.8 C 6.09 g/m*3 4.52 C 6.4 km/h
2925 08-01-2012 03:55:00 5.8 C 6.16 g/m*3 5.8 C 4.8 km/h
Sensor: Nr:Datum:Temp:Abs-Feuchte:Windchill:Wind:
Aussen-T/F 2926 08-01-2012 04:00:00 5.7 C 6.12 g/m*3 4.4 C 6.4 km/h
2927 08-01-2012 04:05:00 5.6 C 6.08 g/m*3 3.44 C 9.7 km/h
2928 08-01-2012 04:10:00 5.5 C 6.04 g/m*3 2.99 C 11.3 km/h
2929 08-01-2012 04:15:00 5.6 C 6.08 g/m*3 3.81 C 8.1 km/h
2930 08-01-2012 04:20:00 5.7 C 6.12 g/m*3 3.93 C 8.1 km/h
2931 08-01-2012 04:25:00 5.7 C 6.12 g/m*3 3.23 C 11.3 km/h
2932 08-01-2012 04:30:00 5.7 C 6.12 g/m*3 3.93 C 8.1 km/h
2933 08-01-2012 04:35:00 5.6 C 6.08 g/m*3 3.81 C 8.1 km/h
2934 08-01-2012 04:40:00 5.6 C 6.08 g/m*3 3.44 C 9.7 km/h
2935 08-01-2012 04:45:00 5.6 C 6.15 g/m*3 3.44 C 9.7 km/h
2936 08-01-2012 04:50:00 5.6 C 6.22 g/m*3 4.29 C 6.4 km/h
2937 08-01-2012 04:55:00 5.5 C 6.18 g/m*3 3.7 C 8.1 km/h
2938 08-01-2012 05:00:00 5.5 C 6.18 g/m*3 3.32 C 9.7 km/h
2939 08-01-2012 05:05:00 5.4 C 6.21 g/m*3 4.06 C 6.4 km/h
2940 08-01-2012 05:10:00 5.4 C 6.21 g/m*3 5.4 C 4.8 km/h
2941 08-01-2012 05:15:00 5.4 C 6.21 g/m*3 2.87 C 11.3 km/h
2942 08-01-2012 05:20:00 5.4 C 6.14 g/m*3 3.2 C 9.7 km/h
2943 08-01-2012 05:25:00 5.5 C 6.25 g/m*3 4.17 C 6.4 km/h
2944 08-01-2012 05:30:00 5.6 C 6.22 g/m*3 3.44 C 9.7 km/h
2945 08-01-2012 05:35:00 5.6 C 6.22 g/m*3 3.81 C 8.1 km/h
2946 08-01-2012 05:40:00 5.6 C 6.15 g/m*3 3.44 C 9.7 km/h
2947 08-01-2012 05:45:00 5.6 C 6.15 g/m*3 3.81 C 8.1 km/h
2948 08-01-2012 05:50:00 5.6 C 6.15 g/m*3 3.44 C 9.7 km/h
2949 08-01-2012 05:55:00 5.6 C 6.15 g/m*3 4.29 C 6.4 km/h
2950 08-01-2012 06:00:00 5.6 C 6.15 g/m*3 5.6 C 4.8 km/h
Sensor: Nr:Datum:Temp:Abs-Feuchte:Windchill:Wind:
Aussen-T/F 2951 08-01-2012 06:05:00 5.6 C 6.22 g/m*3 5.6 C 4.8 km/h
2952 08-01-2012 06:10:00 5.5 C 6.18 g/m*3 4.17 C 6.4 km/h
2953 08-01-2012 06:15:00 5.5 C 6.18 g/m*3 3.7 C 8.1 km/h
2954 08-01-2012 06:20:00 5.4 C 6.21 g/m*3 3.58 C 8.1 km/h
2955 08-01-2012 06:25:00 5.4 C 6.21 g/m*3 3.2 C 9.7 km/h
2956 08-01-2012 06:30:00 5.4 C 6.21 g/m*3 3.2 C 9.7 km/h
2957 08-01-2012 06:35:00 5.4 C 6.28 g/m*3 4.06 C 6.4 km/h
2958 08-01-2012 06:40:00 5.3 C 6.24 g/m*3 3.46 C 8.1 km/h
2959 08-01-2012 06:45:00 5.3 C 6.24 g/m*3 3.46 C 8.1 km/h
2960 08-01-2012 06:50:00 5.3 C 6.24 g/m*3 3.94 C 6.4 km/h
2961 08-01-2012 06:55:00 5.3 C 6.17 g/m*3 3.46 C 8.1 km/h
2962 08-01-2012 07:00:00 5.3 C 6.24 g/m*3 3.46 C 8.1 km/h
2963 08-01-2012 07:05:00 5.3 C 6.24 g/m*3 3.94 C 6.4 km/h
2964 08-01-2012 07:10:00 5.3 C 6.24 g/m*3 2.75 C 11.3 km/h
2965 08-01-2012 07:15:00 5.3 C 6.24 g/m*3 3.94 C 6.4 km/h
2966 08-01-2012 07:20:00 5.3 C 6.17 g/m*3 3.94 C 6.4 km/h
2967 08-01-2012 07:25:00 5.3 C 6.17 g/m*3 3.94 C 6.4 km/h
2968 08-01-2012 07:30:00 5.3 C 6.17 g/m*3 5.3 C 4.8 km/h
2969 08-01-2012 07:35:00 5.3 C 6.17 g/m*3 3.08 C 9.7 km/h
2970 08-01-2012 07:40:00 5.4 C 6.14 g/m*3 3.58 C 8.1 km/h
2971 08-01-2012 07:45:00 5.5 C 6.18 g/m*3 3.7 C 8.1 km/h
2972 08-01-2012 07:50:00 5.6 C 6.22 g/m*3 4.29 C 6.4 km/h
2973 08-01-2012 07:55:00 5.6 C 6.22 g/m*3 3.81 C 8.1 km/h
2974 08-01-2012 08:00:00 5.6 C 6.22 g/m*3 4.29 C 6.4 km/h
2975 08-01-2012 08:05:00 5.6 C 6.22 g/m*3 3.11 C 11.3 km/h
Sensor: Nr:Datum:Temp:Abs-Feuchte:Windchill:Wind:
Aussen-T/F 2976 08-01-2012 08:10:00 5.6 C 6.15 g/m*3 4.29 C 6.4 km/h
2977 08-01-2012 08:15:00 5.7 C 6.19 g/m*3 5.7 C 4.8 km/h
2978 08-01-2012 08:20:00 5.7 C 6.26 g/m*3 5.7 C 4.8 km/h
2979 08-01-2012 08:25:00 5.6 C 6.29 g/m*3 4.29 C 6.4 km/h
2980 08-01-2012 08:30:00 5.6 C 6.22 g/m*3 4.29 C 6.4 km/h
2981 08-01-2012 08:35:00 5.6 C 6.22 g/m*3 4.29 C 6.4 km/h
2982 08-01-2012 08:40:00 5.6 C 6.22 g/m*3 5.6 C 4.8 km/h
2983 08-01-2012 08:45:00 5.6 C 6.15 g/m*3 5.6 C 4.8 km/h
2984 08-01-2012 08:50:00 5.6 C 6.22 g/m*3 5.6 C 4.8 km/h
2985 08-01-2012 08:55:00 5.6 C 6.22 g/m*3 5.6 C 4.8 km/h
2986 08-01-2012 09:00:00 5.4 C 6.07 g/m*3 2.32 C 14.5 km/h
2987 08-01-2012 09:05:00 5 C 5.98 g/m*3 2.72 C 9.7 km/h
2988 08-01-2012 09:10:00 4.7 C 5.86 g/m*3 1.73 C 12.9 km/h
2989 08-01-2012 09:15:00 4.6 C 5.89 g/m*3 1.91 C 11.3 km/h
2990 08-01-2012 09:20:00 4.4 C 5.88 g/m*3 4.4 C 4.8 km/h
2991 08-01-2012 09:25:00 4.3 C 5.9 g/m*3 2.78 C 6.4 km/h
2992 08-01-2012 09:30:00 4.4 C 5.94 g/m*3 4.4 C 4.8 km/h
2993 08-01-2012 09:35:00 4.4 C 5.94 g/m*3 1.67 C 11.3 km/h
2994 08-01-2012 09:40:00 4.6 C 6.02 g/m*3 2.64 C 8.1 km/h
2995 08-01-2012 09:45:00 4.8 C 6.04 g/m*3 3.36 C 6.4 km/h
2996 08-01-2012 09:52:00 4.9 C 6.08 g/m*3 2.99 C 8.1 km/h
2997 08-01-2012 09:55:00 5 C 6.12 g/m*3 5 C 3.2 km/h
2998 08-01-2012 10:00:00 5 C 6.18 g/m*3 3.59 C 6.4 km/h
2999 08-01-2012 10:05:00 5.1 C 6.16 g/m*3 3.71 C 6.4 km/h
3000 08-01-2012 10:10:00 5.2 C 6.27 g/m*3 5.2 C 4.8 km/h
Sensor: Nr:Datum:Temp:Abs-Feuchte:Windchill:Wind:
Aussen-T/F 3001 08-01-2012 10:15:00 5.2 C 6.27 g/m*3 5.2 C 4.8 km/h
3002 08-01-2012 10:20:00 5.3 C 6.31 g/m*3 2.75 C 11.3 km/h
3003 08-01-2012 10:25:00 5.4 C 6.21 g/m*3 4.06 C 6.4 km/h
3004 08-01-2012 10:30:00 5.6 C 6.36 g/m*3 4.29 C 6.4 km/h
3005 08-01-2012 10:35:00 5.7 C 6.26 g/m*3 5.7 C 4.8 km/h
3006 08-01-2012 10:40:00 5.7 C 6.26 g/m*3 4.4 C 6.4 km/h
3007 08-01-2012 10:45:00 5.8 C 6.23 g/m*3 4.05 C 8.1 km/h
3008 08-01-2012 10:50:00 5.8 C 6.23 g/m*3 5.8 C 4.8 km/h
3009 08-01-2012 10:55:00 5.8 C 6.23 g/m*3 4.52 C 6.4 km/h
3010 08-01-2012 11:00:00 5.9 C 6.27 g/m*3 4.63 C 6.4 km/h
3011 08-01-2012 11:05:00 5.9 C 6.27 g/m*3 4.17 C 8.1 km/h
3012 08-01-2012 11:10:00 6.1 C 6.36 g/m*3 6.1 C 3.2 km/h
3013 08-01-2012 11:15:00 6.2 C 6.32 g/m*3 4.15 C 9.7 km/h
3014 08-01-2012 11:20:00 6.3 C 6.29 g/m*3 4.64 C 8.1 km/h
3015 08-01-2012 11:25:00 6.3 C 6.29 g/m*3 5.1 C 6.4 km/h
3016 08-01-2012 11:30:00 6.3 C 6.37 g/m*3 5.1 C 6.4 km/h
3017 08-01-2012 11:35:00 6.4 C 6.33 g/m*3 6.4 C 3.2 km/h
3018 08-01-2012 11:40:00 6.4 C 6.33 g/m*3 6.4 C 4.8 km/h
3019 08-01-2012 11:45:00 6.6 C 6.34 g/m*3 6.6 C 4.8 km/h
3020 08-01-2012 11:50:00 6.6 C 6.42 g/m*3 6.6 C 3.2 km/h
3021 08-01-2012 11:55:00 6.7 C 6.38 g/m*3 4.44 C 11.3 km/h
3022 08-01-2012 12:00:00 6.8 C 6.42 g/m*3 5.67 C 6.4 km/h
3023 08-01-2012 12:05:00 6.8 C 6.27 g/m*3 5.67 C 6.4 km/h
3024 08-01-2012 12:10:00 6.9 C 6.39 g/m*3 5.79 C 6.4 km/h
3025 08-01-2012 12:15:00 6.9 C 6.31 g/m*3 5.79 C 6.4 km/h
Sensor: Nr:Datum:Temp:Abs-Feuchte:Windchill:Wind:
Aussen-T/F 3026 08-01-2012 12:20:00 7.1 C 6.4 g/m*3 4.92 C 11.3 km/h
3027 08-01-2012 12:25:00 7.1 C 6.32 g/m*3 4.19 C 16.1 km/h
3028 08-01-2012 12:30:00 7.2 C 6.28 g/m*3 4.77 C 12.9 km/h
3029 08-01-2012 12:35:00 7.2 C 6.2 g/m*3 5.35 C 9.7 km/h
3030 08-01-2012 12:40:00 7.3 C 6.24 g/m*3 5.81 C 8.1 km/h
3031 08-01-2012 12:45:00 7.3 C 6.16 g/m*3 4.66 C 14.5 km/h
3032 08-01-2012 12:50:00 7.3 C 6.24 g/m*3 5.81 C 8.1 km/h
3033 08-01-2012 12:55:00 7.3 C 6.16 g/m*3 5.81 C 8.1 km/h
3034 08-01-2012 13:00:00 7.4 C 6.2 g/m*3 5.93 C 8.1 km/h
3035 08-01-2012 13:05:00 7.4 C 6.2 g/m*3 5.58 C 9.7 km/h
3036 08-01-2012 13:10:00 7.4 C 6.12 g/m*3 5.28 C 11.3 km/h
3037 08-01-2012 13:15:00 7.5 C 6.16 g/m*3 5.41 C 11.3 km/h
3038 08-01-2012 13:20:00 7.5 C 6.16 g/m*3 6.05 C 8.1 km/h
3039 08-01-2012 13:25:00 7.6 C 6.2 g/m*3 6.6 C 6.4 km/h
3040 08-01-2012 13:30:00 7.6 C 6.12 g/m*3 6.16 C 8.1 km/h
3041 08-01-2012 13:35:00 7.6 C 6.12 g/m*3 5.53 C 11.3 km/h
3042 08-01-2012 13:40:00 7.6 C 6.12 g/m*3 5.53 C 11.3 km/h
3043 08-01-2012 13:45:00 7.6 C 6.12 g/m*3 6.16 C 8.1 km/h
3044 08-01-2012 13:50:00 7.6 C 5.96 g/m*3 5.53 C 11.3 km/h
3045 08-01-2012 13:55:00 7.6 C 6.04 g/m*3 5.82 C 9.7 km/h
3046 08-01-2012 14:00:00 7.6 C 5.96 g/m*3 5.26 C 12.9 km/h
3047 08-01-2012 14:05:00 7.7 C 5.92 g/m*3 5.65 C 11.3 km/h
3048 08-01-2012 14:10:00 7.7 C 5.92 g/m*3 5.38 C 12.9 km/h
3049 08-01-2012 14:15:00 7.7 C 5.84 g/m*3 5.38 C 12.9 km/h
3050 08-01-2012 14:20:00 7.6 C 5.8 g/m*3 5.53 C 11.3 km/h
Sensor: Nr:Datum:Temp:Abs-Feuchte:Windchill:Wind:
Aussen-T/F 3051 08-01-2012 14:25:00 7.6 C 5.72 g/m*3 5.53 C 11.3 km/h
3052 08-01-2012 14:30:00 7.6 C 5.8 g/m*3 5.82 C 9.7 km/h
3053 08-01-2012 14:35:00 7.5 C 5.76 g/m*3 5.41 C 11.3 km/h
3054 08-01-2012 14:40:00 7.5 C 5.76 g/m*3 5.7 C 9.7 km/h
3055 08-01-2012 14:45:00 7.6 C 5.64 g/m*3 5.53 C 11.3 km/h
3056 08-01-2012 14:50:00 7.6 C 5.64 g/m*3 6.16 C 8.1 km/h
3057 08-01-2012 14:55:00 7.6 C 5.72 g/m*3 6.16 C 8.1 km/h
3058 08-01-2012 15:00:00 7.6 C 5.72 g/m*3 6.16 C 8.1 km/h
3059 08-01-2012 15:05:00 7.6 C 5.72 g/m*3 5.82 C 9.7 km/h
3060 08-01-2012 15:10:00 7.6 C 5.72 g/m*3 5.53 C 11.3 km/h
3061 08-01-2012 15:15:00 7.7 C 5.76 g/m*3 4.93 C 16.1 km/h
3062 08-01-2012 15:20:00 7.7 C 5.76 g/m*3 5.38 C 12.9 km/h
3063 08-01-2012 15:25:00 7.7 C 5.76 g/m*3 5.65 C 11.3 km/h
3064 08-01-2012 15:30:00 7.7 C 5.76 g/m*3 5.65 C 11.3 km/h
3065 08-01-2012 15:35:00 7.6 C 5.72 g/m*3 5.82 C 9.7 km/h
3066 08-01-2012 15:40:00 7.6 C 5.64 g/m*3 5.26 C 12.9 km/h
3067 08-01-2012 15:45:00 7.6 C 5.64 g/m*3 5.82 C 9.7 km/h
3068 08-01-2012 15:50:00 7.6 C 5.72 g/m*3 6.6 C 6.4 km/h
3069 08-01-2012 15:55:00 7.6 C 5.72 g/m*3 5.82 C 9.7 km/h
3070 08-01-2012 16:00:00 7.7 C 5.76 g/m*3 5.65 C 11.3 km/h
3071 08-01-2012 16:05:00 7.7 C 5.59 g/m*3 5.94 C 9.7 km/h
3072 08-01-2012 16:10:00 7.7 C 5.59 g/m*3 5.38 C 12.9 km/h
3073 08-01-2012 16:15:00 7.7 C 5.59 g/m*3 5.94 C 9.7 km/h
3074 08-01-2012 16:20:00 7.7 C 5.68 g/m*3 5.65 C 11.3 km/h
3075 08-01-2012 16:25:00 7.7 C 5.68 g/m*3 4.73 C 17.7 km/h
Sensor: Nr:Datum:Temp:Abs-Feuchte:Windchill:Wind:
Aussen-T/F 3076 08-01-2012 16:30:00 7.6 C 5.64 g/m*3 5.02 C 14.5 km/h
3077 08-01-2012 16:35:00 7.6 C 5.64 g/m*3 4.81 C 16.1 km/h
3078 08-01-2012 16:40:00 7.6 C 5.64 g/m*3 4.61 C 17.7 km/h
3079 08-01-2012 16:45:00 7.6 C 5.72 g/m*3 6.16 C 8.1 km/h
3080 08-01-2012 16:50:00 7.5 C 5.76 g/m*3 4.68 C 16.1 km/h
3081 08-01-2012 16:55:00 7.4 C 5.73 g/m*3 4 C 20.9 km/h
3082 08-01-2012 17:00:00 7.4 C 5.81 g/m*3 5.93 C 8.1 km/h
3083 08-01-2012 17:05:00 7.4 C 5.81 g/m*3 5.93 C 8.1 km/h
3084 08-01-2012 17:10:00 7.3 C 5.93 g/m*3 6.25 C 6.4 km/h
3085 08-01-2012 17:15:00 7.2 C 5.97 g/m*3 4.77 C 12.9 km/h
3086 08-01-2012 17:20:00 7.1 C 6.01 g/m*3 4.92 C 11.3 km/h
3087 08-01-2012 17:25:00 7.1 C 6.01 g/m*3 5.23 C 9.7 km/h
3088 08-01-2012 17:30:00 7.1 C 5.93 g/m*3 5.58 C 8.1 km/h
3089 08-01-2012 17:35:00 7 C 6.2 g/m*3 7 C 4.8 km/h
3090 08-01-2012 17:40:00 6.8 C 6.19 g/m*3 6.8 C 4.8 km/h
3091 08-01-2012 17:45:00 6.7 C 6.08 g/m*3 5.56 C 6.4 km/h
3092 08-01-2012 17:50:00 6.7 C 6.08 g/m*3 6.7 C 4.8 km/h
3093 08-01-2012 17:55:00 6.7 C 6.08 g/m*3 4.44 C 11.3 km/h
3094 08-01-2012 18:00:00 6.7 C 6.15 g/m*3 6.7 C 3.2 km/h
3095 08-01-2012 18:05:00 6.7 C 6.15 g/m*3 6.7 C 4.8 km/h
3096 08-01-2012 18:10:00 6.7 C 6.08 g/m*3 6.7 C 3.2 km/h
3097 08-01-2012 18:15:00 6.8 C 6.12 g/m*3 3.42 C 19.3 km/h
3098 08-01-2012 18:20:00 6.7 C 6.15 g/m*3 4.17 C 12.9 km/h
3099 08-01-2012 18:25:00 6.6 C 6.19 g/m*3 4.99 C 8.1 km/h
3100 08-01-2012 18:30:00 6.3 C 6.22 g/m*3 5.1 C 6.4 km/h
Sensor: Nr:Datum:Temp:Abs-Feuchte:Windchill:Wind:
Aussen-T/F 3101 08-01-2012 18:35:00 6.2 C 6.32 g/m*3 4.98 C 6.4 km/h
3102 08-01-2012 18:40:00 6.1 C 6.36 g/m*3 4.4 C 8.1 km/h
3103 08-01-2012 18:45:00 5.9 C 6.35 g/m*3 5.9 C 4.8 km/h
3104 08-01-2012 18:50:00 5.8 C 6.23 g/m*3 5.8 C 4.8 km/h
3105 08-01-2012 18:55:00 5.9 C 6.2 g/m*3 3.48 C 11.3 km/h
3106 08-01-2012 19:00:00 6 C 6.24 g/m*3 4.28 C 8.1 km/h
3107 08-01-2012 19:05:00 6.1 C 6.28 g/m*3 3.72 C 11.3 km/h
3108 08-01-2012 19:10:00 6.1 C 6.21 g/m*3 4.86 C 6.4 km/h
3109 08-01-2012 19:15:00 6.2 C 6.25 g/m*3 4.98 C 6.4 km/h
3110 08-01-2012 19:20:00 6.1 C 6.21 g/m*3 4.4 C 8.1 km/h
3111 08-01-2012 19:25:00 6.2 C 6.18 g/m*3 4.98 C 6.4 km/h
3112 08-01-2012 19:30:00 6.3 C 6.22 g/m*3 6.3 C 3.2 km/h
3113 08-01-2012 19:35:00 6.3 C 6.29 g/m*3 5.1 C 6.4 km/h
3114 08-01-2012 19:40:00 6.3 C 6.14 g/m*3 5.1 C 6.4 km/h
3115 08-01-2012 19:45:00 6.4 C 6.18 g/m*3 4.75 C 8.1 km/h
3116 08-01-2012 19:50:00 6.5 C 6.15 g/m*3 4.2 C 11.3 km/h
3117 08-01-2012 19:55:00 6.6 C 6.19 g/m*3 4.99 C 8.1 km/h
3118 08-01-2012 20:00:00 6.6 C 6.19 g/m*3 6.6 C 4.8 km/h
3119 08-01-2012 20:05:00 6.6 C 6.27 g/m*3 4.63 C 9.7 km/h
3120 08-01-2012 20:10:00 6.5 C 6.3 g/m*3 4.51 C 9.7 km/h
3121 08-01-2012 20:15:00 6.4 C 6.26 g/m*3 3.11 C 17.7 km/h
3122 08-01-2012 20:20:00 6.3 C 6.22 g/m*3 5.1 C 6.4 km/h
3123 08-01-2012 20:25:00 6.2 C 6.25 g/m*3 3.84 C 11.3 km/h
3124 08-01-2012 20:30:00 6.1 C 6.21 g/m*3 4.4 C 8.1 km/h
3125 08-01-2012 20:35:00 5.9 C 6.13 g/m*3 4.17 C 8.1 km/h
Sensor: Nr:Datum:Temp:Abs-Feuchte:Windchill:Wind:
Aussen-T/F 3126 08-01-2012 20:40:00 5.8 C 6.16 g/m*3 3.68 C 9.7 km/h
3127 08-01-2012 20:45:00 5.7 C 6.05 g/m*3 3.93 C 8.1 km/h
3128 08-01-2012 20:50:00 5.7 C 6.19 g/m*3 5.7 C 4.8 km/h
3129 08-01-2012 20:55:00 5.6 C 6.15 g/m*3 5.6 C 4.8 km/h
3130 08-01-2012 21:00:00 5.6 C 6.22 g/m*3 5.6 C 3.2 km/h
3131 08-01-2012 21:05:00 5.5 C 6.18 g/m*3 5.5 C 3.2 km/h
3132 08-01-2012 21:10:00 5.4 C 6.07 g/m*3 4.06 C 6.4 km/h
3133 08-01-2012 21:15:00 5.4 C 6.14 g/m*3 5.4 C 4.8 km/h
3134 08-01-2012 21:20:00 5.4 C 6.21 g/m*3 5.4 C 3.2 km/h
3135 08-01-2012 21:25:00 5.4 C 6.21 g/m*3 4.06 C 6.4 km/h
3136 08-01-2012 21:30:00 5.3 C 6.24 g/m*3 5.3 C 4.8 km/h
3137 08-01-2012 21:35:00 5.2 C 6.2 g/m*3 5.2 C 3.2 km/h
3138 08-01-2012 21:40:00 5.2 C 6.27 g/m*3 5.2 C 3.2 km/h
3139 08-01-2012 21:45:00 5.2 C 6.2 g/m*3 5.2 C 4.8 km/h
3140 08-01-2012 21:50:00 5.2 C 6.27 g/m*3 5.2 C 3.2 km/h
3141 08-01-2012 21:55:00 5.2 C 6.2 g/m*3 5.2 C 4.8 km/h
3142 08-01-2012 22:00:00 5.2 C 6.33 g/m*3 5.2 C 1.6 km/h
3143 08-01-2012 22:05:00 5.1 C 6.29 g/m*3 5.1 C 3.2 km/h
3144 08-01-2012 22:10:00 5.1 C 6.29 g/m*3 5.1 C 3.2 km/h
3145 08-01-2012 22:15:00 5.1 C 6.29 g/m*3 5.1 C 3.2 km/h
3146 08-01-2012 22:20:00 5 C 6.32 g/m*3 5 C 4.8 km/h
3147 08-01-2012 22:25:00 4.9 C 6.28 g/m*3 4.9 C 3.2 km/h
3148 08-01-2012 22:30:00 4.9 C 6.28 g/m*3 4.9 C 3.2 km/h
3149 08-01-2012 22:35:00 4.9 C 6.35 g/m*3 4.9 C 1.6 km/h
3150 08-01-2012 22:40:00 4.9 C 6.28 g/m*3 4.9 C 4.8 km/h
Sensor: Nr:Datum:Temp:Abs-Feuchte:Windchill:Wind:
Aussen-T/F 3151 08-01-2012 22:45:00 4.8 C 6.24 g/m*3 4.8 C 3.2 km/h
3152 08-01-2012 22:50:00 4.7 C 6.19 g/m*3 4.7 C 4.8 km/h
3153 08-01-2012 22:55:00 4.6 C 6.15 g/m*3 4.6 C 3.2 km/h
3154 08-01-2012 23:00:00 4.4 C 6.07 g/m*3 4.4 C 4.8 km/h
3155 08-01-2012 23:05:00 4.4 C 6.14 g/m*3 4.4 C 3.2 km/h
3156 08-01-2012 23:10:00 4.3 C 6.1 g/m*3 4.3 C 3.2 km/h
3157 08-01-2012 23:15:00 4.2 C 6.06 g/m*3 2.67 C 6.4 km/h
3158 08-01-2012 23:20:00 4.3 C 6.1 g/m*3 2.78 C 6.4 km/h
3159 08-01-2012 23:25:00 4.4 C 6.14 g/m*3 4.4 C 4.8 km/h
3160 08-01-2012 23:30:00 4.5 C 6.11 g/m*3 4.5 C 3.2 km/h
3161 08-01-2012 23:35:00 4.6 C 6.15 g/m*3 4.6 C 4.8 km/h
3162 08-01-2012 23:40:00 4.6 C 6.15 g/m*3 4.6 C 4.8 km/h
3163 08-01-2012 23:45:00 4.7 C 6.13 g/m*3 4.7 C 4.8 km/h
3164 08-01-2012 23:50:00 4.7 C 6.13 g/m*3 4.7 C 4.8 km/h
3165 08-01-2012 23:55:00 4.8 C 6.17 g/m*3 4.8 C 4.8 km/h
3166 09-01-2012 00:00:00 4.8 C 6.17 g/m*3 4.8 C 4.8 km/h
3167 09-01-2012 00:05:00 4.9 C 6.21 g/m*3 4.9 C 4.8 km/h
3168 09-01-2012 00:10:00 4.8 C 6.17 g/m*3 4.8 C 3.2 km/h
3169 09-01-2012 00:15:00 4.8 C 6.1 g/m*3 4.8 C 4.8 km/h
3170 09-01-2012 00:20:00 4.8 C 6.1 g/m*3 3.36 C 6.4 km/h
3171 09-01-2012 00:25:00 4.9 C 6.08 g/m*3 4.9 C 4.8 km/h
3172 09-01-2012 00:30:00 5 C 6.18 g/m*3 3.59 C 6.4 km/h
3173 09-01-2012 00:35:00 5.1 C 6.22 g/m*3 5.1 C 4.8 km/h
3174 09-01-2012 00:40:00 5.1 C 6.22 g/m*3 5.1 C 3.2 km/h
3175 09-01-2012 00:45:00 5 C 6.18 g/m*3 5 C 4.8 km/h
Sensor: Nr:Datum:Temp:Abs-Feuchte:Windchill:Wind:
Aussen-T/F 3176 09-01-2012 00:50:00 5 C 6.12 g/m*3 5 C 4.8 km/h
3177 09-01-2012 00:55:00 5 C 6.12 g/m*3 3.59 C 6.4 km/h
3178 09-01-2012 01:00:00 4.9 C 6.14 g/m*3 4.9 C 3.2 km/h
3179 09-01-2012 01:05:00 4.8 C 6.1 g/m*3 4.8 C 3.2 km/h
3180 09-01-2012 01:10:00 4.8 C 6.1 g/m*3 4.8 C 1.6 km/h
3181 09-01-2012 01:15:00 4.8 C 6.17 g/m*3 4.8 C 1.6 km/h
3182 09-01-2012 01:20:00 4.7 C 6.19 g/m*3 4.7 C 3.2 km/h
3183 09-01-2012 01:25:00 4.7 C 6.19 g/m*3 4.7 C 3.2 km/h
3184 09-01-2012 01:30:00 4.6 C 6.15 g/m*3 4.6 C 3.2 km/h
3185 09-01-2012 01:35:00 4.6 C 6.15 g/m*3 3.13 C 6.4 km/h
3186 09-01-2012 01:40:00 4.5 C 6.11 g/m*3 4.5 C 4.8 km/h
3187 09-01-2012 01:45:00 4.4 C 6.07 g/m*3 4.4 C 1.6 km/h
3188 09-01-2012 01:50:00 4.3 C 6.03 g/m*3 4.3 C 3.2 km/h
3189 09-01-2012 01:55:00 4.3 C 6.03 g/m*3 4.3 C 3.2 km/h
3190 09-01-2012 02:00:00 4.4 C 6.07 g/m*3 4.4 C 4.8 km/h
3191 09-01-2012 02:05:00 4.5 C 6.11 g/m*3 4.5 C 4.8 km/h
3192 09-01-2012 02:10:00 4.5 C 6.11 g/m*3 4.5 C 3.2 km/h
3193 09-01-2012 02:15:00 4.5 C 6.05 g/m*3 4.5 C 3.2 km/h
3194 09-01-2012 02:20:00 4.6 C 6.09 g/m*3 4.6 C 1.6 km/h
3195 09-01-2012 02:25:00 4.6 C 6.15 g/m*3 4.6 C 3.2 km/h
3196 09-01-2012 02:30:00 4.5 C 6.05 g/m*3 4.5 C 4.8 km/h
3197 09-01-2012 02:35:00 4.6 C 6.09 g/m*3 4.6 C 3.2 km/h
3198 09-01-2012 02:40:00 4.5 C 6.11 g/m*3 4.5 C 1.6 km/h
3199 09-01-2012 02:45:00 4.4 C 6.07 g/m*3 4.4 C 1.6 km/h
3200 09-01-2012 02:50:00 4.5 C 6.05 g/m*3 4.5 C 1.6 km/h
Sensor: Nr:Datum:Temp:Abs-Feuchte:Windchill:Wind:
Aussen-T/F 3201 09-01-2012 02:55:00 4.5 C 6.05 g/m*3 3.02 C 6.4 km/h
3202 09-01-2012 03:00:00 4.6 C 6.02 g/m*3 3.13 C 6.4 km/h
3203 09-01-2012 03:05:00 4.5 C 6.05 g/m*3 4.5 C 4.8 km/h
3204 09-01-2012 03:10:00 4.6 C 6.02 g/m*3 2.64 C 8.1 km/h
3205 09-01-2012 03:15:00 4.7 C 6.06 g/m*3 3.25 C 6.4 km/h
3206 09-01-2012 03:20:00 4.7 C 6.06 g/m*3 4.7 C 4.8 km/h
3207 09-01-2012 03:25:00 4.7 C 6.06 g/m*3 4.7 C 3.2 km/h
3208 09-01-2012 03:30:00 4.7 C 6.06 g/m*3 4.7 C 4.8 km/h
3209 09-01-2012 03:35:00 4.7 C 6.13 g/m*3 4.7 C 4.8 km/h
3210 09-01-2012 03:40:00 4.7 C 6.13 g/m*3 4.7 C 3.2 km/h
3211 09-01-2012 03:45:00 4.6 C 6.09 g/m*3 4.6 C 3.2 km/h
3212 09-01-2012 03:50:00 4.7 C 6.06 g/m*3 4.7 C 4.8 km/h
3213 09-01-2012 03:55:00 4.7 C 6.06 g/m*3 4.7 C 3.2 km/h
3214 09-01-2012 04:00:00 4.7 C 6.13 g/m*3 4.7 C 1.6 km/h
3215 09-01-2012 04:05:00 4.6 C 6.09 g/m*3 4.6 C 3.2 km/h
3216 09-01-2012 04:10: